<?xml version="1.0" encoding="UTF-8" standalone="no" ?>
<gpx xmlns="http://www.topografix.com/GPX/1/1" xmlns:xsi="http://www.w3.org/2001/XMLSchema-instance" xsi:schemaLocation="http://www.topografix.com/GPX/1/1 http://www.topografix.com/GPX/1/1/gpx.xsd" version="1.1" creator="VisuGPX - https://www.visugpx.com">
  <metadata>
    <name>Projet Rando 01 mai le 14 mars 2020 54 km</name>
    <desc><![CDATA[
]]></desc>
  </metadata>
  <trk>
    <name><![CDATA[Projet Rando 01 mai le 14 mars 2020 54 km]]></name>
    <trkseg>
      <trkpt lat="48.53251" lon="-4.3651">
        <ele>45.00142</ele>
        <time>2020-03-14T12:03:16.657Z</time>
      </trkpt>
      <trkpt lat="48.53251" lon="-4.3651">
        <ele>45.00142</ele>
        <time>2020-03-14T12:03:16.670Z</time>
      </trkpt>
      <trkpt lat="48.53205" lon="-4.36613">
        <ele>45.00142</ele>
        <time>2020-03-14T12:03:38.074Z</time>
      </trkpt>
      <trkpt lat="48.53193" lon="-4.36602">
        <ele>44.923195</ele>
        <time>2020-03-14T12:03:41.532Z</time>
      </trkpt>
      <trkpt lat="48.53194" lon="-4.36601">
        <ele>44.907634</ele>
        <time>2020-03-14T12:03:41.843Z</time>
      </trkpt>
      <trkpt lat="48.53198" lon="-4.36596">
        <ele>44.846984</ele>
        <time>2020-03-14T12:03:43.054Z</time>
      </trkpt>
      <trkpt lat="48.53204" lon="-4.36589">
        <ele>44.748024</ele>
        <time>2020-03-14T12:03:45.029Z</time>
      </trkpt>
      <trkpt lat="48.53209" lon="-4.36583">
        <ele>44.66099</ele>
        <time>2020-03-14T12:03:46.765Z</time>
      </trkpt>
      <trkpt lat="48.53213" lon="-4.3648">
        <ele>43.778199</ele>
        <time>2020-03-14T12:04:04.414Z</time>
      </trkpt>
      <trkpt lat="48.53217" lon="-4.36378">
        <ele>42.89448</ele>
        <time>2020-03-14T12:04:22.080Z</time>
      </trkpt>
      <trkpt lat="48.53216" lon="-4.36377">
        <ele>42.883848</ele>
        <time>2020-03-14T12:04:22.312Z</time>
      </trkpt>
      <trkpt lat="48.53219" lon="-4.36367">
        <ele>42.788985</ele>
        <time>2020-03-14T12:04:24.411Z</time>
      </trkpt>
      <trkpt lat="48.53216" lon="-4.36364">
        <ele>42.73954</ele>
        <time>2020-03-14T12:04:25.568Z</time>
      </trkpt>
      <trkpt lat="48.53213" lon="-4.36358">
        <ele>42.670196</ele>
        <time>2020-03-14T12:04:27.207Z</time>
      </trkpt>
      <trkpt lat="48.53205" lon="-4.36353">
        <ele>42.596336</ele>
        <time>2020-03-14T12:04:29.964Z</time>
      </trkpt>
      <trkpt lat="48.53196" lon="-4.36346">
        <ele>42.515202</ele>
        <time>2020-03-14T12:04:33.127Z</time>
      </trkpt>
      <trkpt lat="48.53187" lon="-4.36338">
        <ele>42.426908</ele>
        <time>2020-03-14T12:04:36.268Z</time>
      </trkpt>
      <trkpt lat="48.53101" lon="-4.36261">
        <ele>41.595215</ele>
        <time>2020-03-14T12:05:10.387Z</time>
      </trkpt>
      <trkpt lat="48.53084" lon="-4.36235">
        <ele>41.386881</ele>
        <time>2020-03-14T12:05:19.248Z</time>
      </trkpt>
      <trkpt lat="48.53078" lon="-4.36244">
        <ele>41.315511</ele>
        <time>2020-03-14T12:05:21.118Z</time>
      </trkpt>
      <trkpt lat="48.53065" lon="-4.36265">
        <ele>41.174875</ele>
        <time>2020-03-14T12:05:25.206Z</time>
      </trkpt>
      <trkpt lat="48.5306" lon="-4.36281">
        <ele>41.28155</ele>
        <time>2020-03-14T12:05:28.292Z</time>
      </trkpt>
      <trkpt lat="48.53056" lon="-4.3632">
        <ele>41.529203</ele>
        <time>2020-03-14T12:05:34.965Z</time>
      </trkpt>
      <trkpt lat="48.53058" lon="-4.36339">
        <ele>41.653453</ele>
        <time>2020-03-14T12:05:38.652Z</time>
      </trkpt>
      <trkpt lat="48.53082" lon="-4.364">
        <ele>42.098417</ele>
        <time>2020-03-14T12:05:50.645Z</time>
      </trkpt>
      <trkpt lat="48.53083" lon="-4.36413">
        <ele>42.178829</ele>
        <time>2020-03-14T12:05:53.005Z</time>
      </trkpt>
      <trkpt lat="48.53086" lon="-4.36413">
        <ele>42.199802</ele>
        <time>2020-03-14T12:05:53.511Z</time>
      </trkpt>
      <trkpt lat="48.53088" lon="-4.36415">
        <ele>42.220937</ele>
        <time>2020-03-14T12:05:54.117Z</time>
      </trkpt>
      <trkpt lat="48.53089" lon="-4.36417">
        <ele>42.242729</ele>
        <time>2020-03-14T12:05:54.536Z</time>
      </trkpt>
      <trkpt lat="48.53088" lon="-4.3643">
        <ele>42.322064</ele>
        <time>2020-03-14T12:05:56.952Z</time>
      </trkpt>
      <trkpt lat="48.53087" lon="-4.36432">
        <ele>42.343632</ele>
        <time>2020-03-14T12:05:57.413Z</time>
      </trkpt>
      <trkpt lat="48.53093" lon="-4.36447">
        <ele>42.458085</ele>
        <time>2020-03-14T12:06:01.370Z</time>
      </trkpt>
      <trkpt lat="48.53109" lon="-4.36484">
        <ele>42.732959</ele>
        <time>2020-03-14T12:06:09.589Z</time>
      </trkpt>
      <trkpt lat="48.53115" lon="-4.36517">
        <ele>43.049869</ele>
        <time>2020-03-14T12:06:16.444Z</time>
      </trkpt>
      <trkpt lat="48.53116" lon="-4.3653">
        <ele>43.212896</ele>
        <time>2020-03-14T12:06:18.780Z</time>
      </trkpt>
      <trkpt lat="48.53117" lon="-4.36538">
        <ele>43.329255</ele>
        <time>2020-03-14T12:06:20.287Z</time>
      </trkpt>
      <trkpt lat="48.53106" lon="-4.36543">
        <ele>43.556306</ele>
        <time>2020-03-14T12:06:24.431Z</time>
      </trkpt>
      <trkpt lat="48.53094" lon="-4.36553">
        <ele>43.839158</ele>
        <time>2020-03-14T12:06:28.734Z</time>
      </trkpt>
      <trkpt lat="48.53089" lon="-4.36563">
        <ele>44.000527</ele>
        <time>2020-03-14T12:06:30.665Z</time>
      </trkpt>
      <trkpt lat="48.53086" lon="-4.36563">
        <ele>44.054926</ele>
        <time>2020-03-14T12:06:31.550Z</time>
      </trkpt>
      <trkpt lat="48.53084" lon="-4.36567">
        <ele>44.131327</ele>
        <time>2020-03-14T12:06:32.823Z</time>
      </trkpt>
      <trkpt lat="48.53081" lon="-4.36573">
        <ele>44.225064</ele>
        <time>2020-03-14T12:06:34.689Z</time>
      </trkpt>
      <trkpt lat="48.53056" lon="-4.36571">
        <ele>44.738844</ele>
        <time>2020-03-14T12:06:52.396Z</time>
      </trkpt>
      <trkpt lat="48.53048" lon="-4.36577">
        <ele>44.906625</ele>
        <time>2020-03-14T12:06:56.409Z</time>
      </trkpt>
      <trkpt lat="48.53035" lon="-4.36604">
        <ele>45.357804</ele>
        <time>2020-03-14T12:07:06.265Z</time>
      </trkpt>
      <trkpt lat="48.53032" lon="-4.36648">
        <ele>45.953135</ele>
        <time>2020-03-14T12:07:19.001Z</time>
      </trkpt>
      <trkpt lat="48.53032" lon="-4.36655">
        <ele>46.03978</ele>
        <time>2020-03-14T12:07:21.380Z</time>
      </trkpt>
      <trkpt lat="48.5303" lon="-4.36662">
        <ele>46.14383</ele>
        <time>2020-03-14T12:07:23.435Z</time>
      </trkpt>
      <trkpt lat="48.53026" lon="-4.36666">
        <ele>46.251713</ele>
        <time>2020-03-14T12:07:26.397Z</time>
      </trkpt>
      <trkpt lat="48.5302" lon="-4.3667">
        <ele>46.374721</ele>
        <time>2020-03-14T12:07:29.303Z</time>
      </trkpt>
      <trkpt lat="48.53013" lon="-4.36691">
        <ele>46.846024</ele>
        <time>2020-03-14T12:07:36.188Z</time>
      </trkpt>
      <trkpt lat="48.53017" lon="-4.36706">
        <ele>47.245803</ele>
        <time>2020-03-14T12:07:41.633Z</time>
      </trkpt>
      <trkpt lat="48.53015" lon="-4.36746">
        <ele>48.222054</ele>
        <time>2020-03-14T12:07:54.769Z</time>
      </trkpt>
      <trkpt lat="48.52997" lon="-4.36764">
        <ele>48.991177</ele>
        <time>2020-03-14T12:08:06.057Z</time>
      </trkpt>
      <trkpt lat="48.52993" lon="-4.36777">
        <ele>49.346754</ele>
        <time>2020-03-14T12:08:10.805Z</time>
      </trkpt>
      <trkpt lat="48.52987" lon="-4.36813">
        <ele>50.255846</ele>
        <time>2020-03-14T12:08:24.209Z</time>
      </trkpt>
      <trkpt lat="48.52989" lon="-4.36848">
        <ele>51.111422</ele>
        <time>2020-03-14T12:08:36.582Z</time>
      </trkpt>
      <trkpt lat="48.52989" lon="-4.36857">
        <ele>51.3243</ele>
        <time>2020-03-14T12:08:39.951Z</time>
      </trkpt>
      <trkpt lat="48.52965" lon="-4.36863">
        <ele>52.225175</ele>
        <time>2020-03-14T12:08:52.341Z</time>
      </trkpt>
      <trkpt lat="48.52963" lon="-4.36863">
        <ele>52.303304</ele>
        <time>2020-03-14T12:08:53.852Z</time>
      </trkpt>
      <trkpt lat="48.52934" lon="-4.36873">
        <ele>53.426143</ele>
        <time>2020-03-14T12:09:08.967Z</time>
      </trkpt>
      <trkpt lat="48.52918" lon="-4.36879">
        <ele>54.164484</ele>
        <time>2020-03-14T12:09:18.919Z</time>
      </trkpt>
      <trkpt lat="48.52877" lon="-4.36901">
        <ele>56.042484</ele>
        <time>2020-03-14T12:09:36.911Z</time>
      </trkpt>
      <trkpt lat="48.52838" lon="-4.36938">
        <ele>58.069401</ele>
        <time>2020-03-14T12:09:55.890Z</time>
      </trkpt>
      <trkpt lat="48.52833" lon="-4.36948">
        <ele>58.423737</ele>
        <time>2020-03-14T12:09:59.538Z</time>
      </trkpt>
      <trkpt lat="48.52822" lon="-4.36975">
        <ele>59.361309</ele>
        <time>2020-03-14T12:10:08.559Z</time>
      </trkpt>
      <trkpt lat="48.52802" lon="-4.37043">
        <ele>61.350063</ele>
        <time>2020-03-14T12:10:27.547Z</time>
      </trkpt>
      <trkpt lat="48.52798" lon="-4.37067">
        <ele>61.847073</ele>
        <time>2020-03-14T12:10:34.333Z</time>
      </trkpt>
      <trkpt lat="48.52792" lon="-4.37071">
        <ele>62.054298</ele>
        <time>2020-03-14T12:10:36.867Z</time>
      </trkpt>
      <trkpt lat="48.52723" lon="-4.37064">
        <ele>64.135354</ele>
        <time>2020-03-14T12:11:02.481Z</time>
      </trkpt>
      <trkpt lat="48.52616" lon="-4.3705">
        <ele>66.947867</ele>
        <time>2020-03-14T12:11:36.394Z</time>
      </trkpt>
      <trkpt lat="48.52546" lon="-4.37042">
        <ele>68.056929</ele>
        <time>2020-03-14T12:11:56.674Z</time>
      </trkpt>
      <trkpt lat="48.52531" lon="-4.37044">
        <ele>68.289658</ele>
        <time>2020-03-14T12:12:00.889Z</time>
      </trkpt>
      <trkpt lat="48.52436" lon="-4.3709">
        <ele>69.706414</ele>
        <time>2020-03-14T12:12:29.959Z</time>
      </trkpt>
      <trkpt lat="48.52401" lon="-4.37131">
        <ele>70.215508</ele>
        <time>2020-03-14T12:12:42.399Z</time>
      </trkpt>
      <trkpt lat="48.52369" lon="-4.37182">
        <ele>70.764619</ele>
        <time>2020-03-14T12:12:55.654Z</time>
      </trkpt>
      <trkpt lat="48.52355" lon="-4.37207">
        <ele>71.012773</ele>
        <time>2020-03-14T12:13:01.506Z</time>
      </trkpt>
      <trkpt lat="48.52227" lon="-4.37363">
        <ele>72.011662</ele>
        <time>2020-03-14T12:13:44.026Z</time>
      </trkpt>
      <trkpt lat="48.52213" lon="-4.37389">
        <ele>72.118408</ele>
        <time>2020-03-14T12:13:49.257Z</time>
      </trkpt>
      <trkpt lat="48.52217" lon="-4.37413">
        <ele>72.197169</ele>
        <time>2020-03-14T12:13:52.946Z</time>
      </trkpt>
      <trkpt lat="48.52276" lon="-4.37504">
        <ele>72.121849</ele>
        <time>2020-03-14T12:14:12.176Z</time>
      </trkpt>
      <trkpt lat="48.52284" lon="-4.37518">
        <ele>72.103213</ele>
        <time>2020-03-14T12:14:15.166Z</time>
      </trkpt>
      <trkpt lat="48.52276" lon="-4.37524">
        <ele>72.089901</ele>
        <time>2020-03-14T12:14:17.102Z</time>
      </trkpt>
      <trkpt lat="48.52245" lon="-4.3756">
        <ele>72.033604</ele>
        <time>2020-03-14T12:14:25.807Z</time>
      </trkpt>
      <trkpt lat="48.52231" lon="-4.37565">
        <ele>72.01229</ele>
        <time>2020-03-14T12:14:29.150Z</time>
      </trkpt>
      <trkpt lat="48.52185" lon="-4.37547">
        <ele>71.953051</ele>
        <time>2020-03-14T12:14:39.632Z</time>
      </trkpt>
      <trkpt lat="48.52123" lon="-4.37544">
        <ele>71.889954</ele>
        <time>2020-03-14T12:14:53.599Z</time>
      </trkpt>
      <trkpt lat="48.52074" lon="-4.37525">
        <ele>71.838792</ele>
        <time>2020-03-14T12:15:05.413Z</time>
      </trkpt>
      <trkpt lat="48.52003" lon="-4.3751">
        <ele>71.607333</ele>
        <time>2020-03-14T12:15:22.434Z</time>
      </trkpt>
      <trkpt lat="48.51916" lon="-4.37468">
        <ele>70.931776</ele>
        <time>2020-03-14T12:15:41.706Z</time>
      </trkpt>
      <trkpt lat="48.51898" lon="-4.37465">
        <ele>70.799226</ele>
        <time>2020-03-14T12:15:45.395Z</time>
      </trkpt>
      <trkpt lat="48.5189" lon="-4.37572">
        <ele>69.952335</ele>
        <time>2020-03-14T12:15:59.220Z</time>
      </trkpt>
      <trkpt lat="48.51878" lon="-4.37653">
        <ele>68.831796</ele>
        <time>2020-03-14T12:16:09.452Z</time>
      </trkpt>
      <trkpt lat="48.51879" lon="-4.37709">
        <ele>68.089407</ele>
        <time>2020-03-14T12:16:16.098Z</time>
      </trkpt>
      <trkpt lat="48.5191" lon="-4.3788">
        <ele>65.756983</ele>
        <time>2020-03-14T12:16:37.385Z</time>
      </trkpt>
      <trkpt lat="48.51935" lon="-4.38046">
        <ele>63.540628</ele>
        <time>2020-03-14T12:16:58.478Z</time>
      </trkpt>
      <trkpt lat="48.51939" lon="-4.38102">
        <ele>62.960959</ele>
        <time>2020-03-14T12:17:05.662Z</time>
      </trkpt>
      <trkpt lat="48.51939" lon="-4.38133">
        <ele>62.680206</ele>
        <time>2020-03-14T12:17:12.294Z</time>
      </trkpt>
      <trkpt lat="48.51934" lon="-4.38148">
        <ele>62.53439</ele>
        <time>2020-03-14T12:17:15.846Z</time>
      </trkpt>
      <trkpt lat="48.51934" lon="-4.38187">
        <ele>62.173747</ele>
        <time>2020-03-14T12:17:24.457Z</time>
      </trkpt>
      <trkpt lat="48.5194" lon="-4.38314">
        <ele>61.019774</ele>
        <time>2020-03-14T12:17:52.394Z</time>
      </trkpt>
      <trkpt lat="48.5194" lon="-4.38339">
        <ele>60.807808</ele>
        <time>2020-03-14T12:17:57.878Z</time>
      </trkpt>
      <trkpt lat="48.51946" lon="-4.38351">
        <ele>60.708067</ele>
        <time>2020-03-14T12:18:01.209Z</time>
      </trkpt>
      <trkpt lat="48.51958" lon="-4.38383">
        <ele>60.467362</ele>
        <time>2020-03-14T12:18:09.198Z</time>
      </trkpt>
      <trkpt lat="48.51959" lon="-4.38396">
        <ele>60.379331</ele>
        <time>2020-03-14T12:18:12.219Z</time>
      </trkpt>
      <trkpt lat="48.51956" lon="-4.38428">
        <ele>60.165518</ele>
        <time>2020-03-14T12:18:19.334Z</time>
      </trkpt>
      <trkpt lat="48.51949" lon="-4.38544">
        <ele>59.395417</ele>
        <time>2020-03-14T12:18:45.505Z</time>
      </trkpt>
      <trkpt lat="48.51952" lon="-4.38575">
        <ele>59.186702</ele>
        <time>2020-03-14T12:18:52.858Z</time>
      </trkpt>
      <trkpt lat="48.51952" lon="-4.38591">
        <ele>59.081612</ele>
        <time>2020-03-14T12:18:56.313Z</time>
      </trkpt>
      <trkpt lat="48.51952" lon="-4.38608">
        <ele>59.060809</ele>
        <time>2020-03-14T12:19:00.167Z</time>
      </trkpt>
      <trkpt lat="48.51956" lon="-4.38623">
        <ele>59.083295</ele>
        <time>2020-03-14T12:19:04.281Z</time>
      </trkpt>
      <trkpt lat="48.51969" lon="-4.38622">
        <ele>59.107589</ele>
        <time>2020-03-14T12:19:08.411Z</time>
      </trkpt>
      <trkpt lat="48.52006" lon="-4.38583">
        <ele>59.196191</ele>
        <time>2020-03-14T12:19:24.659Z</time>
      </trkpt>
      <trkpt lat="48.52014" lon="-4.38565">
        <ele>59.225571</ele>
        <time>2020-03-14T12:19:30.505Z</time>
      </trkpt>
      <trkpt lat="48.52035" lon="-4.38542">
        <ele>59.276376</ele>
        <time>2020-03-14T12:19:40.473Z</time>
      </trkpt>
      <trkpt lat="48.52107" lon="-4.38497">
        <ele>59.490673</ele>
        <time>2020-03-14T12:20:12.230Z</time>
      </trkpt>
      <trkpt lat="48.52124" lon="-4.38482">
        <ele>59.607877</ele>
        <time>2020-03-14T12:20:20.861Z</time>
      </trkpt>
      <trkpt lat="48.52197" lon="-4.38464">
        <ele>60.043289</ele>
        <time>2020-03-14T12:20:50.226Z</time>
      </trkpt>
      <trkpt lat="48.52244" lon="-4.3845">
        <ele>60.32715</ele>
        <time>2020-03-14T12:21:09.423Z</time>
      </trkpt>
      <trkpt lat="48.52244" lon="-4.3845">
        <ele>60.32715</ele>
        <time>2020-03-14T12:21:09.488Z</time>
      </trkpt>
      <trkpt lat="48.52244" lon="-4.3845">
        <ele>60.32715</ele>
        <time>2020-03-14T12:21:09.493Z</time>
      </trkpt>
      <trkpt lat="48.52244" lon="-4.3845">
        <ele>60.32715</ele>
        <time>2020-03-14T12:21:09.496Z</time>
      </trkpt>
      <trkpt lat="48.52172" lon="-4.38493">
        <ele>60.319707</ele>
        <time>2020-03-14T12:21:29.528Z</time>
      </trkpt>
      <trkpt lat="48.521" lon="-4.38537">
        <ele>60.111586</ele>
        <time>2020-03-14T12:21:49.586Z</time>
      </trkpt>
      <trkpt lat="48.52028" lon="-4.3858">
        <ele>60.018253</ele>
        <time>2020-03-14T12:22:09.612Z</time>
      </trkpt>
      <trkpt lat="48.51956" lon="-4.38623">
        <ele>60.11405</ele>
        <time>2020-03-14T12:22:29.669Z</time>
      </trkpt>
      <trkpt lat="48.51969" lon="-4.38622">
        <ele>60.129286</ele>
        <time>2020-03-14T12:22:32.858Z</time>
      </trkpt>
      <trkpt lat="48.52006" lon="-4.38583">
        <ele>60.184851</ele>
        <time>2020-03-14T12:22:44.498Z</time>
      </trkpt>
      <trkpt lat="48.52014" lon="-4.38565">
        <ele>60.203277</ele>
        <time>2020-03-14T12:22:48.362Z</time>
      </trkpt>
      <trkpt lat="48.52035" lon="-4.38542">
        <ele>60.385645</ele>
        <time>2020-03-14T12:22:55.037Z</time>
      </trkpt>
      <trkpt lat="48.52107" lon="-4.38497">
        <ele>60.956959</ele>
        <time>2020-03-14T12:23:15.311Z</time>
      </trkpt>
      <trkpt lat="48.52124" lon="-4.38482">
        <ele>61.101387</ele>
        <time>2020-03-14T12:23:20.438Z</time>
      </trkpt>
      <trkpt lat="48.52197" lon="-4.38464">
        <ele>61.614479</ele>
        <time>2020-03-14T12:23:39.472Z</time>
      </trkpt>
      <trkpt lat="48.52245" lon="-4.3845">
        <ele>61.902556</ele>
        <time>2020-03-14T12:23:52.120Z</time>
      </trkpt>
      <trkpt lat="48.52262" lon="-4.38535">
        <ele>62.250036</ele>
        <time>2020-03-14T12:24:07.415Z</time>
      </trkpt>
      <trkpt lat="48.52278" lon="-4.38621">
        <ele>62.570894</ele>
        <time>2020-03-14T12:24:22.719Z</time>
      </trkpt>
      <trkpt lat="48.52278" lon="-4.38621">
        <ele>62.570894</ele>
        <time>2020-03-14T12:24:22.719Z</time>
      </trkpt>
      <trkpt lat="48.52265" lon="-4.38536">
        <ele>62.503341</ele>
        <time>2020-03-14T12:24:37.636Z</time>
      </trkpt>
      <trkpt lat="48.52253" lon="-4.38451">
        <ele>62.435864</ele>
        <time>2020-03-14T12:24:52.536Z</time>
      </trkpt>
      <trkpt lat="48.52258" lon="-4.38445">
        <ele>62.427803</ele>
        <time>2020-03-14T12:24:54.312Z</time>
      </trkpt>
      <trkpt lat="48.52252" lon="-4.38444">
        <ele>62.421079</ele>
        <time>2020-03-14T12:24:55.793Z</time>
      </trkpt>
      <trkpt lat="48.52243" lon="-4.38454">
        <ele>62.408314</ele>
        <time>2020-03-14T12:24:58.606Z</time>
      </trkpt>
      <trkpt lat="48.52244" lon="-4.38471">
        <ele>62.394599</ele>
        <time>2020-03-14T12:25:01.636Z</time>
      </trkpt>
      <trkpt lat="48.52247" lon="-4.38489">
        <ele>62.38014</ele>
        <time>2020-03-14T12:25:04.828Z</time>
      </trkpt>
      <trkpt lat="48.52251" lon="-4.38509">
        <ele>62.361436</ele>
        <time>2020-03-14T12:25:08.440Z</time>
      </trkpt>
      <trkpt lat="48.5222" lon="-4.38629">
        <ele>61.542343</ele>
        <time>2020-03-14T12:25:30.552Z</time>
      </trkpt>
      <trkpt lat="48.5222" lon="-4.38629">
        <ele>61.542343</ele>
        <time>2020-03-14T12:25:30.552Z</time>
      </trkpt>
      <trkpt lat="48.52256" lon="-4.38531">
        <ele>60.826806</ele>
        <time>2020-03-14T12:25:49.864Z</time>
      </trkpt>
      <trkpt lat="48.5226" lon="-4.38554">
        <ele>60.676882</ele>
        <time>2020-03-14T12:25:53.912Z</time>
      </trkpt>
      <trkpt lat="48.52264" lon="-4.38575">
        <ele>60.479888</ele>
        <time>2020-03-14T12:25:57.738Z</time>
      </trkpt>
      <trkpt lat="48.52264" lon="-4.38598">
        <ele>60.251793</ele>
        <time>2020-03-14T12:26:01.725Z</time>
      </trkpt>
      <trkpt lat="48.52253" lon="-4.38613">
        <ele>60.035125</ele>
        <time>2020-03-14T12:26:05.506Z</time>
      </trkpt>
      <trkpt lat="48.52239" lon="-4.38616">
        <ele>59.821271</ele>
        <time>2020-03-14T12:26:09.234Z</time>
      </trkpt>
      <trkpt lat="48.52185" lon="-4.38676">
        <ele>58.822724</ele>
        <time>2020-03-14T12:26:26.654Z</time>
      </trkpt>
      <trkpt lat="48.51992" lon="-4.38836">
        <ele>55.153314</ele>
        <time>2020-03-14T12:27:08.064Z</time>
      </trkpt>
      <trkpt lat="48.51986" lon="-4.38842">
        <ele>55.040825</ele>
        <time>2020-03-14T12:27:09.421Z</time>
      </trkpt>
      <trkpt lat="48.51983" lon="-4.38848">
        <ele>54.951247</ele>
        <time>2020-03-14T12:27:10.292Z</time>
      </trkpt>
      <trkpt lat="48.51982" lon="-4.38854">
        <ele>54.883013</ele>
        <time>2020-03-14T12:27:11.079Z</time>
      </trkpt>
      <trkpt lat="48.51982" lon="-4.38859">
        <ele>54.831378</ele>
        <time>2020-03-14T12:27:11.791Z</time>
      </trkpt>
      <trkpt lat="48.51988" lon="-4.38883">
        <ele>54.628382</ele>
        <time>2020-03-14T12:27:14.966Z</time>
      </trkpt>
      <trkpt lat="48.52016" lon="-4.38974">
        <ele>53.833033</ele>
        <time>2020-03-14T12:27:27.723Z</time>
      </trkpt>
      <trkpt lat="48.5203" lon="-4.39004">
        <ele>53.539847</ele>
        <time>2020-03-14T12:27:32.628Z</time>
      </trkpt>
      <trkpt lat="48.52037" lon="-4.39014">
        <ele>53.418309</ele>
        <time>2020-03-14T12:27:34.540Z</time>
      </trkpt>
      <trkpt lat="48.52049" lon="-4.39029">
        <ele>53.235237</ele>
        <time>2020-03-14T12:27:37.747Z</time>
      </trkpt>
      <trkpt lat="48.5207" lon="-4.39053">
        <ele>52.918706</ele>
        <time>2020-03-14T12:27:42.971Z</time>
      </trkpt>
      <trkpt lat="48.52099" lon="-4.39103">
        <ele>52.658773</ele>
        <time>2020-03-14T12:27:52.722Z</time>
      </trkpt>
      <trkpt lat="48.52138" lon="-4.39229">
        <ele>52.513195</ele>
        <time>2020-03-14T12:28:13.670Z</time>
      </trkpt>
      <trkpt lat="48.52154" lon="-4.3927">
        <ele>52.463402</ele>
        <time>2020-03-14T12:28:20.944Z</time>
      </trkpt>
      <trkpt lat="48.52152" lon="-4.39286">
        <ele>52.446921</ele>
        <time>2020-03-14T12:28:23.333Z</time>
      </trkpt>
      <trkpt lat="48.52152" lon="-4.39306">
        <ele>52.426184</ele>
        <time>2020-03-14T12:28:26.337Z</time>
      </trkpt>
      <trkpt lat="48.52149" lon="-4.39311">
        <ele>52.418673</ele>
        <time>2020-03-14T12:28:27.433Z</time>
      </trkpt>
      <trkpt lat="48.52148" lon="-4.3932">
        <ele>52.422558</ele>
        <time>2020-03-14T12:28:28.687Z</time>
      </trkpt>
      <trkpt lat="48.52146" lon="-4.39403">
        <ele>52.579281</ele>
        <time>2020-03-14T12:28:41.739Z</time>
      </trkpt>
      <trkpt lat="48.52144" lon="-4.39474">
        <ele>52.713194</ele>
        <time>2020-03-14T12:28:53.243Z</time>
      </trkpt>
      <trkpt lat="48.52129" lon="-4.39524">
        <ele>52.818426</ele>
        <time>2020-03-14T12:29:02.297Z</time>
      </trkpt>
      <trkpt lat="48.52121" lon="-4.39536">
        <ele>52.850563</ele>
        <time>2020-03-14T12:29:04.955Z</time>
      </trkpt>
      <trkpt lat="48.52122" lon="-4.39548">
        <ele>52.872492</ele>
        <time>2020-03-14T12:29:07.052Z</time>
      </trkpt>
      <trkpt lat="48.52127" lon="-4.39592">
        <ele>53.041013</ele>
        <time>2020-03-14T12:29:14.312Z</time>
      </trkpt>
      <trkpt lat="48.52138" lon="-4.39613">
        <ele>53.223227</ele>
        <time>2020-03-14T12:29:18.764Z</time>
      </trkpt>
      <trkpt lat="48.52145" lon="-4.39626">
        <ele>53.34198</ele>
        <time>2020-03-14T12:29:21.580Z</time>
      </trkpt>
      <trkpt lat="48.52164" lon="-4.39658">
        <ele>53.645725</ele>
        <time>2020-03-14T12:29:33.497Z</time>
      </trkpt>
      <trkpt lat="48.52164" lon="-4.39665">
        <ele>53.694554</ele>
        <time>2020-03-14T12:29:35.286Z</time>
      </trkpt>
      <trkpt lat="48.52179" lon="-4.397">
        <ele>53.989566</ele>
        <time>2020-03-14T12:29:47.060Z</time>
      </trkpt>
      <trkpt lat="48.52189" lon="-4.39722">
        <ele>54.177834</ele>
        <time>2020-03-14T12:29:54.364Z</time>
      </trkpt>
      <trkpt lat="48.52218" lon="-4.39753">
        <ele>54.547647</ele>
        <time>2020-03-14T12:30:09.497Z</time>
      </trkpt>
      <trkpt lat="48.5223" lon="-4.39748">
        <ele>54.683123</ele>
        <time>2020-03-14T12:30:15.286Z</time>
      </trkpt>
      <trkpt lat="48.52234" lon="-4.39743">
        <ele>54.737822</ele>
        <time>2020-03-14T12:30:17.385Z</time>
      </trkpt>
      <trkpt lat="48.52236" lon="-4.39742">
        <ele>54.756931</ele>
        <time>2020-03-14T12:30:18.104Z</time>
      </trkpt>
      <trkpt lat="48.52238" lon="-4.39734">
        <ele>54.817256</ele>
        <time>2020-03-14T12:30:20.443Z</time>
      </trkpt>
      <trkpt lat="48.52249" lon="-4.39736">
        <ele>54.914987</ele>
        <time>2020-03-14T12:30:24.963Z</time>
      </trkpt>
      <trkpt lat="48.52253" lon="-4.39737">
        <ele>54.949405</ele>
        <time>2020-03-14T12:30:27.084Z</time>
      </trkpt>
      <trkpt lat="48.52288" lon="-4.39732">
        <ele>55.247759</ele>
        <time>2020-03-14T12:30:41.486Z</time>
      </trkpt>
      <trkpt lat="48.52366" lon="-4.39704">
        <ele>55.935015</ele>
        <time>2020-03-14T12:31:14.431Z</time>
      </trkpt>
      <trkpt lat="48.52372" lon="-4.39717">
        <ele>56.027167</ele>
        <time>2020-03-14T12:31:18.549Z</time>
      </trkpt>
      <trkpt lat="48.52413" lon="-4.39844">
        <ele>56.293121</ele>
        <time>2020-03-14T12:31:54.803Z</time>
      </trkpt>
      <trkpt lat="48.52437" lon="-4.39892">
        <ele>56.23733</ele>
        <time>2020-03-14T12:32:09.227Z</time>
      </trkpt>
      <trkpt lat="48.52526" lon="-4.39992">
        <ele>56.018505</ele>
        <time>2020-03-14T12:32:48.475Z</time>
      </trkpt>
      <trkpt lat="48.52574" lon="-4.40021">
        <ele>55.809128</ele>
        <time>2020-03-14T12:33:06.710Z</time>
      </trkpt>
      <trkpt lat="48.5264" lon="-4.40044">
        <ele>55.534585</ele>
        <time>2020-03-14T12:33:30.751Z</time>
      </trkpt>
      <trkpt lat="48.52642" lon="-4.40028">
        <ele>55.491219</ele>
        <time>2020-03-14T12:33:33.125Z</time>
      </trkpt>
      <trkpt lat="48.52652" lon="-4.39965">
        <ele>55.401829</ele>
        <time>2020-03-14T12:33:43.379Z</time>
      </trkpt>
      <trkpt lat="48.52661" lon="-4.39906">
        <ele>55.438475</ele>
        <time>2020-03-14T12:33:52.966Z</time>
      </trkpt>
      <trkpt lat="48.52683" lon="-4.39828">
        <ele>55.489893</ele>
        <time>2020-03-14T12:34:06.603Z</time>
      </trkpt>
      <trkpt lat="48.52722" lon="-4.39718">
        <ele>55.739402</ele>
        <time>2020-03-14T12:34:28.504Z</time>
      </trkpt>
      <trkpt lat="48.52778" lon="-4.39585">
        <ele>56.94335</ele>
        <time>2020-03-14T12:34:58.915Z</time>
      </trkpt>
      <trkpt lat="48.52793" lon="-4.39546">
        <ele>57.289574</ele>
        <time>2020-03-14T12:35:08.053Z</time>
      </trkpt>
      <trkpt lat="48.528" lon="-4.3955">
        <ele>57.370099</ele>
        <time>2020-03-14T12:35:10.204Z</time>
      </trkpt>
      <trkpt lat="48.5286" lon="-4.39623">
        <ele>58.452817</ele>
        <time>2020-03-14T12:35:33.894Z</time>
      </trkpt>
      <trkpt lat="48.52986" lon="-4.39775">
        <ele>60.477785</ele>
        <time>2020-03-14T12:36:20.225Z</time>
      </trkpt>
      <trkpt lat="48.52994" lon="-4.39746">
        <ele>60.578376</ele>
        <time>2020-03-14T12:36:25.651Z</time>
      </trkpt>
      <trkpt lat="48.53014" lon="-4.3966">
        <ele>60.868674</ele>
        <time>2020-03-14T12:36:41.029Z</time>
      </trkpt>
      <trkpt lat="48.53071" lon="-4.39522">
        <ele>60.982728</ele>
        <time>2020-03-14T12:37:05.179Z</time>
      </trkpt>
      <trkpt lat="48.53078" lon="-4.39475">
        <ele>60.855685</ele>
        <time>2020-03-14T12:37:12.132Z</time>
      </trkpt>
      <trkpt lat="48.53079" lon="-4.39449">
        <ele>60.785869</ele>
        <time>2020-03-14T12:37:16.017Z</time>
      </trkpt>
      <trkpt lat="48.53092" lon="-4.39439">
        <ele>60.730263</ele>
        <time>2020-03-14T12:37:20.870Z</time>
      </trkpt>
      <trkpt lat="48.5314" lon="-4.39399">
        <ele>60.508828</ele>
        <time>2020-03-14T12:37:40.474Z</time>
      </trkpt>
      <trkpt lat="48.53178" lon="-4.39378">
        <ele>60.231958</ele>
        <time>2020-03-14T12:37:54.615Z</time>
      </trkpt>
      <trkpt lat="48.53236" lon="-4.39308">
        <ele>59.595315</ele>
        <time>2020-03-14T12:38:19.741Z</time>
      </trkpt>
      <trkpt lat="48.53302" lon="-4.39248">
        <ele>58.931151</ele>
        <time>2020-03-14T12:38:45.978Z</time>
      </trkpt>
      <trkpt lat="48.53308" lon="-4.39249">
        <ele>58.878496</ele>
        <time>2020-03-14T12:38:47.781Z</time>
      </trkpt>
      <trkpt lat="48.53313" lon="-4.39254">
        <ele>58.815072</ele>
        <time>2020-03-14T12:38:49.725Z</time>
      </trkpt>
      <trkpt lat="48.53318" lon="-4.39267">
        <ele>58.708196</ele>
        <time>2020-03-14T12:38:53.084Z</time>
      </trkpt>
      <trkpt lat="48.53331" lon="-4.39387">
        <ele>57.815524</ele>
        <time>2020-03-14T12:39:20.665Z</time>
      </trkpt>
      <trkpt lat="48.53358" lon="-4.39489">
        <ele>57.017536</ele>
        <time>2020-03-14T12:39:44.691Z</time>
      </trkpt>
      <trkpt lat="48.53364" lon="-4.39532">
        <ele>56.70085</ele>
        <time>2020-03-14T12:39:54.407Z</time>
      </trkpt>
      <trkpt lat="48.53369" lon="-4.39541">
        <ele>56.613738</ele>
        <time>2020-03-14T12:39:56.926Z</time>
      </trkpt>
      <trkpt lat="48.5339" lon="-4.39556">
        <ele>56.357562</ele>
        <time>2020-03-14T12:40:04.722Z</time>
      </trkpt>
      <trkpt lat="48.53428" lon="-4.39538">
        <ele>55.917762</ele>
        <time>2020-03-14T12:40:17.957Z</time>
      </trkpt>
      <trkpt lat="48.53436" lon="-4.39535">
        <ele>55.81864</ele>
        <time>2020-03-14T12:40:20.804Z</time>
      </trkpt>
      <trkpt lat="48.53447" lon="-4.39535">
        <ele>55.703102</ele>
        <time>2020-03-14T12:40:24.242Z</time>
      </trkpt>
      <trkpt lat="48.53497" lon="-4.39556">
        <ele>55.124511</ele>
        <time>2020-03-14T12:40:41.826Z</time>
      </trkpt>
      <trkpt lat="48.53596" lon="-4.39637">
        <ele>54.395083</ele>
        <time>2020-03-14T12:41:19.856Z</time>
      </trkpt>
      <trkpt lat="48.53611" lon="-4.39714">
        <ele>54.097101</ele>
        <time>2020-03-14T12:41:39.251Z</time>
      </trkpt>
      <trkpt lat="48.53626" lon="-4.3976">
        <ele>53.924407</ele>
        <time>2020-03-14T12:41:52.017Z</time>
      </trkpt>
      <trkpt lat="48.53628" lon="-4.39768">
        <ele>53.947712</ele>
        <time>2020-03-14T12:41:53.787Z</time>
      </trkpt>
      <trkpt lat="48.53634" lon="-4.3977">
        <ele>53.97928</ele>
        <time>2020-03-14T12:41:56.374Z</time>
      </trkpt>
      <trkpt lat="48.53701" lon="-4.398">
        <ele>54.29852</ele>
        <time>2020-03-14T12:42:22.933Z</time>
      </trkpt>
      <trkpt lat="48.53843" lon="-4.3987">
        <ele>54.897829</ele>
        <time>2020-03-14T12:43:22.595Z</time>
      </trkpt>
      <trkpt lat="48.53875" lon="-4.39889">
        <ele>54.998404</ele>
        <time>2020-03-14T12:43:36.030Z</time>
      </trkpt>
      <trkpt lat="48.53882" lon="-4.39878">
        <ele>55.027564</ele>
        <time>2020-03-14T12:43:39.897Z</time>
      </trkpt>
      <trkpt lat="48.53894" lon="-4.39865">
        <ele>55.071742</ele>
        <time>2020-03-14T12:43:45.721Z</time>
      </trkpt>
      <trkpt lat="48.53907" lon="-4.39865">
        <ele>55.11146</ele>
        <time>2020-03-14T12:43:50.930Z</time>
      </trkpt>
      <trkpt lat="48.54081" lon="-4.39977">
        <ele>55.103917</ele>
        <time>2020-03-14T12:44:59.308Z</time>
      </trkpt>
      <trkpt lat="48.54085" lon="-4.3998">
        <ele>55.097999</ele>
        <time>2020-03-14T12:45:00.887Z</time>
      </trkpt>
      <trkpt lat="48.54102" lon="-4.40001">
        <ele>55.070786</ele>
        <time>2020-03-14T12:45:08.981Z</time>
      </trkpt>
      <trkpt lat="48.54118" lon="-4.40009">
        <ele>55.05017</ele>
        <time>2020-03-14T12:45:15.139Z</time>
      </trkpt>
      <trkpt lat="48.54138" lon="-4.40004">
        <ele>55.173433</ele>
        <time>2020-03-14T12:45:22.707Z</time>
      </trkpt>
      <trkpt lat="48.54193" lon="-4.39967">
        <ele>55.591242</ele>
        <time>2020-03-14T12:45:45.880Z</time>
      </trkpt>
      <trkpt lat="48.54201" lon="-4.39956">
        <ele>55.664697</ele>
        <time>2020-03-14T12:45:50.050Z</time>
      </trkpt>
      <trkpt lat="48.54207" lon="-4.39929">
        <ele>55.797557</ele>
        <time>2020-03-14T12:45:57.676Z</time>
      </trkpt>
      <trkpt lat="48.54205" lon="-4.39902">
        <ele>55.921389</ele>
        <time>2020-03-14T12:46:04.909Z</time>
      </trkpt>
      <trkpt lat="48.54197" lon="-4.3989">
        <ele>55.999541</ele>
        <time>2020-03-14T12:46:08.144Z</time>
      </trkpt>
      <trkpt lat="48.54186" lon="-4.39854">
        <ele>56.179226</ele>
        <time>2020-03-14T12:46:15.254Z</time>
      </trkpt>
      <trkpt lat="48.54135" lon="-4.3956">
        <ele>59.169585</ele>
        <time>2020-03-14T12:47:15.663Z</time>
      </trkpt>
      <trkpt lat="48.54129" lon="-4.39504">
        <ele>59.479246</ele>
        <time>2020-03-14T12:47:26.414Z</time>
      </trkpt>
      <trkpt lat="48.54129" lon="-4.39487">
        <ele>59.570309</ele>
        <time>2020-03-14T12:47:29.412Z</time>
      </trkpt>
      <trkpt lat="48.5413" lon="-4.39466">
        <ele>59.684474</ele>
        <time>2020-03-14T12:47:33.296Z</time>
      </trkpt>
      <trkpt lat="48.54133" lon="-4.39444">
        <ele>59.804928</ele>
        <time>2020-03-14T12:47:37.239Z</time>
      </trkpt>
      <trkpt lat="48.54134" lon="-4.39438">
        <ele>59.841599</ele>
        <time>2020-03-14T12:47:38.370Z</time>
      </trkpt>
      <trkpt lat="48.54139" lon="-4.39411">
        <ele>59.993872</ele>
        <time>2020-03-14T12:47:43.370Z</time>
      </trkpt>
      <trkpt lat="48.54142" lon="-4.394">
        <ele>60.059225</ele>
        <time>2020-03-14T12:47:45.429Z</time>
      </trkpt>
      <trkpt lat="48.54142" lon="-4.39398">
        <ele>60.066206</ele>
        <time>2020-03-14T12:47:45.657Z</time>
      </trkpt>
      <trkpt lat="48.54145" lon="-4.39389">
        <ele>60.120814</ele>
        <time>2020-03-14T12:47:47.299Z</time>
      </trkpt>
      <trkpt lat="48.54149" lon="-4.39378">
        <ele>60.189588</ele>
        <time>2020-03-14T12:47:49.476Z</time>
      </trkpt>
      <trkpt lat="48.54159" lon="-4.39352">
        <ele>60.355108</ele>
        <time>2020-03-14T12:47:54.596Z</time>
      </trkpt>
      <trkpt lat="48.54161" lon="-4.39342">
        <ele>60.412872</ele>
        <time>2020-03-14T12:47:56.298Z</time>
      </trkpt>
      <trkpt lat="48.54168" lon="-4.3917">
        <ele>60.594662</ele>
        <time>2020-03-14T12:48:22.510Z</time>
      </trkpt>
      <trkpt lat="48.54184" lon="-4.39077">
        <ele>60.585515</ele>
        <time>2020-03-14T12:48:36.961Z</time>
      </trkpt>
      <trkpt lat="48.54191" lon="-4.3905">
        <ele>60.582807</ele>
        <time>2020-03-14T12:48:41.347Z</time>
      </trkpt>
      <trkpt lat="48.54222" lon="-4.39007">
        <ele>60.687941</ele>
        <time>2020-03-14T12:48:51.202Z</time>
      </trkpt>
      <trkpt lat="48.54249" lon="-4.38965">
        <ele>60.80689</ele>
        <time>2020-03-14T12:49:00.603Z</time>
      </trkpt>
      <trkpt lat="48.54296" lon="-4.3904">
        <ele>61.013586</ele>
        <time>2020-03-14T12:49:17.424Z</time>
      </trkpt>
      <trkpt lat="48.54393" lon="-4.39202">
        <ele>61.552194</ele>
        <time>2020-03-14T12:49:54.312Z</time>
      </trkpt>
      <trkpt lat="48.54483" lon="-4.3938">
        <ele>61.604346</ele>
        <time>2020-03-14T12:50:29.650Z</time>
      </trkpt>
      <trkpt lat="48.54487" lon="-4.39386">
        <ele>61.585707</ele>
        <time>2020-03-14T12:50:31.202Z</time>
      </trkpt>
      <trkpt lat="48.54495" lon="-4.39391">
        <ele>61.559124</ele>
        <time>2020-03-14T12:50:32.959Z</time>
      </trkpt>
      <trkpt lat="48.5452" lon="-4.39401">
        <ele>61.479933</ele>
        <time>2020-03-14T12:50:38.663Z</time>
      </trkpt>
      <trkpt lat="48.54732" lon="-4.39437">
        <ele>59.267165</ele>
        <time>2020-03-14T12:51:21.965Z</time>
      </trkpt>
      <trkpt lat="48.54761" lon="-4.3945">
        <ele>58.857329</ele>
        <time>2020-03-14T12:51:27.536Z</time>
      </trkpt>
      <trkpt lat="48.54771" lon="-4.39461">
        <ele>58.348584</ele>
        <time>2020-03-14T12:51:29.627Z</time>
      </trkpt>
      <trkpt lat="48.54777" lon="-4.39442">
        <ele>57.767735</ele>
        <time>2020-03-14T12:51:32.836Z</time>
      </trkpt>
      <trkpt lat="48.54784" lon="-4.39431">
        <ele>57.345228</ele>
        <time>2020-03-14T12:51:35.154Z</time>
      </trkpt>
      <trkpt lat="48.54784" lon="-4.39421">
        <ele>57.0712</ele>
        <time>2020-03-14T12:51:36.969Z</time>
      </trkpt>
      <trkpt lat="48.54785" lon="-4.39411">
        <ele>56.808224</ele>
        <time>2020-03-14T12:51:38.794Z</time>
      </trkpt>
      <trkpt lat="48.54791" lon="-4.39377">
        <ele>55.823387</ele>
        <time>2020-03-14T12:51:45.781Z</time>
      </trkpt>
      <trkpt lat="48.54809" lon="-4.39278">
        <ele>52.962724</ele>
        <time>2020-03-14T12:52:05.160Z</time>
      </trkpt>
      <trkpt lat="48.54815" lon="-4.3925">
        <ele>52.153794</ele>
        <time>2020-03-14T12:52:10.360Z</time>
      </trkpt>
      <trkpt lat="48.5484" lon="-4.39138">
        <ele>48.295148</ele>
        <time>2020-03-14T12:52:30.723Z</time>
      </trkpt>
      <trkpt lat="48.54893" lon="-4.39091">
        <ele>45.088924</ele>
        <time>2020-03-14T12:52:47.112Z</time>
      </trkpt>
      <trkpt lat="48.54914" lon="-4.39064">
        <ele>43.658438</ele>
        <time>2020-03-14T12:52:54.939Z</time>
      </trkpt>
      <trkpt lat="48.5493" lon="-4.39029">
        <ele>42.174242</ele>
        <time>2020-03-14T12:53:03.188Z</time>
      </trkpt>
      <trkpt lat="48.54934" lon="-4.39017">
        <ele>41.969636</ele>
        <time>2020-03-14T12:53:06.037Z</time>
      </trkpt>
      <trkpt lat="48.54939" lon="-4.38994">
        <ele>42.07113</ele>
        <time>2020-03-14T12:53:10.653Z</time>
      </trkpt>
      <trkpt lat="48.54957" lon="-4.39001">
        <ele>42.185399</ele>
        <time>2020-03-14T12:53:16.807Z</time>
      </trkpt>
      <trkpt lat="48.55006" lon="-4.39045">
        <ele>42.552736</ele>
        <time>2020-03-14T12:53:36.556Z</time>
      </trkpt>
      <trkpt lat="48.55047" lon="-4.39109">
        <ele>42.928137</ele>
        <time>2020-03-14T12:54:03.419Z</time>
      </trkpt>
      <trkpt lat="48.55076" lon="-4.39188">
        <ele>44.19126</ele>
        <time>2020-03-14T12:54:38.467Z</time>
      </trkpt>
      <trkpt lat="48.55098" lon="-4.39227">
        <ele>45.26069</ele>
        <time>2020-03-14T12:54:56.543Z</time>
      </trkpt>
      <trkpt lat="48.55132" lon="-4.39272">
        <ele>46.710707</ele>
        <time>2020-03-14T12:55:19.739Z</time>
      </trkpt>
      <trkpt lat="48.55162" lon="-4.39294">
        <ele>47.787241</ele>
        <time>2020-03-14T12:55:35.745Z</time>
      </trkpt>
      <trkpt lat="48.55178" lon="-4.39296">
        <ele>48.270258</ele>
        <time>2020-03-14T12:55:42.120Z</time>
      </trkpt>
      <trkpt lat="48.55195" lon="-4.39303">
        <ele>48.825207</ele>
        <time>2020-03-14T12:55:50.409Z</time>
      </trkpt>
      <trkpt lat="48.55231" lon="-4.39337">
        <ele>49.335485</ele>
        <time>2020-03-14T12:56:08.222Z</time>
      </trkpt>
      <trkpt lat="48.55287" lon="-4.39367">
        <ele>50.059494</ele>
        <time>2020-03-14T12:56:32.173Z</time>
      </trkpt>
      <trkpt lat="48.55302" lon="-4.39375">
        <ele>50.24621</ele>
        <time>2020-03-14T12:56:37.866Z</time>
      </trkpt>
      <trkpt lat="48.55398" lon="-4.39457">
        <ele>51.911884</ele>
        <time>2020-03-14T12:57:25.376Z</time>
      </trkpt>
      <trkpt lat="48.55413" lon="-4.39485">
        <ele>52.367011</ele>
        <time>2020-03-14T12:57:36.067Z</time>
      </trkpt>
      <trkpt lat="48.55427" lon="-4.3953">
        <ele>52.985741</ele>
        <time>2020-03-14T12:57:51.732Z</time>
      </trkpt>
      <trkpt lat="48.55396" lon="-4.39573">
        <ele>53.770375</ele>
        <time>2020-03-14T12:58:10.993Z</time>
      </trkpt>
      <trkpt lat="48.5539" lon="-4.39588">
        <ele>53.984337</ele>
        <time>2020-03-14T12:58:17.365Z</time>
      </trkpt>
      <trkpt lat="48.55397" lon="-4.39594">
        <ele>54.124832</ele>
        <time>2020-03-14T12:58:19.518Z</time>
      </trkpt>
      <trkpt lat="48.55406" lon="-4.39615">
        <ele>54.346497</ele>
        <time>2020-03-14T12:58:23.887Z</time>
      </trkpt>
      <trkpt lat="48.55423" lon="-4.39701">
        <ele>53.962192</ele>
        <time>2020-03-14T12:58:40.331Z</time>
      </trkpt>
      <trkpt lat="48.5544" lon="-4.39721">
        <ele>53.817234</ele>
        <time>2020-03-14T12:58:46.292Z</time>
      </trkpt>
      <trkpt lat="48.55482" lon="-4.39746">
        <ele>53.531743</ele>
        <time>2020-03-14T12:58:55.133Z</time>
      </trkpt>
      <trkpt lat="48.55505" lon="-4.39768">
        <ele>53.353011</ele>
        <time>2020-03-14T12:59:00.030Z</time>
      </trkpt>
      <trkpt lat="48.5551" lon="-4.39773">
        <ele>53.314819</ele>
        <time>2020-03-14T12:59:00.984Z</time>
      </trkpt>
      <trkpt lat="48.55522" lon="-4.39776">
        <ele>53.237202</ele>
        <time>2020-03-14T12:59:04.459Z</time>
      </trkpt>
      <trkpt lat="48.5553" lon="-4.39789">
        <ele>52.914692</ele>
        <time>2020-03-14T12:59:08.210Z</time>
      </trkpt>
      <trkpt lat="48.55633" lon="-4.40059">
        <ele>46.114848</ele>
        <time>2020-03-14T13:00:06.619Z</time>
      </trkpt>
      <trkpt lat="48.55665" lon="-4.40103">
        <ele>45.879063</ele>
        <time>2020-03-14T13:00:21.217Z</time>
      </trkpt>
      <trkpt lat="48.5567" lon="-4.40119">
        <ele>45.812434</ele>
        <time>2020-03-14T13:00:24.723Z</time>
      </trkpt>
      <trkpt lat="48.5567" lon="-4.40119">
        <ele>45.812434</ele>
        <time>2020-03-14T13:00:25.079Z</time>
      </trkpt>
      <trkpt lat="48.5567" lon="-4.40119">
        <ele>45.812434</ele>
        <time>2020-03-14T13:00:25.119Z</time>
      </trkpt>
      <trkpt lat="48.55674" lon="-4.40129">
        <ele>45.769718</ele>
        <time>2020-03-14T13:00:26.661Z</time>
      </trkpt>
      <trkpt lat="48.55655" lon="-4.40146">
        <ele>45.647672</ele>
        <time>2020-03-14T13:00:36.438Z</time>
      </trkpt>
      <trkpt lat="48.55609" lon="-4.40201">
        <ele>45.325068</ele>
        <time>2020-03-14T13:01:01.717Z</time>
      </trkpt>
      <trkpt lat="48.55576" lon="-4.40215">
        <ele>46.377273</ele>
        <time>2020-03-14T13:01:17.753Z</time>
      </trkpt>
      <trkpt lat="48.55534" lon="-4.40277">
        <ele>48.310712</ele>
        <time>2020-03-14T13:01:49.897Z</time>
      </trkpt>
      <trkpt lat="48.55515" lon="-4.40309">
        <ele>49.256358</ele>
        <time>2020-03-14T13:02:04.678Z</time>
      </trkpt>
      <trkpt lat="48.55515" lon="-4.40309">
        <ele>49.256358</ele>
        <time>2020-03-14T13:02:04.727Z</time>
      </trkpt>
      <trkpt lat="48.55487" lon="-4.40357">
        <ele>50.642058</ele>
        <time>2020-03-14T13:02:20.199Z</time>
      </trkpt>
      <trkpt lat="48.55482" lon="-4.40395">
        <ele>51.435</ele>
        <time>2020-03-14T13:02:29.166Z</time>
      </trkpt>
      <trkpt lat="48.55483" lon="-4.40412">
        <ele>51.720466</ele>
        <time>2020-03-14T13:02:33.431Z</time>
      </trkpt>
      <trkpt lat="48.55487" lon="-4.40445">
        <ele>52.292002</ele>
        <time>2020-03-14T13:02:40.781Z</time>
      </trkpt>
      <trkpt lat="48.55487" lon="-4.40452">
        <ele>52.408893</ele>
        <time>2020-03-14T13:02:42.513Z</time>
      </trkpt>
      <trkpt lat="48.55486" lon="-4.40461">
        <ele>52.571566</ele>
        <time>2020-03-14T13:02:44.894Z</time>
      </trkpt>
      <trkpt lat="48.55474" lon="-4.40526">
        <ele>53.705692</ele>
        <time>2020-03-14T13:02:59.169Z</time>
      </trkpt>
      <trkpt lat="48.55469" lon="-4.40547">
        <ele>54.090076</ele>
        <time>2020-03-14T13:03:03.640Z</time>
      </trkpt>
      <trkpt lat="48.55495" lon="-4.40547">
        <ele>54.732411</ele>
        <time>2020-03-14T13:03:12.152Z</time>
      </trkpt>
      <trkpt lat="48.55545" lon="-4.40551">
        <ele>56.022091</ele>
        <time>2020-03-14T13:03:28.455Z</time>
      </trkpt>
      <trkpt lat="48.55561" lon="-4.40579">
        <ele>56.676609</ele>
        <time>2020-03-14T13:03:36.699Z</time>
      </trkpt>
      <trkpt lat="48.55571" lon="-4.40621">
        <ele>57.449225</ele>
        <time>2020-03-14T13:03:46.298Z</time>
      </trkpt>
      <trkpt lat="48.55576" lon="-4.40653">
        <ele>58.031414</ele>
        <time>2020-03-14T13:03:53.627Z</time>
      </trkpt>
      <trkpt lat="48.55579" lon="-4.4068">
        <ele>58.507251</ele>
        <time>2020-03-14T13:04:00.070Z</time>
      </trkpt>
      <trkpt lat="48.5558" lon="-4.40802">
        <ele>60.648384</ele>
        <time>2020-03-14T13:04:27.454Z</time>
      </trkpt>
      <trkpt lat="48.55571" lon="-4.40914">
        <ele>62.639114</ele>
        <time>2020-03-14T13:04:53.530Z</time>
      </trkpt>
      <trkpt lat="48.55572" lon="-4.40954">
        <ele>63.348885</ele>
        <time>2020-03-14T13:05:02.429Z</time>
      </trkpt>
      <trkpt lat="48.55582" lon="-4.40984">
        <ele>63.932407</ele>
        <time>2020-03-14T13:05:09.761Z</time>
      </trkpt>
      <trkpt lat="48.55613" lon="-4.41037">
        <ele>65.199072</ele>
        <time>2020-03-14T13:05:25.678Z</time>
      </trkpt>
      <trkpt lat="48.55638" lon="-4.41161">
        <ele>66.887762</ele>
        <time>2020-03-14T13:05:54.109Z</time>
      </trkpt>
      <trkpt lat="48.55682" lon="-4.41271">
        <ele>68.485722</ele>
        <time>2020-03-14T13:06:19.724Z</time>
      </trkpt>
      <trkpt lat="48.5569" lon="-4.41303">
        <ele>68.804418</ele>
        <time>2020-03-14T13:06:25.716Z</time>
      </trkpt>
      <trkpt lat="48.55693" lon="-4.4132">
        <ele>68.773896</ele>
        <time>2020-03-14T13:06:28.976Z</time>
      </trkpt>
      <trkpt lat="48.55702" lon="-4.41321">
        <ele>68.750821</ele>
        <time>2020-03-14T13:06:30.963Z</time>
      </trkpt>
      <trkpt lat="48.55767" lon="-4.41328">
        <ele>68.577189</ele>
        <time>2020-03-14T13:06:47.102Z</time>
      </trkpt>
      <trkpt lat="48.55787" lon="-4.41341">
        <ele>68.520374</ele>
        <time>2020-03-14T13:06:51.573Z</time>
      </trkpt>
      <trkpt lat="48.55791" lon="-4.4135">
        <ele>68.500969</ele>
        <time>2020-03-14T13:06:53.362Z</time>
      </trkpt>
      <trkpt lat="48.55796" lon="-4.41362">
        <ele>68.476021</ele>
        <time>2020-03-14T13:06:55.333Z</time>
      </trkpt>
      <trkpt lat="48.55801" lon="-4.41464">
        <ele>68.045756</ele>
        <time>2020-03-14T13:07:08.496Z</time>
      </trkpt>
      <trkpt lat="48.55832" lon="-4.41512">
        <ele>67.291315</ele>
        <time>2020-03-14T13:07:16.777Z</time>
      </trkpt>
      <trkpt lat="48.55835" lon="-4.41518">
        <ele>67.207716</ele>
        <time>2020-03-14T13:07:17.626Z</time>
      </trkpt>
      <trkpt lat="48.55837" lon="-4.41526">
        <ele>67.113854</ele>
        <time>2020-03-14T13:07:19.362Z</time>
      </trkpt>
      <trkpt lat="48.55838" lon="-4.41551">
        <ele>66.826354</ele>
        <time>2020-03-14T13:07:24.746Z</time>
      </trkpt>
      <trkpt lat="48.55839" lon="-4.41566">
        <ele>66.65416</ele>
        <time>2020-03-14T13:07:27.957Z</time>
      </trkpt>
      <trkpt lat="48.55892" lon="-4.41559">
        <ele>65.751594</ele>
        <time>2020-03-14T13:07:44.909Z</time>
      </trkpt>
      <trkpt lat="48.55933" lon="-4.41547">
        <ele>65.108046</ele>
        <time>2020-03-14T13:07:58.215Z</time>
      </trkpt>
      <trkpt lat="48.55943" lon="-4.41539">
        <ele>64.956523</ele>
        <time>2020-03-14T13:08:02.047Z</time>
      </trkpt>
      <trkpt lat="48.55947" lon="-4.41416">
        <ele>63.907268</ele>
        <time>2020-03-14T13:08:28.665Z</time>
      </trkpt>
      <trkpt lat="48.55947" lon="-4.41416">
        <ele>63.907268</ele>
        <time>2020-03-14T13:08:28.682Z</time>
      </trkpt>
      <trkpt lat="48.55893" lon="-4.41491">
        <ele>62.964157</ele>
        <time>2020-03-14T13:08:47.647Z</time>
      </trkpt>
      <trkpt lat="48.55839" lon="-4.41566">
        <ele>61.960671</ele>
        <time>2020-03-14T13:09:06.625Z</time>
      </trkpt>
      <trkpt lat="48.55892" lon="-4.41559">
        <ele>61.234274</ele>
        <time>2020-03-14T13:09:20.344Z</time>
      </trkpt>
      <trkpt lat="48.55915" lon="-4.41552">
        <ele>60.912339</ele>
        <time>2020-03-14T13:09:26.425Z</time>
      </trkpt>
      <trkpt lat="48.55932" lon="-4.41463">
        <ele>59.658178</ele>
        <time>2020-03-14T13:09:42.269Z</time>
      </trkpt>
      <trkpt lat="48.55949" lon="-4.41375">
        <ele>58.004683</ele>
        <time>2020-03-14T13:09:58.117Z</time>
      </trkpt>
      <trkpt lat="48.55959" lon="-4.41409">
        <ele>57.342802</ele>
        <time>2020-03-14T13:10:05.453Z</time>
      </trkpt>
      <trkpt lat="48.56018" lon="-4.41586">
        <ele>53.471699</ele>
        <time>2020-03-14T13:10:44.291Z</time>
      </trkpt>
      <trkpt lat="48.56085" lon="-4.4172">
        <ele>49.986639</ele>
        <time>2020-03-14T13:11:17.131Z</time>
      </trkpt>
      <trkpt lat="48.56119" lon="-4.41846">
        <ele>47.413613</ele>
        <time>2020-03-14T13:11:44.292Z</time>
      </trkpt>
      <trkpt lat="48.56147" lon="-4.41923">
        <ele>45.744121</ele>
        <time>2020-03-14T13:12:02.202Z</time>
      </trkpt>
      <trkpt lat="48.56146" lon="-4.41938">
        <ele>45.466395</ele>
        <time>2020-03-14T13:12:04.860Z</time>
      </trkpt>
      <trkpt lat="48.56133" lon="-4.41958">
        <ele>44.943329</ele>
        <time>2020-03-14T13:12:10.601Z</time>
      </trkpt>
      <trkpt lat="48.56128" lon="-4.41964">
        <ele>44.746963</ele>
        <time>2020-03-14T13:12:12.853Z</time>
      </trkpt>
      <trkpt lat="48.56123" lon="-4.41978">
        <ele>44.456479</ele>
        <time>2020-03-14T13:12:15.641Z</time>
      </trkpt>
      <trkpt lat="48.56123" lon="-4.42004">
        <ele>43.975328</ele>
        <time>2020-03-14T13:12:20.929Z</time>
      </trkpt>
      <trkpt lat="48.56129" lon="-4.42015">
        <ele>43.690301</ele>
        <time>2020-03-14T13:12:23.997Z</time>
      </trkpt>
      <trkpt lat="48.56156" lon="-4.42029">
        <ele>42.906234</ele>
        <time>2020-03-14T13:12:32.136Z</time>
      </trkpt>
      <trkpt lat="48.56166" lon="-4.42063">
        <ele>42.20072</ele>
        <time>2020-03-14T13:12:39.418Z</time>
      </trkpt>
      <trkpt lat="48.5617" lon="-4.42212">
        <ele>39.698506</ele>
        <time>2020-03-14T13:13:09.261Z</time>
      </trkpt>
      <trkpt lat="48.56177" lon="-4.42225">
        <ele>39.647805</ele>
        <time>2020-03-14T13:13:12.916Z</time>
      </trkpt>
      <trkpt lat="48.56205" lon="-4.42236">
        <ele>39.522479</ele>
        <time>2020-03-14T13:13:22.105Z</time>
      </trkpt>
      <trkpt lat="48.56223" lon="-4.42263">
        <ele>39.410425</ele>
        <time>2020-03-14T13:13:30.709Z</time>
      </trkpt>
      <trkpt lat="48.56261" lon="-4.42408">
        <ele>38.974474</ele>
        <time>2020-03-14T13:14:10.318Z</time>
      </trkpt>
      <trkpt lat="48.5631" lon="-4.42556">
        <ele>41.518117</ele>
        <time>2020-03-14T13:14:59.526Z</time>
      </trkpt>
      <trkpt lat="48.56349" lon="-4.42641">
        <ele>43.101749</ele>
        <time>2020-03-14T13:15:34.394Z</time>
      </trkpt>
      <trkpt lat="48.56351" lon="-4.42657">
        <ele>43.319554</ele>
        <time>2020-03-14T13:15:39.928Z</time>
      </trkpt>
      <trkpt lat="48.56344" lon="-4.42678">
        <ele>43.60356</ele>
        <time>2020-03-14T13:15:48.291Z</time>
      </trkpt>
      <trkpt lat="48.56312" lon="-4.42728">
        <ele>44.480006</ele>
        <time>2020-03-14T13:16:10.250Z</time>
      </trkpt>
      <trkpt lat="48.56304" lon="-4.42732">
        <ele>44.649143</ele>
        <time>2020-03-14T13:16:14.343Z</time>
      </trkpt>
      <trkpt lat="48.56293" lon="-4.4273">
        <ele>44.861984</ele>
        <time>2020-03-14T13:16:19.875Z</time>
      </trkpt>
      <trkpt lat="48.56293" lon="-4.4273">
        <ele>44.861984</ele>
        <time>2020-03-14T13:16:20.059Z</time>
      </trkpt>
      <trkpt lat="48.56287" lon="-4.42732">
        <ele>44.977915</ele>
        <time>2020-03-14T13:16:22.469Z</time>
      </trkpt>
      <trkpt lat="48.56277" lon="-4.42736">
        <ele>45.178925</ele>
        <time>2020-03-14T13:16:26.852Z</time>
      </trkpt>
      <trkpt lat="48.56248" lon="-4.42735">
        <ele>45.727314</ele>
        <time>2020-03-14T13:16:38.624Z</time>
      </trkpt>
      <trkpt lat="48.56229" lon="-4.42733">
        <ele>46.080455</ele>
        <time>2020-03-14T13:16:46.505Z</time>
      </trkpt>
      <trkpt lat="48.5622" lon="-4.42732">
        <ele>46.25029</ele>
        <time>2020-03-14T13:16:50.612Z</time>
      </trkpt>
      <trkpt lat="48.56229" lon="-4.42733">
        <ele>46.420125</ele>
        <time>2020-03-14T13:16:53.253Z</time>
      </trkpt>
      <trkpt lat="48.56227" lon="-4.42737">
        <ele>46.47651</ele>
        <time>2020-03-14T13:16:54.398Z</time>
      </trkpt>
      <trkpt lat="48.56227" lon="-4.4275">
        <ele>46.464639</ele>
        <time>2020-03-14T13:16:57.853Z</time>
      </trkpt>
      <trkpt lat="48.56231" lon="-4.42758">
        <ele>46.276498</ele>
        <time>2020-03-14T13:17:00.869Z</time>
      </trkpt>
      <trkpt lat="48.56243" lon="-4.42778">
        <ele>45.825266</ele>
        <time>2020-03-14T13:17:06.763Z</time>
      </trkpt>
      <trkpt lat="48.56258" lon="-4.42809">
        <ele>45.145802</ele>
        <time>2020-03-14T13:17:16.993Z</time>
      </trkpt>
      <trkpt lat="48.5628" lon="-4.42834">
        <ele>44.437187</ele>
        <time>2020-03-14T13:17:25.279Z</time>
      </trkpt>
      <trkpt lat="48.5629" lon="-4.42838">
        <ele>44.163498</ele>
        <time>2020-03-14T13:17:28.256Z</time>
      </trkpt>
      <trkpt lat="48.56291" lon="-4.42832">
        <ele>44.054611</ele>
        <time>2020-03-14T13:17:29.295Z</time>
      </trkpt>
      <trkpt lat="48.56283" lon="-4.42805">
        <ele>43.548007</ele>
        <time>2020-03-14T13:17:35.429Z</time>
      </trkpt>
      <trkpt lat="48.56294" lon="-4.42789">
        <ele>43.157656</ele>
        <time>2020-03-14T13:17:39.497Z</time>
      </trkpt>
      <trkpt lat="48.56353" lon="-4.42756">
        <ele>41.272188</ele>
        <time>2020-03-14T13:17:57.419Z</time>
      </trkpt>
      <trkpt lat="48.56364" lon="-4.42752">
        <ele>40.77322</ele>
        <time>2020-03-14T13:18:00.437Z</time>
      </trkpt>
      <trkpt lat="48.56371" lon="-4.42733">
        <ele>40.173671</ele>
        <time>2020-03-14T13:18:04.621Z</time>
      </trkpt>
      <trkpt lat="48.5638" lon="-4.42725">
        <ele>39.691423</ele>
        <time>2020-03-14T13:18:07.840Z</time>
      </trkpt>
      <trkpt lat="48.56396" lon="-4.42723">
        <ele>39.0288</ele>
        <time>2020-03-14T13:18:11.952Z</time>
      </trkpt>
      <trkpt lat="48.56407" lon="-4.42729">
        <ele>38.51015</ele>
        <time>2020-03-14T13:18:15.567Z</time>
      </trkpt>
      <trkpt lat="48.56457" lon="-4.42778">
        <ele>35.96973</ele>
        <time>2020-03-14T13:18:32.200Z</time>
      </trkpt>
      <trkpt lat="48.56474" lon="-4.42808">
        <ele>34.847748</ele>
        <time>2020-03-14T13:18:39.686Z</time>
      </trkpt>
      <trkpt lat="48.56479" lon="-4.42868">
        <ele>33.420628</ele>
        <time>2020-03-14T13:18:50.865Z</time>
      </trkpt>
      <trkpt lat="48.56527" lon="-4.42941">
        <ele>31.319887</ele>
        <time>2020-03-14T13:19:11.202Z</time>
      </trkpt>
      <trkpt lat="48.56534" lon="-4.42957">
        <ele>30.942691</ele>
        <time>2020-03-14T13:19:14.566Z</time>
      </trkpt>
      <trkpt lat="48.56531" lon="-4.42968">
        <ele>30.71218</ele>
        <time>2020-03-14T13:19:16.984Z</time>
      </trkpt>
      <trkpt lat="48.56529" lon="-4.42978">
        <ele>30.493771</ele>
        <time>2020-03-14T13:19:19.351Z</time>
      </trkpt>
      <trkpt lat="48.56534" lon="-4.42968">
        <ele>30.236603</ele>
        <time>2020-03-14T13:19:22.019Z</time>
      </trkpt>
      <trkpt lat="48.56538" lon="-4.42968">
        <ele>30.122444</ele>
        <time>2020-03-14T13:19:22.999Z</time>
      </trkpt>
      <trkpt lat="48.56538" lon="-4.43006">
        <ele>29.352478</ele>
        <time>2020-03-14T13:19:31.034Z</time>
      </trkpt>
      <trkpt lat="48.56534" lon="-4.43084">
        <ele>28.372166</ele>
        <time>2020-03-14T13:19:47.358Z</time>
      </trkpt>
      <trkpt lat="48.5653" lon="-4.43107">
        <ele>28.211467</ele>
        <time>2020-03-14T13:19:52.760Z</time>
      </trkpt>
      <trkpt lat="48.56528" lon="-4.43118">
        <ele>28.136558</ele>
        <time>2020-03-14T13:19:55.662Z</time>
      </trkpt>
      <trkpt lat="48.56515" lon="-4.4319">
        <ele>27.636902</ele>
        <time>2020-03-14T13:20:11.961Z</time>
      </trkpt>
      <trkpt lat="48.56513" lon="-4.43203">
        <ele>27.550229</ele>
        <time>2020-03-14T13:20:14.997Z</time>
      </trkpt>
      <trkpt lat="48.56508" lon="-4.43225">
        <ele>27.395589</ele>
        <time>2020-03-14T13:20:20.965Z</time>
      </trkpt>
      <trkpt lat="48.56505" lon="-4.43249">
        <ele>27.226613</ele>
        <time>2020-03-14T13:20:26.966Z</time>
      </trkpt>
      <trkpt lat="48.56514" lon="-4.43313">
        <ele>26.822624</ele>
        <time>2020-03-14T13:20:42.170Z</time>
      </trkpt>
      <trkpt lat="48.56518" lon="-4.43385">
        <ele>26.576566</ele>
        <time>2020-03-14T13:20:58.975Z</time>
      </trkpt>
      <trkpt lat="48.56559" lon="-4.43445">
        <ele>26.283034</ele>
        <time>2020-03-14T13:21:17.964Z</time>
      </trkpt>
      <trkpt lat="48.56573" lon="-4.43476">
        <ele>26.155886</ele>
        <time>2020-03-14T13:21:26.708Z</time>
      </trkpt>
      <trkpt lat="48.5658" lon="-4.43488">
        <ele>26.09862</ele>
        <time>2020-03-14T13:21:30.130Z</time>
      </trkpt>
      <trkpt lat="48.56588" lon="-4.43502">
        <ele>26.037588</ele>
        <time>2020-03-14T13:21:33.947Z</time>
      </trkpt>
      <trkpt lat="48.56631" lon="-4.4354">
        <ele>26.365092</ele>
        <time>2020-03-14T13:21:54.576Z</time>
      </trkpt>
      <trkpt lat="48.56655" lon="-4.43591">
        <ele>26.994763</ele>
        <time>2020-03-14T13:22:12.591Z</time>
      </trkpt>
      <trkpt lat="48.56666" lon="-4.43601">
        <ele>27.187643</ele>
        <time>2020-03-14T13:22:18.510Z</time>
      </trkpt>
      <trkpt lat="48.56674" lon="-4.43603">
        <ele>27.302892</ele>
        <time>2020-03-14T13:22:21.050Z</time>
      </trkpt>
      <trkpt lat="48.56678" lon="-4.43615">
        <ele>27.434665</ele>
        <time>2020-03-14T13:22:25.306Z</time>
      </trkpt>
      <trkpt lat="48.56689" lon="-4.43654">
        <ele>27.860843</ele>
        <time>2020-03-14T13:22:37.377Z</time>
      </trkpt>
      <trkpt lat="48.56688" lon="-4.43667">
        <ele>27.98836</ele>
        <time>2020-03-14T13:22:41.474Z</time>
      </trkpt>
      <trkpt lat="48.56685" lon="-4.43675">
        <ele>28.084984</ele>
        <time>2020-03-14T13:22:44.976Z</time>
      </trkpt>
      <trkpt lat="48.56677" lon="-4.4368">
        <ele>28.209086</ele>
        <time>2020-03-14T13:22:49.776Z</time>
      </trkpt>
      <trkpt lat="48.56674" lon="-4.43689">
        <ele>28.313268</ele>
        <time>2020-03-14T13:22:52.362Z</time>
      </trkpt>
      <trkpt lat="48.56693" lon="-4.43791">
        <ele>29.556128</ele>
        <time>2020-03-14T13:23:24.737Z</time>
      </trkpt>
      <trkpt lat="48.56694" lon="-4.43824">
        <ele>29.968111</ele>
        <time>2020-03-14T13:23:33.755Z</time>
      </trkpt>
      <trkpt lat="48.56696" lon="-4.43873">
        <ele>30.590485</ele>
        <time>2020-03-14T13:23:48.971Z</time>
      </trkpt>
      <trkpt lat="48.56705" lon="-4.43929">
        <ele>31.320328</ele>
        <time>2020-03-14T13:24:06.403Z</time>
      </trkpt>
      <trkpt lat="48.56702" lon="-4.43967">
        <ele>31.795067</ele>
        <time>2020-03-14T13:24:17.405Z</time>
      </trkpt>
      <trkpt lat="48.56694" lon="-4.43992">
        <ele>32.086432</ele>
        <time>2020-03-14T13:24:24.367Z</time>
      </trkpt>
      <trkpt lat="48.56681" lon="-4.44005">
        <ele>32.194536</ele>
        <time>2020-03-14T13:24:31.655Z</time>
      </trkpt>
      <trkpt lat="48.56668" lon="-4.44011">
        <ele>32.288438</ele>
        <time>2020-03-14T13:24:36.540Z</time>
      </trkpt>
      <trkpt lat="48.56655" lon="-4.44014">
        <ele>32.376167</ele>
        <time>2020-03-14T13:24:42.910Z</time>
      </trkpt>
      <trkpt lat="48.56638" lon="-4.44014">
        <ele>32.495904</ele>
        <time>2020-03-14T13:24:50.006Z</time>
      </trkpt>
      <trkpt lat="48.56626" lon="-4.44006">
        <ele>32.582695</ele>
        <time>2020-03-14T13:24:55.461Z</time>
      </trkpt>
      <trkpt lat="48.56625" lon="-4.43997">
        <ele>32.623234</ele>
        <time>2020-03-14T13:24:57.895Z</time>
      </trkpt>
      <trkpt lat="48.56611" lon="-4.43996">
        <ele>32.717944</ele>
        <time>2020-03-14T13:25:03.366Z</time>
      </trkpt>
      <trkpt lat="48.56583" lon="-4.43969">
        <ele>32.94722</ele>
        <time>2020-03-14T13:25:16.394Z</time>
      </trkpt>
      <trkpt lat="48.56575" lon="-4.43943">
        <ele>33.075471</ele>
        <time>2020-03-14T13:25:23.229Z</time>
      </trkpt>
      <trkpt lat="48.56566" lon="-4.43939">
        <ele>33.140051</ele>
        <time>2020-03-14T13:25:26.713Z</time>
      </trkpt>
      <trkpt lat="48.56533" lon="-4.43953">
        <ele>33.113114</ele>
        <time>2020-03-14T13:25:40.239Z</time>
      </trkpt>
      <trkpt lat="48.56519" lon="-4.43974">
        <ele>32.86004</ele>
        <time>2020-03-14T13:25:47.460Z</time>
      </trkpt>
      <trkpt lat="48.56522" lon="-4.43984">
        <ele>32.770063</ele>
        <time>2020-03-14T13:25:50.871Z</time>
      </trkpt>
      <trkpt lat="48.56522" lon="-4.43984">
        <ele>32.770063</ele>
        <time>2020-03-14T13:25:50.908Z</time>
      </trkpt>
      <trkpt lat="48.56527" lon="-4.43987">
        <ele>32.698973</ele>
        <time>2020-03-14T13:25:52.517Z</time>
      </trkpt>
      <trkpt lat="48.56561" lon="-4.44038">
        <ele>32.093631</ele>
        <time>2020-03-14T13:26:07.326Z</time>
      </trkpt>
      <trkpt lat="48.56579" lon="-4.44049">
        <ele>31.859564</ele>
        <time>2020-03-14T13:26:13.691Z</time>
      </trkpt>
      <trkpt lat="48.56599" lon="-4.44058">
        <ele>31.588744</ele>
        <time>2020-03-14T13:26:20.363Z</time>
      </trkpt>
      <trkpt lat="48.56647" lon="-4.44061">
        <ele>31.028007</ele>
        <time>2020-03-14T13:26:36.117Z</time>
      </trkpt>
      <trkpt lat="48.56687" lon="-4.4408">
        <ele>31.362259</ele>
        <time>2020-03-14T13:26:50.077Z</time>
      </trkpt>
      <trkpt lat="48.56694" lon="-4.44087">
        <ele>31.432983</ele>
        <time>2020-03-14T13:26:52.734Z</time>
      </trkpt>
      <trkpt lat="48.56688" lon="-4.44084">
        <ele>31.487181</ele>
        <time>2020-03-14T13:26:55.483Z</time>
      </trkpt>
      <trkpt lat="48.56675" lon="-4.4409">
        <ele>31.594127</ele>
        <time>2020-03-14T13:27:00.310Z</time>
      </trkpt>
      <trkpt lat="48.56674" lon="-4.44095">
        <ele>31.620913</ele>
        <time>2020-03-14T13:27:01.873Z</time>
      </trkpt>
      <trkpt lat="48.56675" lon="-4.44105">
        <ele>31.677754</ele>
        <time>2020-03-14T13:27:05.351Z</time>
      </trkpt>
      <trkpt lat="48.56686" lon="-4.44148">
        <ele>31.917521</ele>
        <time>2020-03-14T13:27:17.451Z</time>
      </trkpt>
      <trkpt lat="48.56685" lon="-4.44179">
        <ele>32.080564</ele>
        <time>2020-03-14T13:27:26.161Z</time>
      </trkpt>
      <trkpt lat="48.56676" lon="-4.44199">
        <ele>32.207759</ele>
        <time>2020-03-14T13:27:33.949Z</time>
      </trkpt>
      <trkpt lat="48.56673" lon="-4.44221">
        <ele>32.326036</ele>
        <time>2020-03-14T13:27:40.502Z</time>
      </trkpt>
      <trkpt lat="48.56699" lon="-4.44272">
        <ele>32.909316</ele>
        <time>2020-03-14T13:28:01.649Z</time>
      </trkpt>
      <trkpt lat="48.56711" lon="-4.44318">
        <ele>33.464768</ele>
        <time>2020-03-14T13:28:20.117Z</time>
      </trkpt>
      <trkpt lat="48.56712" lon="-4.44338">
        <ele>33.685359</ele>
        <time>2020-03-14T13:28:27.054Z</time>
      </trkpt>
      <trkpt lat="48.56705" lon="-4.44363">
        <ele>33.981162</ele>
        <time>2020-03-14T13:28:35.086Z</time>
      </trkpt>
      <trkpt lat="48.56698" lon="-4.44366">
        <ele>34.101647</ele>
        <time>2020-03-14T13:28:37.760Z</time>
      </trkpt>
      <trkpt lat="48.56642" lon="-4.44352">
        <ele>35.056696</ele>
        <time>2020-03-14T13:29:00.816Z</time>
      </trkpt>
      <trkpt lat="48.56627" lon="-4.44373">
        <ele>35.388634</ele>
        <time>2020-03-14T13:29:07.619Z</time>
      </trkpt>
      <trkpt lat="48.56628" lon="-4.44386">
        <ele>35.353363</ele>
        <time>2020-03-14T13:29:11.539Z</time>
      </trkpt>
      <trkpt lat="48.56634" lon="-4.44394">
        <ele>35.233146</ele>
        <time>2020-03-14T13:29:14.152Z</time>
      </trkpt>
      <trkpt lat="48.56653" lon="-4.44395">
        <ele>34.936285</ele>
        <time>2020-03-14T13:29:20.216Z</time>
      </trkpt>
      <trkpt lat="48.56672" lon="-4.44408">
        <ele>34.609167</ele>
        <time>2020-03-14T13:29:27.658Z</time>
      </trkpt>
      <trkpt lat="48.56678" lon="-4.44412">
        <ele>34.505898</ele>
        <time>2020-03-14T13:29:29.680Z</time>
      </trkpt>
      <trkpt lat="48.5669" lon="-4.44421">
        <ele>34.298444</ele>
        <time>2020-03-14T13:29:33.603Z</time>
      </trkpt>
      <trkpt lat="48.56769" lon="-4.44463">
        <ele>32.964861</ele>
        <time>2020-03-14T13:30:00.365Z</time>
      </trkpt>
      <trkpt lat="48.56785" lon="-4.44532">
        <ele>32.329183</ele>
        <time>2020-03-14T13:30:15.065Z</time>
      </trkpt>
      <trkpt lat="48.56789" lon="-4.4454">
        <ele>32.257371</ele>
        <time>2020-03-14T13:30:16.896Z</time>
      </trkpt>
      <trkpt lat="48.56793" lon="-4.44561">
        <ele>32.103262</ele>
        <time>2020-03-14T13:30:21.457Z</time>
      </trkpt>
      <trkpt lat="48.56817" lon="-4.44673">
        <ele>31.246262</ele>
        <time>2020-03-14T13:30:48.309Z</time>
      </trkpt>
      <trkpt lat="48.5682" lon="-4.44707">
        <ele>31.004407</ele>
        <time>2020-03-14T13:30:55.986Z</time>
      </trkpt>
      <trkpt lat="48.56829" lon="-4.44737">
        <ele>30.763472</ele>
        <time>2020-03-14T13:31:03.474Z</time>
      </trkpt>
      <trkpt lat="48.56838" lon="-4.44816">
        <ele>31.03973</ele>
        <time>2020-03-14T13:31:24.309Z</time>
      </trkpt>
      <trkpt lat="48.56836" lon="-4.44872">
        <ele>31.392893</ele>
        <time>2020-03-14T13:31:39.077Z</time>
      </trkpt>
      <trkpt lat="48.56823" lon="-4.44903">
        <ele>31.618693</ele>
        <time>2020-03-14T13:31:48.707Z</time>
      </trkpt>
      <trkpt lat="48.5682" lon="-4.44907">
        <ele>31.659906</ele>
        <time>2020-03-14T13:31:50.497Z</time>
      </trkpt>
      <trkpt lat="48.56813" lon="-4.44916">
        <ele>31.747242</ele>
        <time>2020-03-14T13:31:54.268Z</time>
      </trkpt>
      <trkpt lat="48.56821" lon="-4.44923">
        <ele>31.834822</ele>
        <time>2020-03-14T13:31:57.918Z</time>
      </trkpt>
      <trkpt lat="48.56826" lon="-4.44928">
        <ele>31.887694</ele>
        <time>2020-03-14T13:31:59.710Z</time>
      </trkpt>
      <trkpt lat="48.56825" lon="-4.44938">
        <ele>31.95334</ele>
        <time>2020-03-14T13:32:03.377Z</time>
      </trkpt>
      <trkpt lat="48.56822" lon="-4.44955">
        <ele>32.060438</ele>
        <time>2020-03-14T13:32:08.142Z</time>
      </trkpt>
      <trkpt lat="48.56816" lon="-4.44959">
        <ele>32.127058</ele>
        <time>2020-03-14T13:32:11.144Z</time>
      </trkpt>
      <trkpt lat="48.56692" lon="-4.4495">
        <ele>34.969615</ele>
        <time>2020-03-14T13:33:09.435Z</time>
      </trkpt>
      <trkpt lat="48.5668" lon="-4.44944">
        <ele>35.302709</ele>
        <time>2020-03-14T13:33:16.285Z</time>
      </trkpt>
      <trkpt lat="48.56674" lon="-4.44946">
        <ele>35.445187</ele>
        <time>2020-03-14T13:33:19.099Z</time>
      </trkpt>
      <trkpt lat="48.56677" lon="-4.44952">
        <ele>35.552874</ele>
        <time>2020-03-14T13:33:21.096Z</time>
      </trkpt>
      <trkpt lat="48.56694" lon="-4.4496">
        <ele>36.016389</ele>
        <time>2020-03-14T13:33:29.218Z</time>
      </trkpt>
      <trkpt lat="48.567" lon="-4.44964">
        <ele>36.192155</ele>
        <time>2020-03-14T13:33:32.983Z</time>
      </trkpt>
      <trkpt lat="48.5669" lon="-4.44963">
        <ele>36.45247</ele>
        <time>2020-03-14T13:33:36.444Z</time>
      </trkpt>
      <trkpt lat="48.5667" lon="-4.44955">
        <ele>36.98416</ele>
        <time>2020-03-14T13:33:42.627Z</time>
      </trkpt>
      <trkpt lat="48.56658" lon="-4.44948">
        <ele>37.225911</ele>
        <time>2020-03-14T13:33:47.346Z</time>
      </trkpt>
      <trkpt lat="48.56663" lon="-4.44988">
        <ele>37.714043</ele>
        <time>2020-03-14T13:33:59.779Z</time>
      </trkpt>
      <trkpt lat="48.56672" lon="-4.45068">
        <ele>38.696435</ele>
        <time>2020-03-14T13:34:24.775Z</time>
      </trkpt>
      <trkpt lat="48.56698" lon="-4.45193">
        <ele>40.269488</ele>
        <time>2020-03-14T13:35:01.727Z</time>
      </trkpt>
      <trkpt lat="48.56719" lon="-4.45262">
        <ele>40.609389</ele>
        <time>2020-03-14T13:35:21.000Z</time>
      </trkpt>
      <trkpt lat="48.56723" lon="-4.45293">
        <ele>40.74893</ele>
        <time>2020-03-14T13:35:29.445Z</time>
      </trkpt>
      <trkpt lat="48.56714" lon="-4.45352">
        <ele>41.007366</ele>
        <time>2020-03-14T13:35:44.968Z</time>
      </trkpt>
      <trkpt lat="48.56674" lon="-4.45465">
        <ele>41.634968</ele>
        <time>2020-03-14T13:36:18.577Z</time>
      </trkpt>
      <trkpt lat="48.56674" lon="-4.45472">
        <ele>41.688113</ele>
        <time>2020-03-14T13:36:20.470Z</time>
      </trkpt>
      <trkpt lat="48.56675" lon="-4.4548">
        <ele>41.747098</ele>
        <time>2020-03-14T13:36:22.717Z</time>
      </trkpt>
      <trkpt lat="48.56681" lon="-4.45523">
        <ele>42.073613</ele>
        <time>2020-03-14T13:36:34.383Z</time>
      </trkpt>
      <trkpt lat="48.56663" lon="-4.45654">
        <ele>43.075565</ele>
        <time>2020-03-14T13:37:12.033Z</time>
      </trkpt>
      <trkpt lat="48.5662" lon="-4.45774">
        <ele>44.191029</ele>
        <time>2020-03-14T13:37:50.689Z</time>
      </trkpt>
      <trkpt lat="48.56612" lon="-4.45771">
        <ele>44.302388</ele>
        <time>2020-03-14T13:37:53.253Z</time>
      </trkpt>
      <trkpt lat="48.56588" lon="-4.45776">
        <ele>44.614959</ele>
        <time>2020-03-14T13:37:59.873Z</time>
      </trkpt>
      <trkpt lat="48.56485" lon="-4.45914">
        <ele>46.422645</ele>
        <time>2020-03-14T13:38:38.932Z</time>
      </trkpt>
      <trkpt lat="48.56461" lon="-4.45951">
        <ele>46.888049</ele>
        <time>2020-03-14T13:38:48.719Z</time>
      </trkpt>
      <trkpt lat="48.56459" lon="-4.45954">
        <ele>46.930131</ele>
        <time>2020-03-14T13:38:50.000Z</time>
      </trkpt>
      <trkpt lat="48.56401" lon="-4.46073">
        <ele>48.231801</ele>
        <time>2020-03-14T13:39:17.379Z</time>
      </trkpt>
      <trkpt lat="48.5639" lon="-4.46094">
        <ele>48.417074</ele>
        <time>2020-03-14T13:39:22.749Z</time>
      </trkpt>
      <trkpt lat="48.56395" lon="-4.46113">
        <ele>48.549515</ele>
        <time>2020-03-14T13:39:26.379Z</time>
      </trkpt>
      <trkpt lat="48.56442" lon="-4.46302">
        <ele>49.921788</ele>
        <time>2020-03-14T13:40:03.406Z</time>
      </trkpt>
      <trkpt lat="48.56442" lon="-4.4631">
        <ele>49.975999</ele>
        <time>2020-03-14T13:40:04.904Z</time>
      </trkpt>
      <trkpt lat="48.56435" lon="-4.46374">
        <ele>50.113643</ele>
        <time>2020-03-14T13:40:15.518Z</time>
      </trkpt>
      <trkpt lat="48.56427" lon="-4.46442">
        <ele>50.14936</ele>
        <time>2020-03-14T13:40:26.212Z</time>
      </trkpt>
      <trkpt lat="48.5643" lon="-4.46458">
        <ele>50.157772</ele>
        <time>2020-03-14T13:40:28.695Z</time>
      </trkpt>
      <trkpt lat="48.56444" lon="-4.46534">
        <ele>50.198827</ele>
        <time>2020-03-14T13:40:40.786Z</time>
      </trkpt>
      <trkpt lat="48.5644" lon="-4.46575">
        <ele>50.2202</ele>
        <time>2020-03-14T13:40:46.877Z</time>
      </trkpt>
      <trkpt lat="48.56443" lon="-4.46612">
        <ele>50.197677</ele>
        <time>2020-03-14T13:40:52.398Z</time>
      </trkpt>
      <trkpt lat="48.56453" lon="-4.46642">
        <ele>50.144682</ele>
        <time>2020-03-14T13:40:57.194Z</time>
      </trkpt>
      <trkpt lat="48.56501" lon="-4.46743">
        <ele>49.945997</ele>
        <time>2020-03-14T13:41:15.439Z</time>
      </trkpt>
      <trkpt lat="48.56506" lon="-4.46789">
        <ele>49.87201</ele>
        <time>2020-03-14T13:41:22.246Z</time>
      </trkpt>
      <trkpt lat="48.5646" lon="-4.4682">
        <ele>49.831756</ele>
        <time>2020-03-14T13:41:40.831Z</time>
      </trkpt>
      <trkpt lat="48.56393" lon="-4.4682">
        <ele>49.951392</ele>
        <time>2020-03-14T13:42:05.823Z</time>
      </trkpt>
      <trkpt lat="48.5616" lon="-4.46778">
        <ele>50.649284</ele>
        <time>2020-03-14T13:43:36.045Z</time>
      </trkpt>
      <trkpt lat="48.56088" lon="-4.46585">
        <ele>51.376174</ele>
        <time>2020-03-14T13:44:33.186Z</time>
      </trkpt>
      <trkpt lat="48.56073" lon="-4.46531">
        <ele>51.582525</ele>
        <time>2020-03-14T13:44:48.298Z</time>
      </trkpt>
      <trkpt lat="48.56055" lon="-4.46464">
        <ele>51.885677</ele>
        <time>2020-03-14T13:45:07.455Z</time>
      </trkpt>
      <trkpt lat="48.56011" lon="-4.46412">
        <ele>52.35126</ele>
        <time>2020-03-14T13:45:29.835Z</time>
      </trkpt>
      <trkpt lat="48.55896" lon="-4.46319">
        <ele>53.394667</ele>
        <time>2020-03-14T13:46:23.125Z</time>
      </trkpt>
      <trkpt lat="48.55887" lon="-4.46317">
        <ele>53.445071</ele>
        <time>2020-03-14T13:46:26.865Z</time>
      </trkpt>
      <trkpt lat="48.55892" lon="-4.46325">
        <ele>53.487105</ele>
        <time>2020-03-14T13:46:29.893Z</time>
      </trkpt>
      <trkpt lat="48.55896" lon="-4.46348">
        <ele>53.575903</ele>
        <time>2020-03-14T13:46:36.131Z</time>
      </trkpt>
      <trkpt lat="48.55882" lon="-4.46382">
        <ele>53.720521</ele>
        <time>2020-03-14T13:46:46.520Z</time>
      </trkpt>
      <trkpt lat="48.55878" lon="-4.46439">
        <ele>53.935287</ele>
        <time>2020-03-14T13:47:01.665Z</time>
      </trkpt>
      <trkpt lat="48.55845" lon="-4.46458">
        <ele>54.131631</ele>
        <time>2020-03-14T13:47:15.300Z</time>
      </trkpt>
      <trkpt lat="48.55783" lon="-4.46479">
        <ele>54.177688</ele>
        <time>2020-03-14T13:47:39.449Z</time>
      </trkpt>
      <trkpt lat="48.55774" lon="-4.4649">
        <ele>54.142932</ele>
        <time>2020-03-14T13:47:43.615Z</time>
      </trkpt>
      <trkpt lat="48.55792" lon="-4.46608">
        <ele>53.895981</ele>
        <time>2020-03-14T13:48:12.445Z</time>
      </trkpt>
      <trkpt lat="48.55789" lon="-4.46629">
        <ele>53.852455</ele>
        <time>2020-03-14T13:48:17.446Z</time>
      </trkpt>
      <trkpt lat="48.55772" lon="-4.46646">
        <ele>53.791573</ele>
        <time>2020-03-14T13:48:24.405Z</time>
      </trkpt>
      <trkpt lat="48.55774" lon="-4.46675">
        <ele>53.725768</ele>
        <time>2020-03-14T13:48:31.015Z</time>
      </trkpt>
      <trkpt lat="48.5581" lon="-4.46726">
        <ele>53.287036</ele>
        <time>2020-03-14T13:48:47.980Z</time>
      </trkpt>
      <trkpt lat="48.55868" lon="-4.46765">
        <ele>52.722588</ele>
        <time>2020-03-14T13:49:09.512Z</time>
      </trkpt>
      <trkpt lat="48.55895" lon="-4.46799">
        <ele>52.407023</ele>
        <time>2020-03-14T13:49:21.527Z</time>
      </trkpt>
      <trkpt lat="48.55898" lon="-4.46832">
        <ele>52.213602</ele>
        <time>2020-03-14T13:49:28.895Z</time>
      </trkpt>
      <trkpt lat="48.55882" lon="-4.46921">
        <ele>51.743055</ele>
        <time>2020-03-14T13:49:49.649Z</time>
      </trkpt>
      <trkpt lat="48.55884" lon="-4.46929">
        <ele>51.697594</ele>
        <time>2020-03-14T13:49:51.705Z</time>
      </trkpt>
      <trkpt lat="48.55919" lon="-4.4698">
        <ele>51.329722</ele>
        <time>2020-03-14T13:50:08.455Z</time>
      </trkpt>
      <trkpt lat="48.55928" lon="-4.47011">
        <ele>51.161246</ele>
        <time>2020-03-14T13:50:16.197Z</time>
      </trkpt>
      <trkpt lat="48.55925" lon="-4.47038">
        <ele>51.023407</ele>
        <time>2020-03-14T13:50:22.582Z</time>
      </trkpt>
      <trkpt lat="48.55903" lon="-4.47089">
        <ele>50.759952</ele>
        <time>2020-03-14T13:50:36.704Z</time>
      </trkpt>
      <trkpt lat="48.55868" lon="-4.47148">
        <ele>50.616141</ele>
        <time>2020-03-14T13:50:55.267Z</time>
      </trkpt>
      <trkpt lat="48.55846" lon="-4.47239">
        <ele>50.436528</ele>
        <time>2020-03-14T13:51:18.853Z</time>
      </trkpt>
      <trkpt lat="48.5582" lon="-4.47294">
        <ele>50.313392</ele>
        <time>2020-03-14T13:51:35.187Z</time>
      </trkpt>
      <trkpt lat="48.55819" lon="-4.473">
        <ele>50.302514</ele>
        <time>2020-03-14T13:51:36.702Z</time>
      </trkpt>
      <trkpt lat="48.5582" lon="-4.47307">
        <ele>50.288722</ele>
        <time>2020-03-14T13:51:38.528Z</time>
      </trkpt>
      <trkpt lat="48.55838" lon="-4.47439">
        <ele>50.116943</ele>
        <time>2020-03-14T13:52:11.583Z</time>
      </trkpt>
      <trkpt lat="48.55835" lon="-4.4759">
        <ele>49.901625</ele>
        <time>2020-03-14T13:52:47.724Z</time>
      </trkpt>
      <trkpt lat="48.55854" lon="-4.47894">
        <ele>48.972105</ele>
        <time>2020-03-14T13:53:58.594Z</time>
      </trkpt>
      <trkpt lat="48.55854" lon="-4.48029">
        <ele>48.877076</ele>
        <time>2020-03-14T13:54:30.826Z</time>
      </trkpt>
      <trkpt lat="48.55849" lon="-4.4812">
        <ele>48.813067</ele>
        <time>2020-03-14T13:54:54.273Z</time>
      </trkpt>
      <trkpt lat="48.55847" lon="-4.4813">
        <ele>48.837872</ele>
        <time>2020-03-14T13:54:57.063Z</time>
      </trkpt>
      <trkpt lat="48.55931" lon="-4.48237">
        <ele>49.23572</ele>
        <time>2020-03-14T13:55:24.872Z</time>
      </trkpt>
      <trkpt lat="48.55971" lon="-4.48198">
        <ele>49.405468</ele>
        <time>2020-03-14T13:55:43.093Z</time>
      </trkpt>
      <trkpt lat="48.55987" lon="-4.48182">
        <ele>49.432101</ele>
        <time>2020-03-14T13:55:50.509Z</time>
      </trkpt>
      <trkpt lat="48.56028" lon="-4.48126">
        <ele>49.038029</ele>
        <time>2020-03-14T13:56:10.623Z</time>
      </trkpt>
      <trkpt lat="48.5605" lon="-4.48107">
        <ele>48.856875</ele>
        <time>2020-03-14T13:56:19.471Z</time>
      </trkpt>
      <trkpt lat="48.56065" lon="-4.48103">
        <ele>48.749057</ele>
        <time>2020-03-14T13:56:24.547Z</time>
      </trkpt>
      <trkpt lat="48.56084" lon="-4.48109">
        <ele>48.611296</ele>
        <time>2020-03-14T13:56:31.064Z</time>
      </trkpt>
      <trkpt lat="48.56113" lon="-4.48086">
        <ele>48.382714</ele>
        <time>2020-03-14T13:56:41.800Z</time>
      </trkpt>
      <trkpt lat="48.5617" lon="-4.48067">
        <ele>47.911461</ele>
        <time>2020-03-14T13:57:01.238Z</time>
      </trkpt>
      <trkpt lat="48.56229" lon="-4.48079">
        <ele>47.378311</ele>
        <time>2020-03-14T13:57:21.214Z</time>
      </trkpt>
      <trkpt lat="48.56244" lon="-4.48071">
        <ele>47.239154</ele>
        <time>2020-03-14T13:57:26.468Z</time>
      </trkpt>
      <trkpt lat="48.56321" lon="-4.48058">
        <ele>46.579364</ele>
        <time>2020-03-14T13:57:53.238Z</time>
      </trkpt>
      <trkpt lat="48.5634" lon="-4.48057">
        <ele>46.603603</ele>
        <time>2020-03-14T13:58:00.154Z</time>
      </trkpt>
      <trkpt lat="48.56342" lon="-4.48066">
        <ele>46.611179</ele>
        <time>2020-03-14T13:58:02.371Z</time>
      </trkpt>
      <trkpt lat="48.56386" lon="-4.48283">
        <ele>46.795489</ele>
        <time>2020-03-14T13:58:59.642Z</time>
      </trkpt>
      <trkpt lat="48.5639" lon="-4.48303">
        <ele>46.822265</ele>
        <time>2020-03-14T13:59:05.512Z</time>
      </trkpt>
      <trkpt lat="48.56413" lon="-4.48376">
        <ele>46.924661</ele>
        <time>2020-03-14T13:59:26.192Z</time>
      </trkpt>
      <trkpt lat="48.56422" lon="-4.48406">
        <ele>46.967464</ele>
        <time>2020-03-14T13:59:34.998Z</time>
      </trkpt>
      <trkpt lat="48.56432" lon="-4.48387">
        <ele>46.997714</ele>
        <time>2020-03-14T13:59:40.826Z</time>
      </trkpt>
      <trkpt lat="48.56442" lon="-4.48379">
        <ele>47.020478</ele>
        <time>2020-03-14T13:59:45.488Z</time>
      </trkpt>
      <trkpt lat="48.56445" lon="-4.48377">
        <ele>47.025159</ele>
        <time>2020-03-14T13:59:46.439Z</time>
      </trkpt>
      <trkpt lat="48.56455" lon="-4.48372">
        <ele>47.046903</ele>
        <time>2020-03-14T13:59:50.744Z</time>
      </trkpt>
      <trkpt lat="48.56502" lon="-4.48351">
        <ele>47.141231</ele>
        <time>2020-03-14T14:00:09.000Z</time>
      </trkpt>
      <trkpt lat="48.56572" lon="-4.48292">
        <ele>46.154037</ele>
        <time>2020-03-14T14:00:36.654Z</time>
      </trkpt>
      <trkpt lat="48.56646" lon="-4.48254">
        <ele>45.186616</ele>
        <time>2020-03-14T14:01:01.708Z</time>
      </trkpt>
      <trkpt lat="48.56661" lon="-4.48258">
        <ele>44.989827</ele>
        <time>2020-03-14T14:01:06.598Z</time>
      </trkpt>
      <trkpt lat="48.56696" lon="-4.48279">
        <ele>44.115384</ele>
        <time>2020-03-14T14:01:18.269Z</time>
      </trkpt>
      <trkpt lat="48.56699" lon="-4.48288">
        <ele>43.950377</ele>
        <time>2020-03-14T14:01:19.432Z</time>
      </trkpt>
      <trkpt lat="48.56701" lon="-4.48292">
        <ele>43.847465</ele>
        <time>2020-03-14T14:01:20.175Z</time>
      </trkpt>
      <trkpt lat="48.56695" lon="-4.48316">
        <ele>43.421418</ele>
        <time>2020-03-14T14:01:23.135Z</time>
      </trkpt>
      <trkpt lat="48.56706" lon="-4.48318">
        <ele>43.140591</ele>
        <time>2020-03-14T14:01:26.264Z</time>
      </trkpt>
      <trkpt lat="48.56736" lon="-4.48338">
        <ele>42.289543</ele>
        <time>2020-03-14T14:01:36.350Z</time>
      </trkpt>
      <trkpt lat="48.56761" lon="-4.4834">
        <ele>41.661157</ele>
        <time>2020-03-14T14:01:43.827Z</time>
      </trkpt>
      <trkpt lat="48.56922" lon="-4.48298">
        <ele>38.309929</ele>
        <time>2020-03-14T14:02:32.714Z</time>
      </trkpt>
      <trkpt lat="48.56929" lon="-4.4829">
        <ele>38.162357</ele>
        <time>2020-03-14T14:02:35.123Z</time>
      </trkpt>
      <trkpt lat="48.56931" lon="-4.48258">
        <ele>37.784427</ele>
        <time>2020-03-14T14:02:42.849Z</time>
      </trkpt>
      <trkpt lat="48.57004" lon="-4.48232">
        <ele>37.523406</ele>
        <time>2020-03-14T14:03:12.240Z</time>
      </trkpt>
      <trkpt lat="48.57006" lon="-4.48231">
        <ele>37.553956</ele>
        <time>2020-03-14T14:03:12.841Z</time>
      </trkpt>
      <trkpt lat="48.57036" lon="-4.48209">
        <ele>38.014564</ele>
        <time>2020-03-14T14:03:27.953Z</time>
      </trkpt>
      <trkpt lat="48.57046" lon="-4.48202">
        <ele>38.159244</ele>
        <time>2020-03-14T14:03:31.238Z</time>
      </trkpt>
      <trkpt lat="48.57045" lon="-4.48216">
        <ele>38.284902</ele>
        <time>2020-03-14T14:03:37.502Z</time>
      </trkpt>
      <trkpt lat="48.57055" lon="-4.48249">
        <ele>38.606406</ele>
        <time>2020-03-14T14:03:46.224Z</time>
      </trkpt>
      <trkpt lat="48.57054" lon="-4.48273">
        <ele>38.815802</ele>
        <time>2020-03-14T14:03:55.506Z</time>
      </trkpt>
      <trkpt lat="48.57053" lon="-4.48296">
        <ele>39.024935</ele>
        <time>2020-03-14T14:04:01.101Z</time>
      </trkpt>
      <trkpt lat="48.57065" lon="-4.48372">
        <ele>39.371091</ele>
        <time>2020-03-14T14:04:24.735Z</time>
      </trkpt>
      <trkpt lat="48.57063" lon="-4.4844">
        <ele>39.056197</ele>
        <time>2020-03-14T14:04:44.603Z</time>
      </trkpt>
      <trkpt lat="48.57076" lon="-4.48468">
        <ele>38.898707</ele>
        <time>2020-03-14T14:04:53.023Z</time>
      </trkpt>
      <trkpt lat="48.57078" lon="-4.48494">
        <ele>38.776456</ele>
        <time>2020-03-14T14:04:59.924Z</time>
      </trkpt>
      <trkpt lat="48.57077" lon="-4.48506">
        <ele>38.721614</ele>
        <time>2020-03-14T14:05:02.423Z</time>
      </trkpt>
      <trkpt lat="48.57066" lon="-4.48519">
        <ele>38.625415</ele>
        <time>2020-03-14T14:05:06.630Z</time>
      </trkpt>
      <trkpt lat="48.57012" lon="-4.48581">
        <ele>37.739599</ele>
        <time>2020-03-14T14:05:26.545Z</time>
      </trkpt>
      <trkpt lat="48.57012" lon="-4.4859">
        <ele>37.470121</ele>
        <time>2020-03-14T14:05:28.363Z</time>
      </trkpt>
      <trkpt lat="48.57018" lon="-4.48641">
        <ele>36.00153</ele>
        <time>2020-03-14T14:05:38.076Z</time>
      </trkpt>
      <trkpt lat="48.5704" lon="-4.48733">
        <ele>33.218463</ele>
        <time>2020-03-14T14:05:55.442Z</time>
      </trkpt>
      <trkpt lat="48.57042" lon="-4.48798">
        <ele>31.396892</ele>
        <time>2020-03-14T14:06:07.448Z</time>
      </trkpt>
      <trkpt lat="48.57054" lon="-4.48855">
        <ele>30.376174</ele>
        <time>2020-03-14T14:06:19.394Z</time>
      </trkpt>
      <trkpt lat="48.57054" lon="-4.48857">
        <ele>30.36545</ele>
        <time>2020-03-14T14:06:19.743Z</time>
      </trkpt>
      <trkpt lat="48.57074" lon="-4.48884">
        <ele>30.166412</ele>
        <time>2020-03-14T14:06:28.417Z</time>
      </trkpt>
      <trkpt lat="48.5709" lon="-4.48902">
        <ele>30.021139</ele>
        <time>2020-03-14T14:06:32.394Z</time>
      </trkpt>
      <trkpt lat="48.57106" lon="-4.48931">
        <ele>29.83392</ele>
        <time>2020-03-14T14:06:38.080Z</time>
      </trkpt>
      <trkpt lat="48.57115" lon="-4.49">
        <ele>29.486081</ele>
        <time>2020-03-14T14:06:48.833Z</time>
      </trkpt>
      <trkpt lat="48.57112" lon="-4.49015">
        <ele>29.408437</ele>
        <time>2020-03-14T14:06:51.965Z</time>
      </trkpt>
      <trkpt lat="48.57116" lon="-4.49052">
        <ele>29.223478</ele>
        <time>2020-03-14T14:06:57.440Z</time>
      </trkpt>
      <trkpt lat="48.57124" lon="-4.49081">
        <ele>29.025714</ele>
        <time>2020-03-14T14:07:03.370Z</time>
      </trkpt>
      <trkpt lat="48.57131" lon="-4.4908">
        <ele>28.959845</ele>
        <time>2020-03-14T14:07:05.292Z</time>
      </trkpt>
      <trkpt lat="48.57164" lon="-4.49121">
        <ele>28.532272</ele>
        <time>2020-03-14T14:07:17.528Z</time>
      </trkpt>
      <trkpt lat="48.57171" lon="-4.49139">
        <ele>28.391499</ele>
        <time>2020-03-14T14:07:22.252Z</time>
      </trkpt>
      <trkpt lat="48.57175" lon="-4.49149">
        <ele>28.313292</ele>
        <time>2020-03-14T14:07:23.899Z</time>
      </trkpt>
      <trkpt lat="48.57196" lon="-4.49151">
        <ele>28.101379</ele>
        <time>2020-03-14T14:07:27.642Z</time>
      </trkpt>
      <trkpt lat="48.5723" lon="-4.49159">
        <ele>27.748023</ele>
        <time>2020-03-14T14:07:34.025Z</time>
      </trkpt>
      <trkpt lat="48.57261" lon="-4.49158">
        <ele>27.436399</ele>
        <time>2020-03-14T14:07:39.287Z</time>
      </trkpt>
      <trkpt lat="48.57279" lon="-4.49152">
        <ele>26.798361</ele>
        <time>2020-03-14T14:07:42.693Z</time>
      </trkpt>
      <trkpt lat="48.57311" lon="-4.49127">
        <ele>25.07294</ele>
        <time>2020-03-14T14:07:48.422Z</time>
      </trkpt>
      <trkpt lat="48.57317" lon="-4.49125">
        <ele>24.758752</ele>
        <time>2020-03-14T14:07:49.376Z</time>
      </trkpt>
      <trkpt lat="48.57324" lon="-4.49125">
        <ele>24.426821</ele>
        <time>2020-03-14T14:07:50.360Z</time>
      </trkpt>
      <trkpt lat="48.57352" lon="-4.49146">
        <ele>22.904431</ele>
        <time>2020-03-14T14:07:55.389Z</time>
      </trkpt>
      <trkpt lat="48.57384" lon="-4.49198">
        <ele>20.606159</ele>
        <time>2020-03-14T14:08:02.724Z</time>
      </trkpt>
      <trkpt lat="48.57397" lon="-4.49239">
        <ele>19.149469</ele>
        <time>2020-03-14T14:08:07.352Z</time>
      </trkpt>
      <trkpt lat="48.57411" lon="-4.49347">
        <ele>16.179936</ele>
        <time>2020-03-14T14:08:19.039Z</time>
      </trkpt>
      <trkpt lat="48.57415" lon="-4.49373">
        <ele>15.477068</ele>
        <time>2020-03-14T14:08:21.987Z</time>
      </trkpt>
      <trkpt lat="48.57429" lon="-4.49366">
        <ele>14.879902</ele>
        <time>2020-03-14T14:08:24.550Z</time>
      </trkpt>
      <trkpt lat="48.57459" lon="-4.49356">
        <ele>13.663271</ele>
        <time>2020-03-14T14:08:29.771Z</time>
      </trkpt>
      <trkpt lat="48.57587" lon="-4.49364">
        <ele>9.443016</ele>
        <time>2020-03-14T14:08:51.503Z</time>
      </trkpt>
      <trkpt lat="48.57601" lon="-4.49357">
        <ele>9.008903</ele>
        <time>2020-03-14T14:08:54.118Z</time>
      </trkpt>
      <trkpt lat="48.5761" lon="-4.49325">
        <ele>8.378261</ele>
        <time>2020-03-14T14:08:58.202Z</time>
      </trkpt>
      <trkpt lat="48.5761" lon="-4.49313">
        <ele>8.139696</ele>
        <time>2020-03-14T14:08:59.704Z</time>
      </trkpt>
      <trkpt lat="48.57608" lon="-4.49303">
        <ele>7.950462</ele>
        <time>2020-03-14T14:09:01.556Z</time>
      </trkpt>
      <trkpt lat="48.57564" lon="-4.49199">
        <ele>6.196197</ele>
        <time>2020-03-14T14:09:27.123Z</time>
      </trkpt>
      <trkpt lat="48.57556" lon="-4.4917">
        <ele>6.023376</ele>
        <time>2020-03-14T14:09:33.937Z</time>
      </trkpt>
      <trkpt lat="48.57556" lon="-4.49157">
        <ele>5.947043</ele>
        <time>2020-03-14T14:09:36.551Z</time>
      </trkpt>
      <trkpt lat="48.57558" lon="-4.49149">
        <ele>5.897412</ele>
        <time>2020-03-14T14:09:38.527Z</time>
      </trkpt>
      <trkpt lat="48.57571" lon="-4.49139">
        <ele>5.777762</ele>
        <time>2020-03-14T14:09:43.534Z</time>
      </trkpt>
      <trkpt lat="48.57584" lon="-4.49137">
        <ele>5.665609</ele>
        <time>2020-03-14T14:09:47.532Z</time>
      </trkpt>
      <trkpt lat="48.57637" lon="-4.49187">
        <ele>5.135774</ele>
        <time>2020-03-14T14:10:10.299Z</time>
      </trkpt>
      <trkpt lat="48.57709" lon="-4.49278">
        <ele>5.82066</ele>
        <time>2020-03-14T14:10:47.931Z</time>
      </trkpt>
      <trkpt lat="48.57717" lon="-4.49298">
        <ele>6.030112</ele>
        <time>2020-03-14T14:10:54.728Z</time>
      </trkpt>
      <trkpt lat="48.57767" lon="-4.49353">
        <ele>6.870845</ele>
        <time>2020-03-14T14:11:22.289Z</time>
      </trkpt>
      <trkpt lat="48.57778" lon="-4.49377">
        <ele>7.131373</ele>
        <time>2020-03-14T14:11:30.950Z</time>
      </trkpt>
      <trkpt lat="48.57804" lon="-4.49401">
        <ele>7.52519</ele>
        <time>2020-03-14T14:11:44.665Z</time>
      </trkpt>
      <trkpt lat="48.57819" lon="-4.49425">
        <ele>7.784535</ele>
        <time>2020-03-14T14:11:54.295Z</time>
      </trkpt>
      <trkpt lat="48.57838" lon="-4.49484">
        <ele>8.299674</ele>
        <time>2020-03-14T14:12:13.388Z</time>
      </trkpt>
      <trkpt lat="48.57839" lon="-4.49486">
        <ele>8.316296</ele>
        <time>2020-03-14T14:12:14.069Z</time>
      </trkpt>
      <trkpt lat="48.57841" lon="-4.49509">
        <ele>8.497975</ele>
        <time>2020-03-14T14:12:20.620Z</time>
      </trkpt>
      <trkpt lat="48.57834" lon="-4.49582">
        <ele>9.077709</ele>
        <time>2020-03-14T14:12:40.926Z</time>
      </trkpt>
      <trkpt lat="48.57818" lon="-4.49617">
        <ele>9.412402</ele>
        <time>2020-03-14T14:12:52.000Z</time>
      </trkpt>
      <trkpt lat="48.57798" lon="-4.49639">
        <ele>9.390898</ele>
        <time>2020-03-14T14:13:01.393Z</time>
      </trkpt>
      <trkpt lat="48.57798" lon="-4.49652">
        <ele>9.347584</ele>
        <time>2020-03-14T14:13:04.449Z</time>
      </trkpt>
      <trkpt lat="48.57818" lon="-4.49679">
        <ele>9.207098</ele>
        <time>2020-03-14T14:13:14.286Z</time>
      </trkpt>
      <trkpt lat="48.57833" lon="-4.49681">
        <ele>9.12761</ele>
        <time>2020-03-14T14:13:19.602Z</time>
      </trkpt>
      <trkpt lat="48.5785" lon="-4.49663">
        <ele>9.02336</ele>
        <time>2020-03-14T14:13:26.584Z</time>
      </trkpt>
      <trkpt lat="48.57866" lon="-4.49655">
        <ele>8.934059</ele>
        <time>2020-03-14T14:13:32.466Z</time>
      </trkpt>
      <trkpt lat="48.57895" lon="-4.49607">
        <ele>8.716276</ele>
        <time>2020-03-14T14:13:46.819Z</time>
      </trkpt>
      <trkpt lat="48.57916" lon="-4.49583">
        <ele>8.579158</ele>
        <time>2020-03-14T14:13:55.889Z</time>
      </trkpt>
      <trkpt lat="48.57956" lon="-4.49546">
        <ele>8.59021</ele>
        <time>2020-03-14T14:14:11.851Z</time>
      </trkpt>
      <trkpt lat="48.57969" lon="-4.49541">
        <ele>8.599722</ele>
        <time>2020-03-14T14:14:16.454Z</time>
      </trkpt>
      <trkpt lat="48.57997" lon="-4.49545">
        <ele>8.620241</ele>
        <time>2020-03-14T14:14:26.509Z</time>
      </trkpt>
      <trkpt lat="48.58091" lon="-4.49616">
        <ele>8.925228</ele>
        <time>2020-03-14T14:15:07.932Z</time>
      </trkpt>
      <trkpt lat="48.58116" lon="-4.49653">
        <ele>9.749877</ele>
        <time>2020-03-14T14:15:23.508Z</time>
      </trkpt>
      <trkpt lat="48.58128" lon="-4.49685">
        <ele>10.321874</ele>
        <time>2020-03-14T14:15:34.665Z</time>
      </trkpt>
      <trkpt lat="48.58142" lon="-4.4974">
        <ele>11.223604</ele>
        <time>2020-03-14T14:15:53.712Z</time>
      </trkpt>
      <trkpt lat="48.58142" lon="-4.49784">
        <ele>11.916976</ele>
        <time>2020-03-14T14:16:08.619Z</time>
      </trkpt>
      <trkpt lat="48.58164" lon="-4.49878">
        <ele>13.241713</ele>
        <time>2020-03-14T14:16:40.116Z</time>
      </trkpt>
      <trkpt lat="48.58175" lon="-4.49902">
        <ele>13.526175</ele>
        <time>2020-03-14T14:16:49.785Z</time>
      </trkpt>
      <trkpt lat="48.58177" lon="-4.49929">
        <ele>13.791101</ele>
        <time>2020-03-14T14:16:57.667Z</time>
      </trkpt>
      <trkpt lat="48.58178" lon="-4.49938">
        <ele>13.872965</ele>
        <time>2020-03-14T14:17:01.092Z</time>
      </trkpt>
      <trkpt lat="48.58196" lon="-4.49952">
        <ele>14.179038</ele>
        <time>2020-03-14T14:17:09.818Z</time>
      </trkpt>
      <trkpt lat="48.58233" lon="-4.49994">
        <ele>14.852069</ele>
        <time>2020-03-14T14:17:28.839Z</time>
      </trkpt>
      <trkpt lat="48.58264" lon="-4.50048">
        <ele>15.51958</ele>
        <time>2020-03-14T14:17:47.684Z</time>
      </trkpt>
      <trkpt lat="48.58316" lon="-4.50098">
        <ele>14.81407</ele>
        <time>2020-03-14T14:18:09.002Z</time>
      </trkpt>
      <trkpt lat="48.58369" lon="-4.50131">
        <ele>14.158534</ele>
        <time>2020-03-14T14:18:27.236Z</time>
      </trkpt>
      <trkpt lat="48.58476" lon="-4.50164">
        <ele>13.836014</ele>
        <time>2020-03-14T14:19:02.409Z</time>
      </trkpt>
      <trkpt lat="48.58562" lon="-4.50198">
        <ele>14.478664</ele>
        <time>2020-03-14T14:19:37.734Z</time>
      </trkpt>
      <trkpt lat="48.58575" lon="-4.50205">
        <ele>14.582165</ele>
        <time>2020-03-14T14:19:45.167Z</time>
      </trkpt>
      <trkpt lat="48.58609" lon="-4.50222">
        <ele>15.123521</ele>
        <time>2020-03-14T14:20:01.999Z</time>
      </trkpt>
      <trkpt lat="48.58626" lon="-4.50243">
        <ele>16.133663</ele>
        <time>2020-03-14T14:20:12.302Z</time>
      </trkpt>
      <trkpt lat="48.58624" lon="-4.5025">
        <ele>16.353022</ele>
        <time>2020-03-14T14:20:14.925Z</time>
      </trkpt>
      <trkpt lat="48.58617" lon="-4.50255">
        <ele>16.703372</ele>
        <time>2020-03-14T14:20:19.975Z</time>
      </trkpt>
      <trkpt lat="48.5853" lon="-4.50292">
        <ele>20.772032</ele>
        <time>2020-03-14T14:21:09.864Z</time>
      </trkpt>
      <trkpt lat="48.58399" lon="-4.50384">
        <ele>27.88344</ele>
        <time>2020-03-14T14:22:37.028Z</time>
      </trkpt>
      <trkpt lat="48.58355" lon="-4.50397">
        <ele>30.174381</ele>
        <time>2020-03-14T14:23:02.405Z</time>
      </trkpt>
      <trkpt lat="48.5832" lon="-4.50399">
        <ele>31.986511</ele>
        <time>2020-03-14T14:23:21.679Z</time>
      </trkpt>
      <trkpt lat="48.58266" lon="-4.50386">
        <ele>33.020299</ele>
        <time>2020-03-14T14:23:51.012Z</time>
      </trkpt>
      <trkpt lat="48.5822" lon="-4.50365">
        <ele>33.819593</ele>
        <time>2020-03-14T14:24:12.381Z</time>
      </trkpt>
      <trkpt lat="48.5818" lon="-4.50333">
        <ele>34.570642</ele>
        <time>2020-03-14T14:24:30.540Z</time>
      </trkpt>
      <trkpt lat="48.58175" lon="-4.50329">
        <ele>34.676424</ele>
        <time>2020-03-14T14:24:33.286Z</time>
      </trkpt>
      <trkpt lat="48.58164" lon="-4.50347">
        <ele>34.94335</ele>
        <time>2020-03-14T14:24:38.832Z</time>
      </trkpt>
      <trkpt lat="48.58151" lon="-4.50373">
        <ele>34.938475</ele>
        <time>2020-03-14T14:24:46.141Z</time>
      </trkpt>
      <trkpt lat="48.58151" lon="-4.50386">
        <ele>34.722724</ele>
        <time>2020-03-14T14:24:48.904Z</time>
      </trkpt>
      <trkpt lat="48.5815" lon="-4.5041">
        <ele>34.31556</ele>
        <time>2020-03-14T14:24:53.632Z</time>
      </trkpt>
      <trkpt lat="48.58138" lon="-4.50519">
        <ele>32.397375</ele>
        <time>2020-03-14T14:25:16.241Z</time>
      </trkpt>
      <trkpt lat="48.5813" lon="-4.50571">
        <ele>31.4741</ele>
        <time>2020-03-14T14:25:26.689Z</time>
      </trkpt>
      <trkpt lat="48.58153" lon="-4.50579">
        <ele>30.869303</ele>
        <time>2020-03-14T14:25:33.336Z</time>
      </trkpt>
      <trkpt lat="48.58239" lon="-4.5063">
        <ele>27.769639</ele>
        <time>2020-03-14T14:26:00.038Z</time>
      </trkpt>
      <trkpt lat="48.58283" lon="-4.50699">
        <ele>25.576628</ele>
        <time>2020-03-14T14:26:18.204Z</time>
      </trkpt>
      <trkpt lat="48.58313" lon="-4.50772">
        <ele>24.142321</ele>
        <time>2020-03-14T14:26:35.429Z</time>
      </trkpt>
      <trkpt lat="48.58352" lon="-4.50834">
        <ele>23.836507</ele>
        <time>2020-03-14T14:26:53.448Z</time>
      </trkpt>
      <trkpt lat="48.5837" lon="-4.50864">
        <ele>23.690758</ele>
        <time>2020-03-14T14:26:58.868Z</time>
      </trkpt>
      <trkpt lat="48.5841" lon="-4.50926">
        <ele>23.379465</ele>
        <time>2020-03-14T14:27:20.553Z</time>
      </trkpt>
      <trkpt lat="48.58332" lon="-4.51008">
        <ele>26.404606</ele>
        <time>2020-03-14T14:28:05.465Z</time>
      </trkpt>
      <trkpt lat="48.58296" lon="-4.51066">
        <ele>28.624061</ele>
        <time>2020-03-14T14:28:35.898Z</time>
      </trkpt>
      <trkpt lat="48.58215" lon="-4.5112">
        <ele>32.544753</ele>
        <time>2020-03-14T14:29:31.424Z</time>
      </trkpt>
      <trkpt lat="48.58105" lon="-4.51186">
        <ele>38.177833</ele>
        <time>2020-03-14T14:30:40.622Z</time>
      </trkpt>
      <trkpt lat="48.58163" lon="-4.51434">
        <ele>41.288043</ele>
        <time>2020-03-14T14:31:32.204Z</time>
      </trkpt>
      <trkpt lat="48.5818" lon="-4.51464">
        <ele>41.618219</ele>
        <time>2020-03-14T14:31:37.504Z</time>
      </trkpt>
      <trkpt lat="48.58189" lon="-4.51507">
        <ele>41.359268</ele>
        <time>2020-03-14T14:31:43.652Z</time>
      </trkpt>
      <trkpt lat="48.58235" lon="-4.51534">
        <ele>40.664982</ele>
        <time>2020-03-14T14:31:53.678Z</time>
      </trkpt>
      <trkpt lat="48.58237" lon="-4.51537">
        <ele>40.617255</ele>
        <time>2020-03-14T14:31:54.436Z</time>
      </trkpt>
      <trkpt lat="48.58244" lon="-4.5157">
        <ele>40.299832</ele>
        <time>2020-03-14T14:31:58.842Z</time>
      </trkpt>
      <trkpt lat="48.58275" lon="-4.51685">
        <ele>39.094863</ele>
        <time>2020-03-14T14:32:14.221Z</time>
      </trkpt>
      <trkpt lat="48.58308" lon="-4.51766">
        <ele>36.812887</ele>
        <time>2020-03-14T14:32:25.014Z</time>
      </trkpt>
      <trkpt lat="48.58313" lon="-4.51801">
        <ele>35.962152</ele>
        <time>2020-03-14T14:32:28.994Z</time>
      </trkpt>
      <trkpt lat="48.58313" lon="-4.5182">
        <ele>35.506066</ele>
        <time>2020-03-14T14:32:31.121Z</time>
      </trkpt>
      <trkpt lat="48.5832" lon="-4.51856">
        <ele>34.61062</ele>
        <time>2020-03-14T14:32:35.220Z</time>
      </trkpt>
      <trkpt lat="48.58387" lon="-4.52019">
        <ele>28.595676</ele>
        <time>2020-03-14T14:32:55.748Z</time>
      </trkpt>
      <trkpt lat="48.584" lon="-4.52042">
        <ele>27.50653</ele>
        <time>2020-03-14T14:32:58.782Z</time>
      </trkpt>
      <trkpt lat="48.58427" lon="-4.52035">
        <ele>25.966014</ele>
        <time>2020-03-14T14:33:03.069Z</time>
      </trkpt>
      <trkpt lat="48.58459" lon="-4.52009">
        <ele>23.949119</ele>
        <time>2020-03-14T14:33:08.563Z</time>
      </trkpt>
      <trkpt lat="48.58491" lon="-4.51952">
        <ele>21.338145</ele>
        <time>2020-03-14T14:33:15.942Z</time>
      </trkpt>
      <trkpt lat="48.58505" lon="-4.51912">
        <ele>19.805845</ele>
        <time>2020-03-14T14:33:20.825Z</time>
      </trkpt>
      <trkpt lat="48.58508" lon="-4.5191">
        <ele>19.638152</ele>
        <time>2020-03-14T14:33:21.260Z</time>
      </trkpt>
      <trkpt lat="48.58535" lon="-4.51919">
        <ele>18.194472</ele>
        <time>2020-03-14T14:33:25.978Z</time>
      </trkpt>
      <trkpt lat="48.58549" lon="-4.51921">
        <ele>17.473369</ele>
        <time>2020-03-14T14:33:28.038Z</time>
      </trkpt>
      <trkpt lat="48.58571" lon="-4.51882">
        <ele>15.762208</ele>
        <time>2020-03-14T14:33:33.173Z</time>
      </trkpt>
      <trkpt lat="48.58591" lon="-4.51835">
        <ele>13.872196</ele>
        <time>2020-03-14T14:33:38.909Z</time>
      </trkpt>
      <trkpt lat="48.58604" lon="-4.51776">
        <ele>12.701562</ele>
        <time>2020-03-14T14:33:45.507Z</time>
      </trkpt>
      <trkpt lat="48.58612" lon="-4.51641">
        <ele>10.665141</ele>
        <time>2020-03-14T14:34:01.860Z</time>
      </trkpt>
      <trkpt lat="48.58619" lon="-4.5159">
        <ele>9.866495</ele>
        <time>2020-03-14T14:34:08.172Z</time>
      </trkpt>
      <trkpt lat="48.58626" lon="-4.51564">
        <ele>9.454398</ele>
        <time>2020-03-14T14:34:11.252Z</time>
      </trkpt>
      <trkpt lat="48.58643" lon="-4.51529">
        <ele>8.882197</ele>
        <time>2020-03-14T14:34:16.286Z</time>
      </trkpt>
      <trkpt lat="48.58666" lon="-4.51511">
        <ele>8.374311</ele>
        <time>2020-03-14T14:34:20.953Z</time>
      </trkpt>
      <trkpt lat="48.58679" lon="-4.51509">
        <ele>8.11406</ele>
        <time>2020-03-14T14:34:23.099Z</time>
      </trkpt>
      <trkpt lat="48.58754" lon="-4.51517">
        <ele>6.641418</ele>
        <time>2020-03-14T14:34:36.299Z</time>
      </trkpt>
      <trkpt lat="48.58822" lon="-4.51524">
        <ele>5.914398</ele>
        <time>2020-03-14T14:34:48.480Z</time>
      </trkpt>
      <trkpt lat="48.58844" lon="-4.51534">
        <ele>5.970623</ele>
        <time>2020-03-14T14:34:53.055Z</time>
      </trkpt>
      <trkpt lat="48.58849" lon="-4.51541">
        <ele>5.987606</ele>
        <time>2020-03-14T14:34:54.361Z</time>
      </trkpt>
      <trkpt lat="48.58853" lon="-4.51547">
        <ele>6.001258</ele>
        <time>2020-03-14T14:34:55.787Z</time>
      </trkpt>
      <trkpt lat="48.58861" lon="-4.51567">
        <ele>6.038536</ele>
        <time>2020-03-14T14:34:59.072Z</time>
      </trkpt>
      <trkpt lat="48.58873" lon="-4.51639">
        <ele>6.158361</ele>
        <time>2020-03-14T14:35:10.067Z</time>
      </trkpt>
      <trkpt lat="48.58907" lon="-4.51732">
        <ele>7.007915</ele>
        <time>2020-03-14T14:35:30.530Z</time>
      </trkpt>
      <trkpt lat="48.58913" lon="-4.51847">
        <ele>10.087611</ele>
        <time>2020-03-14T14:35:59.402Z</time>
      </trkpt>
      <trkpt lat="48.58923" lon="-4.51887">
        <ele>11.23098</ele>
        <time>2020-03-14T14:36:10.841Z</time>
      </trkpt>
      <trkpt lat="48.58935" lon="-4.51906">
        <ele>11.954466</ele>
        <time>2020-03-14T14:36:19.434Z</time>
      </trkpt>
      <trkpt lat="48.58942" lon="-4.51912">
        <ele>12.273909</ele>
        <time>2020-03-14T14:36:22.446Z</time>
      </trkpt>
      <trkpt lat="48.5895" lon="-4.51916">
        <ele>12.587418</ele>
        <time>2020-03-14T14:36:25.372Z</time>
      </trkpt>
      <trkpt lat="48.58964" lon="-4.51919">
        <ele>13.17277</ele>
        <time>2020-03-14T14:36:32.659Z</time>
      </trkpt>
      <trkpt lat="48.59024" lon="-4.51912">
        <ele>15.12194</ele>
        <time>2020-03-14T14:36:57.833Z</time>
      </trkpt>
      <trkpt lat="48.59037" lon="-4.51911">
        <ele>15.520937</ele>
        <time>2020-03-14T14:37:03.743Z</time>
      </trkpt>
      <trkpt lat="48.59056" lon="-4.51912">
        <ele>16.111757</ele>
        <time>2020-03-14T14:37:10.753Z</time>
      </trkpt>
      <trkpt lat="48.59128" lon="-4.51924">
        <ele>18.348203</ele>
        <time>2020-03-14T14:37:34.874Z</time>
      </trkpt>
      <trkpt lat="48.59162" lon="-4.51931">
        <ele>19.070157</ele>
        <time>2020-03-14T14:37:42.466Z</time>
      </trkpt>
      <trkpt lat="48.59176" lon="-4.51955">
        <ele>18.936636</ele>
        <time>2020-03-14T14:37:50.072Z</time>
      </trkpt>
      <trkpt lat="48.59206" lon="-4.52023">
        <ele>18.597392</ele>
        <time>2020-03-14T14:38:08.102Z</time>
      </trkpt>
      <trkpt lat="48.59224" lon="-4.52046">
        <ele>18.446032</ele>
        <time>2020-03-14T14:38:16.076Z</time>
      </trkpt>
      <trkpt lat="48.59242" lon="-4.52069">
        <ele>18.300969</ele>
        <time>2020-03-14T14:38:23.514Z</time>
      </trkpt>
      <trkpt lat="48.59254" lon="-4.52082">
        <ele>18.204811</ele>
        <time>2020-03-14T14:38:28.918Z</time>
      </trkpt>
      <trkpt lat="48.59268" lon="-4.52095">
        <ele>18.100005</ele>
        <time>2020-03-14T14:38:34.041Z</time>
      </trkpt>
      <trkpt lat="48.5927" lon="-4.52096">
        <ele>18.089066</ele>
        <time>2020-03-14T14:38:34.987Z</time>
      </trkpt>
      <trkpt lat="48.59286" lon="-4.52103">
        <ele>18.020518</ele>
        <time>2020-03-14T14:38:40.686Z</time>
      </trkpt>
      <trkpt lat="48.59329" lon="-4.52105">
        <ele>18.567991</ele>
        <time>2020-03-14T14:38:56.365Z</time>
      </trkpt>
      <trkpt lat="48.5934" lon="-4.52091">
        <ele>18.747959</ele>
        <time>2020-03-14T14:39:01.881Z</time>
      </trkpt>
      <trkpt lat="48.59351" lon="-4.52063">
        <ele>19.022311</ele>
        <time>2020-03-14T14:39:10.630Z</time>
      </trkpt>
      <trkpt lat="48.59356" lon="-4.52012">
        <ele>19.459151</ele>
        <time>2020-03-14T14:39:25.666Z</time>
      </trkpt>
      <trkpt lat="48.59364" lon="-4.51926">
        <ele>20.18313</ele>
        <time>2020-03-14T14:39:54.506Z</time>
      </trkpt>
      <trkpt lat="48.59365" lon="-4.51753">
        <ele>22.790074</ele>
        <time>2020-03-14T14:40:47.144Z</time>
      </trkpt>
      <trkpt lat="48.59365" lon="-4.51749">
        <ele>22.856896</ele>
        <time>2020-03-14T14:40:49.217Z</time>
      </trkpt>
      <trkpt lat="48.59364" lon="-4.51719">
        <ele>23.319963</ele>
        <time>2020-03-14T14:40:59.312Z</time>
      </trkpt>
      <trkpt lat="48.59361" lon="-4.51691">
        <ele>23.766732</ele>
        <time>2020-03-14T14:41:06.608Z</time>
      </trkpt>
      <trkpt lat="48.59357" lon="-4.51661">
        <ele>24.238702</ele>
        <time>2020-03-14T14:41:16.991Z</time>
      </trkpt>
      <trkpt lat="48.5936" lon="-4.51656">
        <ele>24.339731</ele>
        <time>2020-03-14T14:41:17.663Z</time>
      </trkpt>
      <trkpt lat="48.59395" lon="-4.51649">
        <ele>25.343038</ele>
        <time>2020-03-14T14:41:28.815Z</time>
      </trkpt>
      <trkpt lat="48.594" lon="-4.51648">
        <ele>25.468232</ele>
        <time>2020-03-14T14:41:29.497Z</time>
      </trkpt>
      <trkpt lat="48.59403" lon="-4.51646">
        <ele>25.579347</ele>
        <time>2020-03-14T14:41:31.500Z</time>
      </trkpt>
      <trkpt lat="48.59403" lon="-4.51621">
        <ele>26.05506</ele>
        <time>2020-03-14T14:41:37.661Z</time>
      </trkpt>
      <trkpt lat="48.59402" lon="-4.51596">
        <ele>26.533628</ele>
        <time>2020-03-14T14:41:41.035Z</time>
      </trkpt>
      <trkpt lat="48.59405" lon="-4.51577">
        <ele>26.917227</ele>
        <time>2020-03-14T14:41:48.655Z</time>
      </trkpt>
      <trkpt lat="48.59419" lon="-4.51544">
        <ele>27.65608</ele>
        <time>2020-03-14T14:41:59.805Z</time>
      </trkpt>
      <trkpt lat="48.59446" lon="-4.51537">
        <ele>28.44717</ele>
        <time>2020-03-14T14:42:13.885Z</time>
      </trkpt>
      <trkpt lat="48.59463" lon="-4.51538">
        <ele>28.956794</ele>
        <time>2020-03-14T14:42:22.084Z</time>
      </trkpt>
      <trkpt lat="48.59483" lon="-4.51539">
        <ele>29.542085</ele>
        <time>2020-03-14T14:42:33.430Z</time>
      </trkpt>
      <trkpt lat="48.59528" lon="-4.51512">
        <ele>31.502342</ele>
        <time>2020-03-14T14:43:01.075Z</time>
      </trkpt>
      <trkpt lat="48.59567" lon="-4.51487">
        <ele>33.322705</ele>
        <time>2020-03-14T14:43:27.336Z</time>
      </trkpt>
      <trkpt lat="48.59613" lon="-4.51429">
        <ele>35.851084</ele>
        <time>2020-03-14T14:43:58.482Z</time>
      </trkpt>
      <trkpt lat="48.59634" lon="-4.51399">
        <ele>37.097536</ele>
        <time>2020-03-14T14:44:13.476Z</time>
      </trkpt>
      <trkpt lat="48.59675" lon="-4.5136">
        <ele>38.471258</ele>
        <time>2020-03-14T14:44:36.679Z</time>
      </trkpt>
      <trkpt lat="48.59679" lon="-4.51356">
        <ele>38.607047</ele>
        <time>2020-03-14T14:44:40.951Z</time>
      </trkpt>
      <trkpt lat="48.59675" lon="-4.5135">
        <ele>38.767427</ele>
        <time>2020-03-14T14:44:42.757Z</time>
      </trkpt>
      <trkpt lat="48.5967" lon="-4.51332">
        <ele>39.112397</ele>
        <time>2020-03-14T14:44:47.622Z</time>
      </trkpt>
      <trkpt lat="48.59634" lon="-4.51202">
        <ele>41.569069</ele>
        <time>2020-03-14T14:45:32.202Z</time>
      </trkpt>
      <trkpt lat="48.59627" lon="-4.5119">
        <ele>41.841355</ele>
        <time>2020-03-14T14:45:37.563Z</time>
      </trkpt>
      <trkpt lat="48.59623" lon="-4.51178">
        <ele>42.083215</ele>
        <time>2020-03-14T14:45:40.534Z</time>
      </trkpt>
      <trkpt lat="48.59614" lon="-4.5117">
        <ele>42.421886</ele>
        <time>2020-03-14T14:45:46.374Z</time>
      </trkpt>
      <trkpt lat="48.596" lon="-4.51124">
        <ele>43.538011</ele>
        <time>2020-03-14T14:45:57.932Z</time>
      </trkpt>
      <trkpt lat="48.59598" lon="-4.51111">
        <ele>43.84108</ele>
        <time>2020-03-14T14:46:02.225Z</time>
      </trkpt>
      <trkpt lat="48.59595" lon="-4.511">
        <ele>44.09494</ele>
        <time>2020-03-14T14:46:06.662Z</time>
      </trkpt>
      <trkpt lat="48.59578" lon="-4.51071">
        <ele>44.947473</ele>
        <time>2020-03-14T14:46:18.607Z</time>
      </trkpt>
      <trkpt lat="48.59562" lon="-4.51072">
        <ele>45.473205</ele>
        <time>2020-03-14T14:46:27.444Z</time>
      </trkpt>
      <trkpt lat="48.59557" lon="-4.51074">
        <ele>45.640736</ele>
        <time>2020-03-14T14:46:29.012Z</time>
      </trkpt>
      <trkpt lat="48.59533" lon="-4.51085">
        <ele>46.477729</ele>
        <time>2020-03-14T14:46:43.329Z</time>
      </trkpt>
      <trkpt lat="48.59529" lon="-4.51082">
        <ele>46.640178</ele>
        <time>2020-03-14T14:46:46.310Z</time>
      </trkpt>
      <trkpt lat="48.59506" lon="-4.511">
        <ele>47.504812</ele>
        <time>2020-03-14T14:46:55.815Z</time>
      </trkpt>
      <trkpt lat="48.5944" lon="-4.51159">
        <ele>49.414671</ele>
        <time>2020-03-14T14:47:24.274Z</time>
      </trkpt>
      <trkpt lat="48.59412" lon="-4.51089">
        <ele>50.641433</ele>
        <time>2020-03-14T14:47:50.256Z</time>
      </trkpt>
      <trkpt lat="48.5937" lon="-4.51065">
        <ele>51.653253</ele>
        <time>2020-03-14T14:48:08.285Z</time>
      </trkpt>
      <trkpt lat="48.59334" lon="-4.51024">
        <ele>52.135264</ele>
        <time>2020-03-14T14:48:25.869Z</time>
      </trkpt>
      <trkpt lat="48.59308" lon="-4.50989">
        <ele>52.080499</ele>
        <time>2020-03-14T14:48:39.590Z</time>
      </trkpt>
      <trkpt lat="48.5933" lon="-4.50947">
        <ele>52.025154</ele>
        <time>2020-03-14T14:48:52.524Z</time>
      </trkpt>
      <trkpt lat="48.59341" lon="-4.50926">
        <ele>51.99765</ele>
        <time>2020-03-14T14:48:58.570Z</time>
      </trkpt>
      <trkpt lat="48.59353" lon="-4.50898">
        <ele>51.964112</ele>
        <time>2020-03-14T14:49:06.276Z</time>
      </trkpt>
      <trkpt lat="48.59383" lon="-4.50782">
        <ele>52.157293</ele>
        <time>2020-03-14T14:49:34.879Z</time>
      </trkpt>
      <trkpt lat="48.5939" lon="-4.50754">
        <ele>52.304374</ele>
        <time>2020-03-14T14:49:41.936Z</time>
      </trkpt>
      <trkpt lat="48.59404" lon="-4.50733">
        <ele>52.452755</ele>
        <time>2020-03-14T14:49:49.009Z</time>
      </trkpt>
      <trkpt lat="48.59401" lon="-4.50713">
        <ele>52.552738</ele>
        <time>2020-03-14T14:49:52.546Z</time>
      </trkpt>
      <trkpt lat="48.594" lon="-4.50657">
        <ele>52.833209</ele>
        <time>2020-03-14T14:50:02.947Z</time>
      </trkpt>
      <trkpt lat="48.59404" lon="-4.50626">
        <ele>52.990295</ele>
        <time>2020-03-14T14:50:09.057Z</time>
      </trkpt>
      <trkpt lat="48.59414" lon="-4.50566">
        <ele>53.427867</ele>
        <time>2020-03-14T14:50:22.112Z</time>
      </trkpt>
      <trkpt lat="48.5942" lon="-4.50526">
        <ele>54.130082</ele>
        <time>2020-03-14T14:50:30.970Z</time>
      </trkpt>
      <trkpt lat="48.59431" lon="-4.50433">
        <ele>55.76472</ele>
        <time>2020-03-14T14:50:52.794Z</time>
      </trkpt>
      <trkpt lat="48.59478" lon="-4.50429">
        <ele>56.994386</ele>
        <time>2020-03-14T14:51:09.260Z</time>
      </trkpt>
      <trkpt lat="48.59474" lon="-4.50278">
        <ele>58.883263</ele>
        <time>2020-03-14T14:51:42.398Z</time>
      </trkpt>
      <trkpt lat="48.59474" lon="-4.50179">
        <ele>59.843194</ele>
        <time>2020-03-14T14:52:00.703Z</time>
      </trkpt>
      <trkpt lat="48.59462" lon="-4.50061">
        <ele>60.65503</ele>
        <time>2020-03-14T14:52:20.862Z</time>
      </trkpt>
      <trkpt lat="48.59452" lon="-4.49892">
        <ele>60.899988</ele>
        <time>2020-03-14T14:52:47.719Z</time>
      </trkpt>
      <trkpt lat="48.59449" lon="-4.49879">
        <ele>60.920412</ele>
        <time>2020-03-14T14:52:49.897Z</time>
      </trkpt>
      <trkpt lat="48.59445" lon="-4.49854">
        <ele>60.95707</ele>
        <time>2020-03-14T14:52:53.848Z</time>
      </trkpt>
      <trkpt lat="48.59431" lon="-4.4978">
        <ele>60.926626</ele>
        <time>2020-03-14T14:53:05.703Z</time>
      </trkpt>
      <trkpt lat="48.59426" lon="-4.49709">
        <ele>60.849654</ele>
        <time>2020-03-14T14:53:16.662Z</time>
      </trkpt>
      <trkpt lat="48.59422" lon="-4.49505">
        <ele>59.9907</ele>
        <time>2020-03-14T14:53:46.469Z</time>
      </trkpt>
      <trkpt lat="48.59425" lon="-4.49471">
        <ele>59.584418</ele>
        <time>2020-03-14T14:53:51.362Z</time>
      </trkpt>
      <trkpt lat="48.59423" lon="-4.49443">
        <ele>59.25158</ele>
        <time>2020-03-14T14:53:55.248Z</time>
      </trkpt>
      <trkpt lat="48.59418" lon="-4.49405">
        <ele>58.802423</ele>
        <time>2020-03-14T14:54:00.271Z</time>
      </trkpt>
      <trkpt lat="48.59404" lon="-4.49389">
        <ele>58.476085</ele>
        <time>2020-03-14T14:54:03.422Z</time>
      </trkpt>
      <trkpt lat="48.59392" lon="-4.49388">
        <ele>58.276407</ele>
        <time>2020-03-14T14:54:05.427Z</time>
      </trkpt>
      <trkpt lat="48.5934" lon="-4.49387">
        <ele>57.03598</ele>
        <time>2020-03-14T14:54:14.233Z</time>
      </trkpt>
      <trkpt lat="48.59298" lon="-4.49377">
        <ele>54.5102</ele>
        <time>2020-03-14T14:54:21.226Z</time>
      </trkpt>
      <trkpt lat="48.59277" lon="-4.49367">
        <ele>53.242395</ele>
        <time>2020-03-14T14:54:24.763Z</time>
      </trkpt>
      <trkpt lat="48.5926" lon="-4.49372">
        <ele>52.188297</ele>
        <time>2020-03-14T14:54:27.541Z</time>
      </trkpt>
      <trkpt lat="48.59194" lon="-4.49408">
        <ele>48.087698</ele>
        <time>2020-03-14T14:54:37.921Z</time>
      </trkpt>
      <trkpt lat="48.59097" lon="-4.49419">
        <ele>42.421836</ele>
        <time>2020-03-14T14:54:52.426Z</time>
      </trkpt>
      <trkpt lat="48.59092" lon="-4.49422">
        <ele>42.113999</ele>
        <time>2020-03-14T14:54:53.144Z</time>
      </trkpt>
      <trkpt lat="48.59057" lon="-4.49405">
        <ele>40.018051</ele>
        <time>2020-03-14T14:55:02.866Z</time>
      </trkpt>
      <trkpt lat="48.5905" lon="-4.49401">
        <ele>39.551096</ele>
        <time>2020-03-14T14:55:05.058Z</time>
      </trkpt>
      <trkpt lat="48.59025" lon="-4.49362">
        <ele>37.491662</ele>
        <time>2020-03-14T14:55:14.907Z</time>
      </trkpt>
      <trkpt lat="48.58974" lon="-4.49187">
        <ele>35.050881</ele>
        <time>2020-03-14T14:55:55.862Z</time>
      </trkpt>
      <trkpt lat="48.58973" lon="-4.49166">
        <ele>34.869392</ele>
        <time>2020-03-14T14:56:00.228Z</time>
      </trkpt>
      <trkpt lat="48.58986" lon="-4.49066">
        <ele>34.026229</ele>
        <time>2020-03-14T14:56:26.140Z</time>
      </trkpt>
      <trkpt lat="48.59004" lon="-4.48985">
        <ele>33.548983</ele>
        <time>2020-03-14T14:56:46.604Z</time>
      </trkpt>
      <trkpt lat="48.59002" lon="-4.48975">
        <ele>33.486729</ele>
        <time>2020-03-14T14:56:50.704Z</time>
      </trkpt>
      <trkpt lat="48.59" lon="-4.48985">
        <ele>33.427734</ele>
        <time>2020-03-14T14:56:51.748Z</time>
      </trkpt>
      <trkpt lat="48.58952" lon="-4.4901">
        <ele>33.000294</ele>
        <time>2020-03-14T14:57:01.866Z</time>
      </trkpt>
      <trkpt lat="48.58942" lon="-4.49009">
        <ele>32.915867</ele>
        <time>2020-03-14T14:57:04.481Z</time>
      </trkpt>
      <trkpt lat="48.58934" lon="-4.49">
        <ele>32.837519</ele>
        <time>2020-03-14T14:57:06.107Z</time>
      </trkpt>
      <trkpt lat="48.58889" lon="-4.48822">
        <ele>32.778985</ele>
        <time>2020-03-14T14:57:30.352Z</time>
      </trkpt>
      <trkpt lat="48.58863" lon="-4.4874">
        <ele>32.887256</ele>
        <time>2020-03-14T14:57:48.219Z</time>
      </trkpt>
      <trkpt lat="48.5884" lon="-4.48695">
        <ele>33.575558</ele>
        <time>2020-03-14T14:58:01.403Z</time>
      </trkpt>
      <trkpt lat="48.58827" lon="-4.4867">
        <ele>34.450227</ele>
        <time>2020-03-14T14:58:08.268Z</time>
      </trkpt>
      <trkpt lat="48.58796" lon="-4.48641">
        <ele>35.899125</ele>
        <time>2020-03-14T14:58:21.752Z</time>
      </trkpt>
      <trkpt lat="48.58792" lon="-4.48633">
        <ele>36.182537</ele>
        <time>2020-03-14T14:58:25.249Z</time>
      </trkpt>
      <trkpt lat="48.5879" lon="-4.4862">
        <ele>36.542751</ele>
        <time>2020-03-14T14:58:29.619Z</time>
      </trkpt>
      <trkpt lat="48.58786" lon="-4.4858">
        <ele>37.626645</ele>
        <time>2020-03-14T14:58:40.196Z</time>
      </trkpt>
      <trkpt lat="48.58783" lon="-4.48542">
        <ele>38.657808</ele>
        <time>2020-03-14T14:58:50.814Z</time>
      </trkpt>
      <trkpt lat="48.58779" lon="-4.48505">
        <ele>39.641647</ele>
        <time>2020-03-14T14:59:01.953Z</time>
      </trkpt>
      <trkpt lat="48.58783" lon="-4.48447">
        <ele>41.09979</ele>
        <time>2020-03-14T14:59:18.369Z</time>
      </trkpt>
      <trkpt lat="48.58777" lon="-4.48423">
        <ele>41.697592</ele>
        <time>2020-03-14T14:59:24.617Z</time>
      </trkpt>
      <trkpt lat="48.58771" lon="-4.4842">
        <ele>41.925913</ele>
        <time>2020-03-14T14:59:28.133Z</time>
      </trkpt>
      <trkpt lat="48.58771" lon="-4.48416">
        <ele>42.021096</ele>
        <time>2020-03-14T14:59:29.855Z</time>
      </trkpt>
      <trkpt lat="48.58771" lon="-4.4842">
        <ele>42.116279</ele>
        <time>2020-03-14T14:59:31.274Z</time>
      </trkpt>
      <trkpt lat="48.58765" lon="-4.48422">
        <ele>42.324339</ele>
        <time>2020-03-14T14:59:33.820Z</time>
      </trkpt>
      <trkpt lat="48.58758" lon="-4.48432">
        <ele>42.691442</ele>
        <time>2020-03-14T14:59:37.311Z</time>
      </trkpt>
      <trkpt lat="48.58743" lon="-4.48533">
        <ele>45.143594</ele>
        <time>2020-03-14T15:00:01.975Z</time>
      </trkpt>
      <trkpt lat="48.58718" lon="-4.48619">
        <ele>46.964198</ele>
        <time>2020-03-14T15:00:22.917Z</time>
      </trkpt>
      <trkpt lat="48.58693" lon="-4.4866">
        <ele>47.566475</ele>
        <time>2020-03-14T15:00:34.783Z</time>
      </trkpt>
      <trkpt lat="48.58682" lon="-4.4867">
        <ele>47.773676</ele>
        <time>2020-03-14T15:00:38.804Z</time>
      </trkpt>
      <trkpt lat="48.58671" lon="-4.4867">
        <ele>47.953065</ele>
        <time>2020-03-14T15:00:42.264Z</time>
      </trkpt>
      <trkpt lat="48.5861" lon="-4.48662">
        <ele>48.940791</ele>
        <time>2020-03-14T15:00:59.836Z</time>
      </trkpt>
      <trkpt lat="48.5854" lon="-4.48641">
        <ele>49.365032</ele>
        <time>2020-03-14T15:01:18.161Z</time>
      </trkpt>
      <trkpt lat="48.58517" lon="-4.48629">
        <ele>49.231666</ele>
        <time>2020-03-14T15:01:24.047Z</time>
      </trkpt>
      <trkpt lat="48.58485" lon="-4.48647">
        <ele>49.046309</ele>
        <time>2020-03-14T15:01:31.507Z</time>
      </trkpt>
      <trkpt lat="48.58481" lon="-4.48649">
        <ele>49.026404</ele>
        <time>2020-03-14T15:01:32.226Z</time>
      </trkpt>
      <trkpt lat="48.58417" lon="-4.48677">
        <ele>48.663931</ele>
        <time>2020-03-14T15:01:45.655Z</time>
      </trkpt>
      <trkpt lat="48.58389" lon="-4.487">
        <ele>48.185434</ele>
        <time>2020-03-14T15:01:51.577Z</time>
      </trkpt>
      <trkpt lat="48.58361" lon="-4.48712">
        <ele>47.409863</ele>
        <time>2020-03-14T15:01:56.935Z</time>
      </trkpt>
      <trkpt lat="48.58355" lon="-4.48706">
        <ele>47.224908</ele>
        <time>2020-03-14T15:01:58.121Z</time>
      </trkpt>
      <trkpt lat="48.5835" lon="-4.48701">
        <ele>47.071502</ele>
        <time>2020-03-14T15:01:59.253Z</time>
      </trkpt>
      <trkpt lat="48.58335" lon="-4.48651">
        <ele>46.119469</ele>
        <time>2020-03-14T15:02:05.704Z</time>
      </trkpt>
      <trkpt lat="48.5833" lon="-4.48646">
        <ele>45.949667</ele>
        <time>2020-03-14T15:02:06.953Z</time>
      </trkpt>
      <trkpt lat="48.58321" lon="-4.48646">
        <ele>45.715443</ele>
        <time>2020-03-14T15:02:08.398Z</time>
      </trkpt>
      <trkpt lat="48.5829" lon="-4.48657">
        <ele>44.889855</ele>
        <time>2020-03-14T15:02:13.945Z</time>
      </trkpt>
      <trkpt lat="48.58235" lon="-4.48696">
        <ele>43.039016</ele>
        <time>2020-03-14T15:02:24.294Z</time>
      </trkpt>
      <trkpt lat="48.58205" lon="-4.48687">
        <ele>41.854039</ele>
        <time>2020-03-14T15:02:29.332Z</time>
      </trkpt>
      <trkpt lat="48.58196" lon="-4.4869">
        <ele>41.500016</ele>
        <time>2020-03-14T15:02:30.871Z</time>
      </trkpt>
      <trkpt lat="48.58095" lon="-4.48792">
        <ele>36.821021</ele>
        <time>2020-03-14T15:02:50.864Z</time>
      </trkpt>
      <trkpt lat="48.58085" lon="-4.48806">
        <ele>36.352238</ele>
        <time>2020-03-14T15:02:53.055Z</time>
      </trkpt>
      <trkpt lat="48.58068" lon="-4.488">
        <ele>35.755512</ele>
        <time>2020-03-14T15:02:55.997Z</time>
      </trkpt>
      <trkpt lat="48.58033" lon="-4.48773">
        <ele>34.391818</ele>
        <time>2020-03-14T15:03:02.701Z</time>
      </trkpt>
      <trkpt lat="48.57957" lon="-4.48686">
        <ele>31.08099</ele>
        <time>2020-03-14T15:03:18.704Z</time>
      </trkpt>
      <trkpt lat="48.5793" lon="-4.48672">
        <ele>30.38543</ele>
        <time>2020-03-14T15:03:23.682Z</time>
      </trkpt>
      <trkpt lat="48.5791" lon="-4.48671">
        <ele>30.016661</ele>
        <time>2020-03-14T15:03:27.483Z</time>
      </trkpt>
      <trkpt lat="48.57892" lon="-4.4867">
        <ele>29.701965</ele>
        <time>2020-03-14T15:03:30.590Z</time>
      </trkpt>
      <trkpt lat="48.57854" lon="-4.48664">
        <ele>29.014387</ele>
        <time>2020-03-14T15:03:37.764Z</time>
      </trkpt>
      <trkpt lat="48.57814" lon="-4.4864">
        <ele>28.239013</ele>
        <time>2020-03-14T15:03:46.161Z</time>
      </trkpt>
      <trkpt lat="48.57794" lon="-4.48616">
        <ele>27.778469</ele>
        <time>2020-03-14T15:03:51.134Z</time>
      </trkpt>
      <trkpt lat="48.57782" lon="-4.48583">
        <ele>27.405937</ele>
        <time>2020-03-14T15:03:56.171Z</time>
      </trkpt>
      <trkpt lat="48.5778" lon="-4.48575">
        <ele>27.371733</ele>
        <time>2020-03-14T15:03:57.169Z</time>
      </trkpt>
      <trkpt lat="48.57774" lon="-4.48554">
        <ele>27.278449</ele>
        <time>2020-03-14T15:04:00.297Z</time>
      </trkpt>
      <trkpt lat="48.57753" lon="-4.48487">
        <ele>26.978264</ele>
        <time>2020-03-14T15:04:10.810Z</time>
      </trkpt>
      <trkpt lat="48.57728" lon="-4.48449">
        <ele>26.758262</ele>
        <time>2020-03-14T15:04:18.794Z</time>
      </trkpt>
      <trkpt lat="48.57716" lon="-4.48438">
        <ele>26.669539</ele>
        <time>2020-03-14T15:04:22.135Z</time>
      </trkpt>
      <trkpt lat="48.57711" lon="-4.48434">
        <ele>26.637678</ele>
        <time>2020-03-14T15:04:23.156Z</time>
      </trkpt>
      <trkpt lat="48.57658" lon="-4.48365">
        <ele>25.781995</ele>
        <time>2020-03-14T15:04:38.906Z</time>
      </trkpt>
      <trkpt lat="48.57608" lon="-4.48242">
        <ele>23.394276</ele>
        <time>2020-03-14T15:04:56.741Z</time>
      </trkpt>
      <trkpt lat="48.57597" lon="-4.48227">
        <ele>23.015181</ele>
        <time>2020-03-14T15:04:59.115Z</time>
      </trkpt>
      <trkpt lat="48.57595" lon="-4.48224">
        <ele>22.942937</ele>
        <time>2020-03-14T15:04:59.614Z</time>
      </trkpt>
      <trkpt lat="48.57586" lon="-4.48215">
        <ele>22.667</ele>
        <time>2020-03-14T15:05:01.582Z</time>
      </trkpt>
      <trkpt lat="48.57548" lon="-4.48195">
        <ele>21.54633</ele>
        <time>2020-03-14T15:05:08.070Z</time>
      </trkpt>
      <trkpt lat="48.57517" lon="-4.48191">
        <ele>20.28698</ele>
        <time>2020-03-14T15:05:13.057Z</time>
      </trkpt>
      <trkpt lat="48.57509" lon="-4.48187">
        <ele>19.971607</ele>
        <time>2020-03-14T15:05:14.241Z</time>
      </trkpt>
      <trkpt lat="48.57503" lon="-4.48191">
        <ele>19.701169</ele>
        <time>2020-03-14T15:05:15.557Z</time>
      </trkpt>
      <trkpt lat="48.57498" lon="-4.48209">
        <ele>19.177054</ele>
        <time>2020-03-14T15:05:19.103Z</time>
      </trkpt>
      <trkpt lat="48.57491" lon="-4.48235">
        <ele>18.421259</ele>
        <time>2020-03-14T15:05:24.352Z</time>
      </trkpt>
      <trkpt lat="48.57482" lon="-4.48237">
        <ele>18.059386</ele>
        <time>2020-03-14T15:05:26.844Z</time>
      </trkpt>
      <trkpt lat="48.57454" lon="-4.48241">
        <ele>16.926231</ele>
        <time>2020-03-14T15:05:34.918Z</time>
      </trkpt>
      <trkpt lat="48.57429" lon="-4.48209">
        <ele>15.607485</ele>
        <time>2020-03-14T15:05:44.217Z</time>
      </trkpt>
      <trkpt lat="48.57421" lon="-4.48188">
        <ele>14.936507</ele>
        <time>2020-03-14T15:05:49.303Z</time>
      </trkpt>
      <trkpt lat="48.57397" lon="-4.48137">
        <ele>14.580051</ele>
        <time>2020-03-14T15:06:01.734Z</time>
      </trkpt>
      <trkpt lat="48.57387" lon="-4.48125">
        <ele>14.590798</ele>
        <time>2020-03-14T15:06:05.673Z</time>
      </trkpt>
      <trkpt lat="48.57392" lon="-4.48116">
        <ele>14.59702</ele>
        <time>2020-03-14T15:06:09.369Z</time>
      </trkpt>
      <trkpt lat="48.57388" lon="-4.48094">
        <ele>14.60966</ele>
        <time>2020-03-14T15:06:14.425Z</time>
      </trkpt>
      <trkpt lat="48.57398" lon="-4.48052">
        <ele>14.634458</ele>
        <time>2020-03-14T15:06:26.894Z</time>
      </trkpt>
      <trkpt lat="48.57399" lon="-4.48024">
        <ele>14.650228</ele>
        <time>2020-03-14T15:06:33.682Z</time>
      </trkpt>
      <trkpt lat="48.57422" lon="-4.48">
        <ele>14.673829</ele>
        <time>2020-03-14T15:06:46.356Z</time>
      </trkpt>
      <trkpt lat="48.57415" lon="-4.47953">
        <ele>14.700676</ele>
        <time>2020-03-14T15:07:00.639Z</time>
      </trkpt>
      <trkpt lat="48.57398" lon="-4.47907">
        <ele>14.807891</ele>
        <time>2020-03-14T15:07:16.636Z</time>
      </trkpt>
      <trkpt lat="48.57355" lon="-4.47836">
        <ele>15.024419</ele>
        <time>2020-03-14T15:07:41.414Z</time>
      </trkpt>
      <trkpt lat="48.57331" lon="-4.47777">
        <ele>15.181731</ele>
        <time>2020-03-14T15:07:58.214Z</time>
      </trkpt>
      <trkpt lat="48.57305" lon="-4.47743">
        <ele>15.301783</ele>
        <time>2020-03-14T15:08:10.298Z</time>
      </trkpt>
      <trkpt lat="48.57279" lon="-4.47721">
        <ele>15.233508</ele>
        <time>2020-03-14T15:08:20.595Z</time>
      </trkpt>
      <trkpt lat="48.57254" lon="-4.47668">
        <ele>15.072177</ele>
        <time>2020-03-14T15:08:35.247Z</time>
      </trkpt>
      <trkpt lat="48.57247" lon="-4.47629">
        <ele>14.971122</ele>
        <time>2020-03-14T15:08:44.436Z</time>
      </trkpt>
      <trkpt lat="48.57212" lon="-4.47599">
        <ele>14.82137</ele>
        <time>2020-03-14T15:08:58.310Z</time>
      </trkpt>
      <trkpt lat="48.57173" lon="-4.47482">
        <ele>14.880808</ele>
        <time>2020-03-14T15:09:32.021Z</time>
      </trkpt>
      <trkpt lat="48.57157" lon="-4.47385">
        <ele>15.268744</ele>
        <time>2020-03-14T15:09:58.836Z</time>
      </trkpt>
      <trkpt lat="48.57156" lon="-4.47317">
        <ele>15.537214</ele>
        <time>2020-03-14T15:10:17.246Z</time>
      </trkpt>
      <trkpt lat="48.57142" lon="-4.47262">
        <ele>15.694931</ele>
        <time>2020-03-14T15:10:32.437Z</time>
      </trkpt>
      <trkpt lat="48.57146" lon="-4.47233">
        <ele>15.679219</ele>
        <time>2020-03-14T15:10:40.182Z</time>
      </trkpt>
      <trkpt lat="48.57122" lon="-4.47016">
        <ele>15.565159</ele>
        <time>2020-03-14T15:11:33.329Z</time>
      </trkpt>
      <trkpt lat="48.57125" lon="-4.46937">
        <ele>15.610874</ele>
        <time>2020-03-14T15:11:51.531Z</time>
      </trkpt>
      <trkpt lat="48.57145" lon="-4.46852">
        <ele>15.670991</ele>
        <time>2020-03-14T15:12:13.000Z</time>
      </trkpt>
      <trkpt lat="48.5716" lon="-4.46788">
        <ele>15.715629</ele>
        <time>2020-03-14T15:12:30.260Z</time>
      </trkpt>
      <trkpt lat="48.57164" lon="-4.46752">
        <ele>15.739925</ele>
        <time>2020-03-14T15:12:40.177Z</time>
      </trkpt>
      <trkpt lat="48.57177" lon="-4.46728">
        <ele>16.195739</ele>
        <time>2020-03-14T15:12:49.024Z</time>
      </trkpt>
      <trkpt lat="48.57187" lon="-4.46686">
        <ele>16.928671</ele>
        <time>2020-03-14T15:13:01.788Z</time>
      </trkpt>
      <trkpt lat="48.57195" lon="-4.46609">
        <ele>18.206394</ele>
        <time>2020-03-14T15:13:25.404Z</time>
      </trkpt>
      <trkpt lat="48.57212" lon="-4.46538">
        <ele>19.430345</ele>
        <time>2020-03-14T15:13:49.771Z</time>
      </trkpt>
      <trkpt lat="48.57213" lon="-4.4648">
        <ele>20.542293</ele>
        <time>2020-03-14T15:14:10.190Z</time>
      </trkpt>
      <trkpt lat="48.57242" lon="-4.46381">
        <ele>23.720168</ele>
        <time>2020-03-14T15:14:49.650Z</time>
      </trkpt>
      <trkpt lat="48.57243" lon="-4.46332">
        <ele>25.176848</ele>
        <time>2020-03-14T15:15:07.918Z</time>
      </trkpt>
      <trkpt lat="48.57236" lon="-4.46289">
        <ele>26.463093</ele>
        <time>2020-03-14T15:15:24.014Z</time>
      </trkpt>
      <trkpt lat="48.57237" lon="-4.46212">
        <ele>28.618778</ele>
        <time>2020-03-14T15:15:52.629Z</time>
      </trkpt>
      <trkpt lat="48.57253" lon="-4.4616">
        <ele>29.945423</ele>
        <time>2020-03-14T15:16:13.806Z</time>
      </trkpt>
      <trkpt lat="48.57246" lon="-4.46135">
        <ele>30.566892</ele>
        <time>2020-03-14T15:16:23.660Z</time>
      </trkpt>
      <trkpt lat="48.57227" lon="-4.46113">
        <ele>31.388171</ele>
        <time>2020-03-14T15:16:36.329Z</time>
      </trkpt>
      <trkpt lat="48.57229" lon="-4.46078">
        <ele>32.200796</ele>
        <time>2020-03-14T15:16:48.655Z</time>
      </trkpt>
      <trkpt lat="48.57238" lon="-4.46044">
        <ele>33.054622</ele>
        <time>2020-03-14T15:17:00.621Z</time>
      </trkpt>
      <trkpt lat="48.57212" lon="-4.45955">
        <ele>34.374264</ele>
        <time>2020-03-14T15:17:29.322Z</time>
      </trkpt>
      <trkpt lat="48.57211" lon="-4.45896">
        <ele>34.255459</ele>
        <time>2020-03-14T15:17:45.162Z</time>
      </trkpt>
      <trkpt lat="48.57201" lon="-4.45871">
        <ele>34.196951</ele>
        <time>2020-03-14T15:17:52.755Z</time>
      </trkpt>
      <trkpt lat="48.57201" lon="-4.45869">
        <ele>34.192009</ele>
        <time>2020-03-14T15:17:53.299Z</time>
      </trkpt>
      <trkpt lat="48.57203" lon="-4.45848">
        <ele>34.149435</ele>
        <time>2020-03-14T15:17:56.139Z</time>
      </trkpt>
      <trkpt lat="48.57204" lon="-4.45824">
        <ele>34.101433</ele>
        <time>2020-03-14T15:17:59.739Z</time>
      </trkpt>
      <trkpt lat="48.57204" lon="-4.45798">
        <ele>34.049631</ele>
        <time>2020-03-14T15:18:02.931Z</time>
      </trkpt>
      <trkpt lat="48.57204" lon="-4.45782">
        <ele>34.016155</ele>
        <time>2020-03-14T15:18:05.125Z</time>
      </trkpt>
      <trkpt lat="48.57217" lon="-4.45767">
        <ele>33.967586</ele>
        <time>2020-03-14T15:18:08.114Z</time>
      </trkpt>
      <trkpt lat="48.57222" lon="-4.45767">
        <ele>33.950762</ele>
        <time>2020-03-14T15:18:09.102Z</time>
      </trkpt>
      <trkpt lat="48.5724" lon="-4.45702">
        <ele>33.120773</ele>
        <time>2020-03-14T15:18:17.261Z</time>
      </trkpt>
      <trkpt lat="48.5719" lon="-4.45491">
        <ele>29.221294</ele>
        <time>2020-03-14T15:18:42.719Z</time>
      </trkpt>
      <trkpt lat="48.57186" lon="-4.45448">
        <ele>29.697487</ele>
        <time>2020-03-14T15:18:48.354Z</time>
      </trkpt>
      <trkpt lat="48.5719" lon="-4.45405">
        <ele>30.281335</ele>
        <time>2020-03-14T15:18:54.153Z</time>
      </trkpt>
      <trkpt lat="48.57231" lon="-4.45365">
        <ele>31.277648</ele>
        <time>2020-03-14T15:19:08.195Z</time>
      </trkpt>
      <trkpt lat="48.57236" lon="-4.45358">
        <ele>31.423569</ele>
        <time>2020-03-14T15:19:12.054Z</time>
      </trkpt>
      <trkpt lat="48.57228" lon="-4.45359">
        <ele>31.589873</ele>
        <time>2020-03-14T15:19:14.334Z</time>
      </trkpt>
      <trkpt lat="48.57211" lon="-4.45347">
        <ele>31.960241</ele>
        <time>2020-03-14T15:19:25.069Z</time>
      </trkpt>
      <trkpt lat="48.57228" lon="-4.45359">
        <ele>32.330609</ele>
        <time>2020-03-14T15:19:33.406Z</time>
      </trkpt>
      <trkpt lat="48.57236" lon="-4.45358">
        <ele>32.496913</ele>
        <time>2020-03-14T15:19:41.353Z</time>
      </trkpt>
      <trkpt lat="48.57238" lon="-4.45355">
        <ele>32.543632</ele>
        <time>2020-03-14T15:19:42.442Z</time>
      </trkpt>
      <trkpt lat="48.57243" lon="-4.45342">
        <ele>32.750729</ele>
        <time>2020-03-14T15:19:46.847Z</time>
      </trkpt>
      <trkpt lat="48.57245" lon="-4.45309">
        <ele>34.09914</ele>
        <time>2020-03-14T15:19:58.230Z</time>
      </trkpt>
      <trkpt lat="48.57241" lon="-4.45291">
        <ele>35.007818</ele>
        <time>2020-03-14T15:20:04.658Z</time>
      </trkpt>
      <trkpt lat="48.57265" lon="-4.45276">
        <ele>36.789782</ele>
        <time>2020-03-14T15:20:18.409Z</time>
      </trkpt>
      <trkpt lat="48.57319" lon="-4.45226">
        <ele>41.349363</ele>
        <time>2020-03-14T15:20:50.932Z</time>
      </trkpt>
      <trkpt lat="48.57337" lon="-4.45214">
        <ele>42.70434</ele>
        <time>2020-03-14T15:21:03.217Z</time>
      </trkpt>
      <trkpt lat="48.57359" lon="-4.45203">
        <ele>44.374075</ele>
        <time>2020-03-14T15:21:15.445Z</time>
      </trkpt>
      <trkpt lat="48.57446" lon="-4.45191">
        <ele>48.628758</ele>
        <time>2020-03-14T15:21:55.935Z</time>
      </trkpt>
      <trkpt lat="48.57625" lon="-4.45256">
        <ele>55.2018</ele>
        <time>2020-03-14T15:22:58.799Z</time>
      </trkpt>
      <trkpt lat="48.57678" lon="-4.45274">
        <ele>56.496333</ele>
        <time>2020-03-14T15:23:15.517Z</time>
      </trkpt>
      <trkpt lat="48.57695" lon="-4.45278">
        <ele>56.902933</ele>
        <time>2020-03-14T15:23:20.721Z</time>
      </trkpt>
      <trkpt lat="48.57724" lon="-4.45282">
        <ele>57.606044</ele>
        <time>2020-03-14T15:23:29.456Z</time>
      </trkpt>
      <trkpt lat="48.5772" lon="-4.45266">
        <ele>57.802566</ele>
        <time>2020-03-14T15:23:34.616Z</time>
      </trkpt>
      <trkpt lat="48.57696" lon="-4.4522">
        <ele>58.23366</ele>
        <time>2020-03-14T15:23:51.447Z</time>
      </trkpt>
      <trkpt lat="48.57675" lon="-4.45143">
        <ele>58.853922</ele>
        <time>2020-03-14T15:24:14.917Z</time>
      </trkpt>
      <trkpt lat="48.57659" lon="-4.45027">
        <ele>59.732333</ele>
        <time>2020-03-14T15:24:46.169Z</time>
      </trkpt>
      <trkpt lat="48.57666" lon="-4.44826">
        <ele>59.533342</ele>
        <time>2020-03-14T15:25:36.135Z</time>
      </trkpt>
      <trkpt lat="48.57674" lon="-4.44749">
        <ele>59.389724</ele>
        <time>2020-03-14T15:25:54.054Z</time>
      </trkpt>
      <trkpt lat="48.57676" lon="-4.44731">
        <ele>59.180976</ele>
        <time>2020-03-14T15:25:58.055Z</time>
      </trkpt>
      <trkpt lat="48.5767" lon="-4.44691">
        <ele>58.709951</ele>
        <time>2020-03-14T15:26:06.970Z</time>
      </trkpt>
      <trkpt lat="48.57651" lon="-4.44633">
        <ele>57.968136</ele>
        <time>2020-03-14T15:26:20.747Z</time>
      </trkpt>
      <trkpt lat="48.57644" lon="-4.44583">
        <ele>57.379617</ele>
        <time>2020-03-14T15:26:31.510Z</time>
      </trkpt>
      <trkpt lat="48.57644" lon="-4.44573">
        <ele>57.257292</ele>
        <time>2020-03-14T15:26:33.596Z</time>
      </trkpt>
      <trkpt lat="48.57643" lon="-4.44556">
        <ele>57.057694</ele>
        <time>2020-03-14T15:26:37.114Z</time>
      </trkpt>
      <trkpt lat="48.57631" lon="-4.44498">
        <ele>56.357045</ele>
        <time>2020-03-14T15:26:49.715Z</time>
      </trkpt>
      <trkpt lat="48.576" lon="-4.44388">
        <ele>54.713712</ele>
        <time>2020-03-14T15:27:14.295Z</time>
      </trkpt>
      <trkpt lat="48.57588" lon="-4.44247">
        <ele>52.751772</ele>
        <time>2020-03-14T15:27:43.797Z</time>
      </trkpt>
      <trkpt lat="48.57554" lon="-4.44131">
        <ele>51.695266</ele>
        <time>2020-03-14T15:28:10.830Z</time>
      </trkpt>
      <trkpt lat="48.57553" lon="-4.44105">
        <ele>51.490405</ele>
        <time>2020-03-14T15:28:16.621Z</time>
      </trkpt>
      <trkpt lat="48.57534" lon="-4.44104">
        <ele>51.278564</ele>
        <time>2020-03-14T15:28:22.583Z</time>
      </trkpt>
      <trkpt lat="48.57509" lon="-4.44105">
        <ele>50.987604</ele>
        <time>2020-03-14T15:28:31.209Z</time>
      </trkpt>
      <trkpt lat="48.57497" lon="-4.44087">
        <ele>50.782589</ele>
        <time>2020-03-14T15:28:37.124Z</time>
      </trkpt>
      <trkpt lat="48.5749" lon="-4.44085">
        <ele>50.708495</ele>
        <time>2020-03-14T15:28:39.493Z</time>
      </trkpt>
      <trkpt lat="48.57439" lon="-4.44156">
        <ele>50.585057</ele>
        <time>2020-03-14T15:29:04.663Z</time>
      </trkpt>
      <trkpt lat="48.57413" lon="-4.44186">
        <ele>50.664543</ele>
        <time>2020-03-14T15:29:17.046Z</time>
      </trkpt>
      <trkpt lat="48.57403" lon="-4.44177">
        <ele>50.692801</ele>
        <time>2020-03-14T15:29:21.941Z</time>
      </trkpt>
      <trkpt lat="48.57387" lon="-4.44154">
        <ele>50.745606</ele>
        <time>2020-03-14T15:29:30.262Z</time>
      </trkpt>
      <trkpt lat="48.57387" lon="-4.44142">
        <ele>50.763538</ele>
        <time>2020-03-14T15:29:33.306Z</time>
      </trkpt>
      <trkpt lat="48.57404" lon="-4.4411">
        <ele>50.829019</ele>
        <time>2020-03-14T15:29:44.009Z</time>
      </trkpt>
      <trkpt lat="48.57417" lon="-4.44096">
        <ele>50.867239</ele>
        <time>2020-03-14T15:29:50.540Z</time>
      </trkpt>
      <trkpt lat="48.5743" lon="-4.44087">
        <ele>50.904239</ele>
        <time>2020-03-14T15:29:55.916Z</time>
      </trkpt>
      <trkpt lat="48.57448" lon="-4.44074">
        <ele>51.07897</ele>
        <time>2020-03-14T15:30:03.988Z</time>
      </trkpt>
      <trkpt lat="48.57474" lon="-4.44006">
        <ele>51.54056</ele>
        <time>2020-03-14T15:30:25.578Z</time>
      </trkpt>
      <trkpt lat="48.57478" lon="-4.43981">
        <ele>51.688352</ele>
        <time>2020-03-14T15:30:32.273Z</time>
      </trkpt>
      <trkpt lat="48.57489" lon="-4.43964">
        <ele>51.829504</ele>
        <time>2020-03-14T15:30:38.881Z</time>
      </trkpt>
      <trkpt lat="48.5751" lon="-4.43894">
        <ele>52.27871</ele>
        <time>2020-03-14T15:30:59.313Z</time>
      </trkpt>
      <trkpt lat="48.57517" lon="-4.43885">
        <ele>52.359261</ele>
        <time>2020-03-14T15:31:02.923Z</time>
      </trkpt>
      <trkpt lat="48.57522" lon="-4.4388">
        <ele>52.411053</ele>
        <time>2020-03-14T15:31:05.205Z</time>
      </trkpt>
      <trkpt lat="48.57527" lon="-4.43872">
        <ele>52.474512</ele>
        <time>2020-03-14T15:31:08.299Z</time>
      </trkpt>
      <trkpt lat="48.57532" lon="-4.4382">
        <ele>52.924545</ele>
        <time>2020-03-14T15:31:22.715Z</time>
      </trkpt>
      <trkpt lat="48.57545" lon="-4.43803">
        <ele>53.14727</ele>
        <time>2020-03-14T15:31:30.045Z</time>
      </trkpt>
      <trkpt lat="48.57542" lon="-4.43756">
        <ele>53.555431</ele>
        <time>2020-03-14T15:31:43.231Z</time>
      </trkpt>
      <trkpt lat="48.57536" lon="-4.43734">
        <ele>53.761917</ele>
        <time>2020-03-14T15:31:49.805Z</time>
      </trkpt>
      <trkpt lat="48.57516" lon="-4.43714">
        <ele>54.080859</ele>
        <time>2020-03-14T15:32:00.305Z</time>
      </trkpt>
      <trkpt lat="48.57507" lon="-4.43684">
        <ele>54.371656</ele>
        <time>2020-03-14T15:32:09.691Z</time>
      </trkpt>
      <trkpt lat="48.57504" lon="-4.43657">
        <ele>54.612037</ele>
        <time>2020-03-14T15:32:17.650Z</time>
      </trkpt>
      <trkpt lat="48.57502" lon="-4.43646">
        <ele>54.706433</ele>
        <time>2020-03-14T15:32:20.061Z</time>
      </trkpt>
      <trkpt lat="48.57497" lon="-4.43635">
        <ele>54.82378</ele>
        <time>2020-03-14T15:32:23.006Z</time>
      </trkpt>
      <trkpt lat="48.57499" lon="-4.43629">
        <ele>54.890931</ele>
        <time>2020-03-14T15:32:24.529Z</time>
      </trkpt>
      <trkpt lat="48.57476" lon="-4.43499">
        <ele>56.122776</ele>
        <time>2020-03-14T15:32:50.339Z</time>
      </trkpt>
      <trkpt lat="48.57461" lon="-4.4346">
        <ele>56.547115</ele>
        <time>2020-03-14T15:32:59.370Z</time>
      </trkpt>
      <trkpt lat="48.57447" lon="-4.43398">
        <ele>57.147029</ele>
        <time>2020-03-14T15:33:11.588Z</time>
      </trkpt>
      <trkpt lat="48.57438" lon="-4.43354">
        <ele>57.512016</ele>
        <time>2020-03-14T15:33:20.118Z</time>
      </trkpt>
      <trkpt lat="48.57429" lon="-4.43305">
        <ele>57.836842</ele>
        <time>2020-03-14T15:33:29.301Z</time>
      </trkpt>
      <trkpt lat="48.57424" lon="-4.43279">
        <ele>58.011434</ele>
        <time>2020-03-14T15:33:34.217Z</time>
      </trkpt>
      <trkpt lat="48.57421" lon="-4.43263">
        <ele>58.119387</ele>
        <time>2020-03-14T15:33:37.317Z</time>
      </trkpt>
      <trkpt lat="48.57421" lon="-4.4324">
        <ele>58.265584</ele>
        <time>2020-03-14T15:33:41.287Z</time>
      </trkpt>
      <trkpt lat="48.57423" lon="-4.43223">
        <ele>58.37865</ele>
        <time>2020-03-14T15:33:44.532Z</time>
      </trkpt>
      <trkpt lat="48.57415" lon="-4.43214">
        <ele>58.481516</ele>
        <time>2020-03-14T15:33:47.449Z</time>
      </trkpt>
      <trkpt lat="48.57396" lon="-4.43163">
        <ele>58.854276</ele>
        <time>2020-03-14T15:33:57.806Z</time>
      </trkpt>
      <trkpt lat="48.5736" lon="-4.43026">
        <ele>59.315955</ele>
        <time>2020-03-14T15:34:22.777Z</time>
      </trkpt>
      <trkpt lat="48.57342" lon="-4.42897">
        <ele>59.565303</ele>
        <time>2020-03-14T15:34:43.694Z</time>
      </trkpt>
      <trkpt lat="48.57309" lon="-4.42721">
        <ele>59.275859</ele>
        <time>2020-03-14T15:35:10.857Z</time>
      </trkpt>
      <trkpt lat="48.57279" lon="-4.42604">
        <ele>58.968377</ele>
        <time>2020-03-14T15:35:28.516Z</time>
      </trkpt>
      <trkpt lat="48.5726" lon="-4.42538">
        <ele>58.538494</ele>
        <time>2020-03-14T15:35:38.474Z</time>
      </trkpt>
      <trkpt lat="48.57244" lon="-4.42468">
        <ele>58.09544</ele>
        <time>2020-03-14T15:35:48.517Z</time>
      </trkpt>
      <trkpt lat="48.57246" lon="-4.42352">
        <ele>57.401349</ele>
        <time>2020-03-14T15:36:04.002Z</time>
      </trkpt>
      <trkpt lat="48.5724" lon="-4.42307">
        <ele>56.982873</ele>
        <time>2020-03-14T15:36:10.143Z</time>
      </trkpt>
      <trkpt lat="48.57236" lon="-4.42294">
        <ele>56.84351</ele>
        <time>2020-03-14T15:36:12.078Z</time>
      </trkpt>
      <trkpt lat="48.57214" lon="-4.42323">
        <ele>56.408394</ele>
        <time>2020-03-14T15:36:22.182Z</time>
      </trkpt>
      <trkpt lat="48.57187" lon="-4.42357">
        <ele>55.900671</ele>
        <time>2020-03-14T15:36:33.659Z</time>
      </trkpt>
      <trkpt lat="48.57137" lon="-4.42391">
        <ele>55.095304</ele>
        <time>2020-03-14T15:36:51.483Z</time>
      </trkpt>
      <trkpt lat="48.5709" lon="-4.42402">
        <ele>54.205908</ele>
        <time>2020-03-14T15:37:06.054Z</time>
      </trkpt>
      <trkpt lat="48.57074" lon="-4.42399">
        <ele>53.843177</ele>
        <time>2020-03-14T15:37:11.061Z</time>
      </trkpt>
      <trkpt lat="48.57062" lon="-4.42391">
        <ele>53.531462</ele>
        <time>2020-03-14T15:37:15.179Z</time>
      </trkpt>
      <trkpt lat="48.57062" lon="-4.42428">
        <ele>52.964363</ele>
        <time>2020-03-14T15:37:22.844Z</time>
      </trkpt>
      <trkpt lat="48.57057" lon="-4.42447">
        <ele>52.665313</ele>
        <time>2020-03-14T15:37:26.775Z</time>
      </trkpt>
      <trkpt lat="48.5704" lon="-4.42481">
        <ele>52.005257</ele>
        <time>2020-03-14T15:37:35.702Z</time>
      </trkpt>
      <trkpt lat="48.57029" lon="-4.42487">
        <ele>51.747</ele>
        <time>2020-03-14T15:37:39.002Z</time>
      </trkpt>
      <trkpt lat="48.57005" lon="-4.42489">
        <ele>51.189275</ele>
        <time>2020-03-14T15:37:46.557Z</time>
      </trkpt>
      <trkpt lat="48.56986" lon="-4.42476">
        <ele>50.700744</ele>
        <time>2020-03-14T15:37:52.962Z</time>
      </trkpt>
      <trkpt lat="48.56953" lon="-4.42485">
        <ele>50.086197</ele>
        <time>2020-03-14T15:38:03.160Z</time>
      </trkpt>
      <trkpt lat="48.56944" lon="-4.4249">
        <ele>49.918453</ele>
        <time>2020-03-14T15:38:06.190Z</time>
      </trkpt>
      <trkpt lat="48.5694" lon="-4.42492">
        <ele>49.838074</ele>
        <time>2020-03-14T15:38:07.621Z</time>
      </trkpt>
      <trkpt lat="48.56927" lon="-4.42534">
        <ele>49.306551</ele>
        <time>2020-03-14T15:38:17.242Z</time>
      </trkpt>
      <trkpt lat="48.569" lon="-4.42549">
        <ele>48.802125</ele>
        <time>2020-03-14T15:38:26.375Z</time>
      </trkpt>
      <trkpt lat="48.56883" lon="-4.42545">
        <ele>48.488303</ele>
        <time>2020-03-14T15:38:32.321Z</time>
      </trkpt>
      <trkpt lat="48.56868" lon="-4.42498">
        <ele>47.886728</ele>
        <time>2020-03-14T15:38:43.775Z</time>
      </trkpt>
      <trkpt lat="48.56835" lon="-4.42524">
        <ele>47.236576</ele>
        <time>2020-03-14T15:38:56.125Z</time>
      </trkpt>
      <trkpt lat="48.5682" lon="-4.42526">
        <ele>46.97386</ele>
        <time>2020-03-14T15:39:01.095Z</time>
      </trkpt>
      <trkpt lat="48.56807" lon="-4.42522">
        <ele>46.756909</ele>
        <time>2020-03-14T15:39:05.253Z</time>
      </trkpt>
      <trkpt lat="48.56808" lon="-4.42514">
        <ele>46.662874</ele>
        <time>2020-03-14T15:39:06.217Z</time>
      </trkpt>
      <trkpt lat="48.56797" lon="-4.42505">
        <ele>46.449677</ele>
        <time>2020-03-14T15:39:10.224Z</time>
      </trkpt>
      <trkpt lat="48.56779" lon="-4.42499">
        <ele>46.13916</ele>
        <time>2020-03-14T15:39:16.046Z</time>
      </trkpt>
      <trkpt lat="48.56753" lon="-4.42532">
        <ele>45.54908</ele>
        <time>2020-03-14T15:39:26.927Z</time>
      </trkpt>
      <trkpt lat="48.56727" lon="-4.42584">
        <ele>44.802815</ele>
        <time>2020-03-14T15:39:40.411Z</time>
      </trkpt>
      <trkpt lat="48.56711" lon="-4.42654">
        <ele>44.209657</ele>
        <time>2020-03-14T15:39:55.284Z</time>
      </trkpt>
      <trkpt lat="48.56647" lon="-4.42758">
        <ele>43.732443</ele>
        <time>2020-03-14T15:40:27.272Z</time>
      </trkpt>
      <trkpt lat="48.56632" lon="-4.42785">
        <ele>43.615727</ele>
        <time>2020-03-14T15:40:34.821Z</time>
      </trkpt>
      <trkpt lat="48.56633" lon="-4.42767">
        <ele>43.55685</ele>
        <time>2020-03-14T15:40:41.215Z</time>
      </trkpt>
      <trkpt lat="48.56622" lon="-4.42668">
        <ele>44.402123</ele>
        <time>2020-03-14T15:41:09.708Z</time>
      </trkpt>
      <trkpt lat="48.56625" lon="-4.42633">
        <ele>45.033572</ele>
        <time>2020-03-14T15:41:19.391Z</time>
      </trkpt>
      <trkpt lat="48.56628" lon="-4.42617">
        <ele>45.337995</ele>
        <time>2020-03-14T15:41:25.701Z</time>
      </trkpt>
      <trkpt lat="48.56634" lon="-4.42585">
        <ele>45.935679</ele>
        <time>2020-03-14T15:41:35.775Z</time>
      </trkpt>
      <trkpt lat="48.56636" lon="-4.42563">
        <ele>46.335521</ele>
        <time>2020-03-14T15:41:43.789Z</time>
      </trkpt>
      <trkpt lat="48.5663" lon="-4.42518">
        <ele>47.166986</ele>
        <time>2020-03-14T15:42:00.203Z</time>
      </trkpt>
      <trkpt lat="48.56619" lon="-4.42454">
        <ele>48.35485</ele>
        <time>2020-03-14T15:42:23.148Z</time>
      </trkpt>
      <trkpt lat="48.56612" lon="-4.42406">
        <ele>48.98457</ele>
        <time>2020-03-14T15:42:35.026Z</time>
      </trkpt>
      <trkpt lat="48.56599" lon="-4.42348">
        <ele>49.766873</ele>
        <time>2020-03-14T15:42:47.695Z</time>
      </trkpt>
      <trkpt lat="48.56596" lon="-4.42334">
        <ele>49.94932</ele>
        <time>2020-03-14T15:42:50.699Z</time>
      </trkpt>
      <trkpt lat="48.56586" lon="-4.42279">
        <ele>50.693626</ele>
        <time>2020-03-14T15:43:01.867Z</time>
      </trkpt>
      <trkpt lat="48.56567" lon="-4.4218">
        <ele>51.881682</ele>
        <time>2020-03-14T15:43:20.578Z</time>
      </trkpt>
      <trkpt lat="48.56582" lon="-4.4185">
        <ele>53.351584</ele>
        <time>2020-03-14T15:44:16.950Z</time>
      </trkpt>
      <trkpt lat="48.56588" lon="-4.41815">
        <ele>53.482119</ele>
        <time>2020-03-14T15:44:22.767Z</time>
      </trkpt>
      <trkpt lat="48.56591" lon="-4.41803">
        <ele>53.531742</ele>
        <time>2020-03-14T15:44:25.307Z</time>
      </trkpt>
      <trkpt lat="48.56572" lon="-4.41714">
        <ele>53.875835</ele>
        <time>2020-03-14T15:44:49.728Z</time>
      </trkpt>
      <trkpt lat="48.56417" lon="-4.41003">
        <ele>55.502694</ele>
        <time>2020-03-14T15:48:03.233Z</time>
      </trkpt>
      <trkpt lat="48.56387" lon="-4.41003">
        <ele>55.407663</ele>
        <time>2020-03-14T15:48:09.152Z</time>
      </trkpt>
      <trkpt lat="48.5625" lon="-4.41002">
        <ele>53.818207</ele>
        <time>2020-03-14T15:48:34.406Z</time>
      </trkpt>
      <trkpt lat="48.56239" lon="-4.41004">
        <ele>53.640515</ele>
        <time>2020-03-14T15:48:36.267Z</time>
      </trkpt>
      <trkpt lat="48.56192" lon="-4.40604">
        <ele>49.183617</ele>
        <time>2020-03-14T15:50:02.775Z</time>
      </trkpt>
      <trkpt lat="48.5619" lon="-4.40588">
        <ele>49.011094</ele>
        <time>2020-03-14T15:50:06.309Z</time>
      </trkpt>
      <trkpt lat="48.56189" lon="-4.40581">
        <ele>48.927636</ele>
        <time>2020-03-14T15:50:08.067Z</time>
      </trkpt>
      <trkpt lat="48.56185" lon="-4.40571">
        <ele>48.791114</ele>
        <time>2020-03-14T15:50:10.816Z</time>
      </trkpt>
      <trkpt lat="48.56168" lon="-4.40563">
        <ele>48.509667</ele>
        <time>2020-03-14T15:50:16.263Z</time>
      </trkpt>
      <trkpt lat="48.56157" lon="-4.40558">
        <ele>48.312087</ele>
        <time>2020-03-14T15:50:20.462Z</time>
      </trkpt>
      <trkpt lat="48.56153" lon="-4.40541">
        <ele>48.111801</ele>
        <time>2020-03-14T15:50:24.267Z</time>
      </trkpt>
      <trkpt lat="48.56148" lon="-4.40532">
        <ele>47.991014</ele>
        <time>2020-03-14T15:50:26.399Z</time>
      </trkpt>
      <trkpt lat="48.56075" lon="-4.40526">
        <ele>46.782978</ele>
        <time>2020-03-14T15:50:49.678Z</time>
      </trkpt>
      <trkpt lat="48.56067" lon="-4.40517">
        <ele>46.614831</ele>
        <time>2020-03-14T15:50:53.161Z</time>
      </trkpt>
      <trkpt lat="48.56063" lon="-4.40498">
        <ele>46.39121</ele>
        <time>2020-03-14T15:50:57.604Z</time>
      </trkpt>
      <trkpt lat="48.56055" lon="-4.40457">
        <ele>46.116867</ele>
        <time>2020-03-14T15:51:06.716Z</time>
      </trkpt>
      <trkpt lat="48.56049" lon="-4.4043">
        <ele>45.955588</ele>
        <time>2020-03-14T15:51:12.414Z</time>
      </trkpt>
      <trkpt lat="48.56038" lon="-4.40393">
        <ele>45.722438</ele>
        <time>2020-03-14T15:51:21.323Z</time>
      </trkpt>
      <trkpt lat="48.56016" lon="-4.40383">
        <ele>45.52322</ele>
        <time>2020-03-14T15:51:28.913Z</time>
      </trkpt>
      <trkpt lat="48.56003" lon="-4.40318">
        <ele>45.13449</ele>
        <time>2020-03-14T15:51:43.745Z</time>
      </trkpt>
      <trkpt lat="48.55945" lon="-4.40316">
        <ele>45.14792</ele>
        <time>2020-03-14T15:52:06.695Z</time>
      </trkpt>
      <trkpt lat="48.55937" lon="-4.40285">
        <ele>45.637411</ele>
        <time>2020-03-14T15:52:15.176Z</time>
      </trkpt>
      <trkpt lat="48.55933" lon="-4.40223">
        <ele>46.570407</ele>
        <time>2020-03-14T15:52:34.490Z</time>
      </trkpt>
      <trkpt lat="48.55931" lon="-4.40196">
        <ele>46.980662</ele>
        <time>2020-03-14T15:52:43.174Z</time>
      </trkpt>
      <trkpt lat="48.5593" lon="-4.40175">
        <ele>47.291923</ele>
        <time>2020-03-14T15:52:49.948Z</time>
      </trkpt>
      <trkpt lat="48.55928" lon="-4.40161">
        <ele>47.509571</ele>
        <time>2020-03-14T15:52:55.330Z</time>
      </trkpt>
      <trkpt lat="48.55932" lon="-4.40136">
        <ele>47.880428</ele>
        <time>2020-03-14T15:53:02.969Z</time>
      </trkpt>
      <trkpt lat="48.55987" lon="-4.4011">
        <ele>49.085438</ele>
        <time>2020-03-14T15:53:32.572Z</time>
      </trkpt>
      <trkpt lat="48.5601" lon="-4.40103">
        <ele>49.489403</ele>
        <time>2020-03-14T15:53:44.585Z</time>
      </trkpt>
      <trkpt lat="48.56026" lon="-4.40095">
        <ele>49.760753</ele>
        <time>2020-03-14T15:53:50.295Z</time>
      </trkpt>
      <trkpt lat="48.56084" lon="-4.40051">
        <ele>50.847491</ele>
        <time>2020-03-14T15:54:11.238Z</time>
      </trkpt>
      <trkpt lat="48.56088" lon="-4.40037">
        <ele>51.022608</ele>
        <time>2020-03-14T15:54:13.651Z</time>
      </trkpt>
      <trkpt lat="48.56088" lon="-4.39998">
        <ele>51.454099</ele>
        <time>2020-03-14T15:54:20.195Z</time>
      </trkpt>
      <trkpt lat="48.56093" lon="-4.3998">
        <ele>51.660712</ele>
        <time>2020-03-14T15:54:22.829Z</time>
      </trkpt>
      <trkpt lat="48.56095" lon="-4.39977">
        <ele>51.708146</ele>
        <time>2020-03-14T15:54:23.881Z</time>
      </trkpt>
      <trkpt lat="48.56092" lon="-4.39973">
        <ele>51.771972</ele>
        <time>2020-03-14T15:54:24.751Z</time>
      </trkpt>
      <trkpt lat="48.56087" lon="-4.39971">
        <ele>51.794306</ele>
        <time>2020-03-14T15:54:25.986Z</time>
      </trkpt>
      <trkpt lat="48.56083" lon="-4.3997">
        <ele>51.677386</ele>
        <time>2020-03-14T15:54:26.975Z</time>
      </trkpt>
      <trkpt lat="48.5608" lon="-4.39967">
        <ele>51.585775</ele>
        <time>2020-03-14T15:54:27.951Z</time>
      </trkpt>
      <trkpt lat="48.5605" lon="-4.39862">
        <ele>49.529501</ele>
        <time>2020-03-14T15:54:52.229Z</time>
      </trkpt>
      <trkpt lat="48.56047" lon="-4.39855">
        <ele>49.387849</ele>
        <time>2020-03-14T15:54:53.715Z</time>
      </trkpt>
      <trkpt lat="48.5604" lon="-4.39862">
        <ele>49.177497</ele>
        <time>2020-03-14T15:54:56.061Z</time>
      </trkpt>
      <trkpt lat="48.55981" lon="-4.39965">
        <ele>46.527457</ele>
        <time>2020-03-14T15:55:22.328Z</time>
      </trkpt>
      <trkpt lat="48.55891" lon="-4.39967">
        <ele>41.921904</ele>
        <time>2020-03-14T15:55:46.386Z</time>
      </trkpt>
      <trkpt lat="48.55827" lon="-4.39969">
        <ele>38.649668</ele>
        <time>2020-03-14T15:56:03.944Z</time>
      </trkpt>
      <trkpt lat="48.55812" lon="-4.39965">
        <ele>37.914038</ele>
        <time>2020-03-14T15:56:07.749Z</time>
      </trkpt>
      <trkpt lat="48.55804" lon="-4.39962">
        <ele>37.854417</ele>
        <time>2020-03-14T15:56:10.298Z</time>
      </trkpt>
      <trkpt lat="48.55771" lon="-4.39934">
        <ele>38.017713</ele>
        <time>2020-03-14T15:56:21.328Z</time>
      </trkpt>
      <trkpt lat="48.55766" lon="-4.39929">
        <ele>38.042585</ele>
        <time>2020-03-14T15:56:23.141Z</time>
      </trkpt>
      <trkpt lat="48.55763" lon="-4.39929">
        <ele>38.057433</ele>
        <time>2020-03-14T15:56:24.137Z</time>
      </trkpt>
      <trkpt lat="48.55747" lon="-4.39949">
        <ele>38.14554</ele>
        <time>2020-03-14T15:56:30.630Z</time>
      </trkpt>
      <trkpt lat="48.55734" lon="-4.39966">
        <ele>38.221204</ele>
        <time>2020-03-14T15:56:37.158Z</time>
      </trkpt>
      <trkpt lat="48.55721" lon="-4.39953">
        <ele>38.28866</ele>
        <time>2020-03-14T15:56:43.032Z</time>
      </trkpt>
      <trkpt lat="48.55725" lon="-4.39925">
        <ele>38.371755</ele>
        <time>2020-03-14T15:56:53.028Z</time>
      </trkpt>
      <trkpt lat="48.55715" lon="-4.39883">
        <ele>38.499317</ele>
        <time>2020-03-14T15:57:08.440Z</time>
      </trkpt>
      <trkpt lat="48.55731" lon="-4.39858">
        <ele>38.597694</ele>
        <time>2020-03-14T15:57:20.577Z</time>
      </trkpt>
      <trkpt lat="48.55736" lon="-4.39855">
        <ele>38.814637</ele>
        <time>2020-03-14T15:57:25.233Z</time>
      </trkpt>
      <trkpt lat="48.55736" lon="-4.39855">
        <ele>38.814637</ele>
        <time>2020-03-14T15:57:25.362Z</time>
      </trkpt>
      <trkpt lat="48.55743" lon="-4.39854">
        <ele>39.118453</ele>
        <time>2020-03-14T15:57:29.983Z</time>
      </trkpt>
      <trkpt lat="48.55753" lon="-4.39845">
        <ele>39.659743</ele>
        <time>2020-03-14T15:57:34.825Z</time>
      </trkpt>
      <trkpt lat="48.5576" lon="-4.39836">
        <ele>40.073499</ele>
        <time>2020-03-14T15:57:40.486Z</time>
      </trkpt>
      <trkpt lat="48.55765" lon="-4.39829">
        <ele>40.38823</ele>
        <time>2020-03-14T15:57:46.840Z</time>
      </trkpt>
      <trkpt lat="48.55782" lon="-4.39797">
        <ele>41.595262</ele>
        <time>2020-03-14T15:58:01.769Z</time>
      </trkpt>
      <trkpt lat="48.55782" lon="-4.39791">
        <ele>41.777268</ele>
        <time>2020-03-14T15:58:05.474Z</time>
      </trkpt>
      <trkpt lat="48.55785" lon="-4.39787">
        <ele>41.944958</ele>
        <time>2020-03-14T15:58:08.156Z</time>
      </trkpt>
      <trkpt lat="48.55786" lon="-4.39776">
        <ele>42.290474</ele>
        <time>2020-03-14T15:58:14.089Z</time>
      </trkpt>
      <trkpt lat="48.55817" lon="-4.39705">
        <ele>44.835794</ele>
        <time>2020-03-14T15:58:41.692Z</time>
      </trkpt>
      <trkpt lat="48.5582" lon="-4.39698">
        <ele>45.082116</ele>
        <time>2020-03-14T15:58:45.922Z</time>
      </trkpt>
      <trkpt lat="48.5583" lon="-4.39675">
        <ele>45.908157</ele>
        <time>2020-03-14T15:58:57.211Z</time>
      </trkpt>
      <trkpt lat="48.55823" lon="-4.39663">
        <ele>46.37658</ele>
        <time>2020-03-14T15:59:00.654Z</time>
      </trkpt>
      <trkpt lat="48.55804" lon="-4.39625">
        <ele>46.745746</ele>
        <time>2020-03-14T15:59:16.469Z</time>
      </trkpt>
      <trkpt lat="48.558" lon="-4.3962">
        <ele>46.753266</ele>
        <time>2020-03-14T15:59:18.099Z</time>
      </trkpt>
      <trkpt lat="48.5579" lon="-4.39631">
        <ele>46.771805</ele>
        <time>2020-03-14T15:59:24.555Z</time>
      </trkpt>
      <trkpt lat="48.55779" lon="-4.39642">
        <ele>46.790225</ele>
        <time>2020-03-14T15:59:30.494Z</time>
      </trkpt>
      <trkpt lat="48.55773" lon="-4.39648">
        <ele>46.800699</ele>
        <time>2020-03-14T15:59:32.565Z</time>
      </trkpt>
      <trkpt lat="48.55764" lon="-4.39651">
        <ele>46.814367</ele>
        <time>2020-03-14T15:59:35.588Z</time>
      </trkpt>
      <trkpt lat="48.55743" lon="-4.39623">
        <ele>46.854493</ele>
        <time>2020-03-14T15:59:45.055Z</time>
      </trkpt>
      <trkpt lat="48.55734" lon="-4.39588">
        <ele>46.891973</ele>
        <time>2020-03-14T15:59:54.167Z</time>
      </trkpt>
      <trkpt lat="48.55726" lon="-4.39512">
        <ele>46.965883</ele>
        <time>2020-03-14T16:00:10.003Z</time>
      </trkpt>
      <trkpt lat="48.55706" lon="-4.39425">
        <ele>47.276022</ele>
        <time>2020-03-14T16:00:31.222Z</time>
      </trkpt>
      <trkpt lat="48.55681" lon="-4.3939">
        <ele>47.460071</ele>
        <time>2020-03-14T16:00:45.402Z</time>
      </trkpt>
      <trkpt lat="48.55667" lon="-4.39379">
        <ele>47.546528</ele>
        <time>2020-03-14T16:00:52.157Z</time>
      </trkpt>
      <trkpt lat="48.55653" lon="-4.39349">
        <ele>47.678676</ele>
        <time>2020-03-14T16:01:02.616Z</time>
      </trkpt>
      <trkpt lat="48.55615" lon="-4.39297">
        <ele>47.960968</ele>
        <time>2020-03-14T16:01:25.552Z</time>
      </trkpt>
      <trkpt lat="48.5559" lon="-4.39308">
        <ele>48.129563</ele>
        <time>2020-03-14T16:01:37.014Z</time>
      </trkpt>
      <trkpt lat="48.55549" lon="-4.39275">
        <ele>48.424981</ele>
        <time>2020-03-14T16:01:54.353Z</time>
      </trkpt>
      <trkpt lat="48.55538" lon="-4.39258">
        <ele>48.52862</ele>
        <time>2020-03-14T16:02:00.596Z</time>
      </trkpt>
      <trkpt lat="48.5553" lon="-4.39224">
        <ele>48.681759</ele>
        <time>2020-03-14T16:02:09.990Z</time>
      </trkpt>
      <trkpt lat="48.55528" lon="-4.39213">
        <ele>48.733471</ele>
        <time>2020-03-14T16:02:13.601Z</time>
      </trkpt>
      <trkpt lat="48.55522" lon="-4.39206">
        <ele>48.781039</ele>
        <time>2020-03-14T16:02:15.953Z</time>
      </trkpt>
      <trkpt lat="48.55514" lon="-4.39194">
        <ele>48.85256</ele>
        <time>2020-03-14T16:02:21.469Z</time>
      </trkpt>
      <trkpt lat="48.55486" lon="-4.39174">
        <ele>49.05533</ele>
        <time>2020-03-14T16:02:33.744Z</time>
      </trkpt>
      <trkpt lat="48.55483" lon="-4.39166">
        <ele>49.093251</ele>
        <time>2020-03-14T16:02:35.436Z</time>
      </trkpt>
      <trkpt lat="48.55481" lon="-4.39177">
        <ele>49.086432</ele>
        <time>2020-03-14T16:02:37.628Z</time>
      </trkpt>
      <trkpt lat="48.55462" lon="-4.39197">
        <ele>48.947804</ele>
        <time>2020-03-14T16:02:47.769Z</time>
      </trkpt>
      <trkpt lat="48.55459" lon="-4.39208">
        <ele>48.901324</ele>
        <time>2020-03-14T16:02:50.016Z</time>
      </trkpt>
      <trkpt lat="48.55443" lon="-4.392">
        <ele>48.798874</ele>
        <time>2020-03-14T16:02:55.796Z</time>
      </trkpt>
      <trkpt lat="48.55436" lon="-4.39196">
        <ele>48.755876</ele>
        <time>2020-03-14T16:02:58.183Z</time>
      </trkpt>
      <trkpt lat="48.55436" lon="-4.39196">
        <ele>48.755876</ele>
        <time>2020-03-14T16:02:58.282Z</time>
      </trkpt>
      <trkpt lat="48.55436" lon="-4.39196">
        <ele>48.755876</ele>
        <time>2020-03-14T16:02:58.282Z</time>
      </trkpt>
      <trkpt lat="48.55513" lon="-4.39252">
        <ele>48.250302</ele>
        <time>2020-03-14T16:03:20.341Z</time>
      </trkpt>
      <trkpt lat="48.5559" lon="-4.39308">
        <ele>47.696752</ele>
        <time>2020-03-14T16:03:42.392Z</time>
      </trkpt>
      <trkpt lat="48.55549" lon="-4.39275">
        <ele>47.383129</ele>
        <time>2020-03-14T16:03:54.191Z</time>
      </trkpt>
      <trkpt lat="48.55538" lon="-4.39258">
        <ele>47.273103</ele>
        <time>2020-03-14T16:03:58.334Z</time>
      </trkpt>
      <trkpt lat="48.5553" lon="-4.39224">
        <ele>47.110527</ele>
        <time>2020-03-14T16:04:04.462Z</time>
      </trkpt>
      <trkpt lat="48.55528" lon="-4.39213">
        <ele>47.055628</ele>
        <time>2020-03-14T16:04:06.532Z</time>
      </trkpt>
      <trkpt lat="48.55522" lon="-4.39206">
        <ele>47.005129</ele>
        <time>2020-03-14T16:04:08.432Z</time>
      </trkpt>
      <trkpt lat="48.55514" lon="-4.39194">
        <ele>46.9292</ele>
        <time>2020-03-14T16:04:11.291Z</time>
      </trkpt>
      <trkpt lat="48.55486" lon="-4.39174">
        <ele>46.593636</ele>
        <time>2020-03-14T16:04:19.389Z</time>
      </trkpt>
      <trkpt lat="48.55483" lon="-4.39166">
        <ele>46.50236</ele>
        <time>2020-03-14T16:04:20.906Z</time>
      </trkpt>
      <trkpt lat="48.55481" lon="-4.39177">
        <ele>46.385997</ele>
        <time>2020-03-14T16:04:22.841Z</time>
      </trkpt>
      <trkpt lat="48.55462" lon="-4.39197">
        <ele>46.021452</ele>
        <time>2020-03-14T16:04:28.892Z</time>
      </trkpt>
      <trkpt lat="48.55459" lon="-4.39208">
        <ele>45.899226</ele>
        <time>2020-03-14T16:04:30.924Z</time>
      </trkpt>
      <trkpt lat="48.55443" lon="-4.392">
        <ele>45.629815</ele>
        <time>2020-03-14T16:04:35.393Z</time>
      </trkpt>
      <trkpt lat="48.55436" lon="-4.39196">
        <ele>45.516743</ele>
        <time>2020-03-14T16:04:37.268Z</time>
      </trkpt>
      <trkpt lat="48.55437" lon="-4.39191">
        <ele>45.463777</ele>
        <time>2020-03-14T16:04:38.149Z</time>
      </trkpt>
      <trkpt lat="48.55439" lon="-4.39186">
        <ele>45.402981</ele>
        <time>2020-03-14T16:04:39.160Z</time>
      </trkpt>
      <trkpt lat="48.55442" lon="-4.39172">
        <ele>45.253314</ele>
        <time>2020-03-14T16:04:41.648Z</time>
      </trkpt>
      <trkpt lat="48.55445" lon="-4.39159">
        <ele>45.109794</ele>
        <time>2020-03-14T16:04:44.034Z</time>
      </trkpt>
      <trkpt lat="48.55442" lon="-4.3915">
        <ele>45.009633</ele>
        <time>2020-03-14T16:04:45.699Z</time>
      </trkpt>
      <trkpt lat="48.55434" lon="-4.39142">
        <ele>44.860013</ele>
        <time>2020-03-14T16:04:48.184Z</time>
      </trkpt>
      <trkpt lat="48.55391" lon="-4.39112">
        <ele>44.117219</ele>
        <time>2020-03-14T16:05:00.511Z</time>
      </trkpt>
      <trkpt lat="48.55348" lon="-4.39081">
        <ele>42.790751</ele>
        <time>2020-03-14T16:05:12.861Z</time>
      </trkpt>
      <trkpt lat="48.55323" lon="-4.39092">
        <ele>42.017764</ele>
        <time>2020-03-14T16:05:20.383Z</time>
      </trkpt>
      <trkpt lat="48.55311" lon="-4.39104">
        <ele>41.60083</ele>
        <time>2020-03-14T16:05:24.809Z</time>
      </trkpt>
      <trkpt lat="48.55304" lon="-4.39112">
        <ele>41.320821</ele>
        <time>2020-03-14T16:05:27.447Z</time>
      </trkpt>
      <trkpt lat="48.55294" lon="-4.39132">
        <ele>40.816443</ele>
        <time>2020-03-14T16:05:32.333Z</time>
      </trkpt>
      <trkpt lat="48.55272" lon="-4.39193">
        <ele>39.444129</ele>
        <time>2020-03-14T16:05:46.227Z</time>
      </trkpt>
      <trkpt lat="48.55256" lon="-4.39202">
        <ele>38.922555</ele>
        <time>2020-03-14T16:05:51.244Z</time>
      </trkpt>
      <trkpt lat="48.5524" lon="-4.39199">
        <ele>38.456743</ele>
        <time>2020-03-14T16:05:56.206Z</time>
      </trkpt>
      <trkpt lat="48.55225" lon="-4.39182">
        <ele>37.978348</ele>
        <time>2020-03-14T16:06:01.264Z</time>
      </trkpt>
      <trkpt lat="48.55225" lon="-4.39159">
        <ele>37.593989</ele>
        <time>2020-03-14T16:06:05.588Z</time>
      </trkpt>
      <trkpt lat="48.55145" lon="-4.39089">
        <ele>35.170668</ele>
        <time>2020-03-14T16:06:33.346Z</time>
      </trkpt>
      <trkpt lat="48.5513" lon="-4.39065">
        <ele>34.587063</ele>
        <time>2020-03-14T16:06:40.578Z</time>
      </trkpt>
      <trkpt lat="48.55123" lon="-4.39058">
        <ele>34.374973</ele>
        <time>2020-03-14T16:06:42.985Z</time>
      </trkpt>
      <trkpt lat="48.55116" lon="-4.39056">
        <ele>34.180274</ele>
        <time>2020-03-14T16:06:45.259Z</time>
      </trkpt>
      <trkpt lat="48.55086" lon="-4.39049">
        <ele>34.068857</ele>
        <time>2020-03-14T16:06:54.893Z</time>
      </trkpt>
      <trkpt lat="48.55039" lon="-4.39006">
        <ele>34.532065</ele>
        <time>2020-03-14T16:07:15.335Z</time>
      </trkpt>
      <trkpt lat="48.55007" lon="-4.38977">
        <ele>34.839965</ele>
        <time>2020-03-14T16:07:30.622Z</time>
      </trkpt>
      <trkpt lat="48.5498" lon="-4.38988">
        <ele>35.079091</ele>
        <time>2020-03-14T16:07:42.892Z</time>
      </trkpt>
      <trkpt lat="48.54958" lon="-4.38976">
        <ele>35.271341</ele>
        <time>2020-03-14T16:07:53.494Z</time>
      </trkpt>
      <trkpt lat="48.54952" lon="-4.38971">
        <ele>35.326183</ele>
        <time>2020-03-14T16:07:56.475Z</time>
      </trkpt>
      <trkpt lat="48.54948" lon="-4.38982">
        <ele>35.399374</ele>
        <time>2020-03-14T16:08:00.319Z</time>
      </trkpt>
      <trkpt lat="48.54944" lon="-4.3899">
        <ele>35.647521</ele>
        <time>2020-03-14T16:08:02.651Z</time>
      </trkpt>
      <trkpt lat="48.54939" lon="-4.38994">
        <ele>35.860277</ele>
        <time>2020-03-14T16:08:04.333Z</time>
      </trkpt>
      <trkpt lat="48.54935" lon="-4.38995">
        <ele>36.053984</ele>
        <time>2020-03-14T16:08:05.824Z</time>
      </trkpt>
      <trkpt lat="48.54929" lon="-4.38996">
        <ele>36.293842</ele>
        <time>2020-03-14T16:08:07.561Z</time>
      </trkpt>
      <trkpt lat="48.54916" lon="-4.38991">
        <ele>36.854354</ele>
        <time>2020-03-14T16:08:13.172Z</time>
      </trkpt>
      <trkpt lat="48.54883" lon="-4.38981">
        <ele>38.273262</ele>
        <time>2020-03-14T16:08:25.862Z</time>
      </trkpt>
      <trkpt lat="48.54856" lon="-4.38982">
        <ele>39.417021</ele>
        <time>2020-03-14T16:08:36.225Z</time>
      </trkpt>
      <trkpt lat="48.54807" lon="-4.38996">
        <ele>41.504988</ele>
        <time>2020-03-14T16:08:58.065Z</time>
      </trkpt>
      <trkpt lat="48.54785" lon="-4.38994">
        <ele>42.419388</ele>
        <time>2020-03-14T16:09:07.276Z</time>
      </trkpt>
      <trkpt lat="48.5456" lon="-4.38868">
        <ele>52.628456</ele>
        <time>2020-03-14T16:10:43.221Z</time>
      </trkpt>
      <trkpt lat="48.54542" lon="-4.38857">
        <ele>53.258788</ele>
        <time>2020-03-14T16:10:50.869Z</time>
      </trkpt>
      <trkpt lat="48.54511" lon="-4.38838">
        <ele>54.368066</ele>
        <time>2020-03-14T16:11:03.661Z</time>
      </trkpt>
      <trkpt lat="48.54463" lon="-4.388">
        <ele>56.159603</ele>
        <time>2020-03-14T16:11:22.734Z</time>
      </trkpt>
      <trkpt lat="48.54376" lon="-4.38772">
        <ele>56.644443</ele>
        <time>2020-03-14T16:11:45.655Z</time>
      </trkpt>
      <trkpt lat="48.54369" lon="-4.38774">
        <ele>56.608643</ele>
        <time>2020-03-14T16:11:47.603Z</time>
      </trkpt>
      <trkpt lat="48.54345" lon="-4.38614">
        <ele>56.031907</ele>
        <time>2020-03-14T16:12:22.857Z</time>
      </trkpt>
      <trkpt lat="48.54335" lon="-4.38558">
        <ele>55.020694</ele>
        <time>2020-03-14T16:12:34.760Z</time>
      </trkpt>
      <trkpt lat="48.54273" lon="-4.38267">
        <ele>49.360618</ele>
        <time>2020-03-14T16:13:35.668Z</time>
      </trkpt>
      <trkpt lat="48.5427" lon="-4.38263">
        <ele>49.244375</ele>
        <time>2020-03-14T16:13:36.826Z</time>
      </trkpt>
      <trkpt lat="48.54273" lon="-4.38255">
        <ele>49.062935</ele>
        <time>2020-03-14T16:13:38.403Z</time>
      </trkpt>
      <trkpt lat="48.54322" lon="-4.38183">
        <ele>46.954992</ele>
        <time>2020-03-14T16:13:58.988Z</time>
      </trkpt>
      <trkpt lat="48.54333" lon="-4.38113">
        <ele>45.531753</ele>
        <time>2020-03-14T16:14:12.817Z</time>
      </trkpt>
      <trkpt lat="48.5435" lon="-4.38093">
        <ele>44.975577</ele>
        <time>2020-03-14T16:14:19.327Z</time>
      </trkpt>
      <trkpt lat="48.54436" lon="-4.38039">
        <ele>42.554556</ele>
        <time>2020-03-14T16:14:47.413Z</time>
      </trkpt>
      <trkpt lat="48.54482" lon="-4.38034">
        <ele>41.37535</ele>
        <time>2020-03-14T16:15:01.700Z</time>
      </trkpt>
      <trkpt lat="48.54503" lon="-4.38015">
        <ele>40.875221</ele>
        <time>2020-03-14T16:15:09.587Z</time>
      </trkpt>
      <trkpt lat="48.54508" lon="-4.37981">
        <ele>40.551615</ele>
        <time>2020-03-14T16:15:17.127Z</time>
      </trkpt>
      <trkpt lat="48.54501" lon="-4.37868">
        <ele>39.513164</ele>
        <time>2020-03-14T16:15:41.960Z</time>
      </trkpt>
      <trkpt lat="48.54494" lon="-4.37823">
        <ele>39.089848</ele>
        <time>2020-03-14T16:15:52.385Z</time>
      </trkpt>
      <trkpt lat="48.54489" lon="-4.37772">
        <ele>38.61689</ele>
        <time>2020-03-14T16:16:04.034Z</time>
      </trkpt>
      <trkpt lat="48.54483" lon="-4.37571">
        <ele>37.365065</ele>
        <time>2020-03-14T16:16:47.606Z</time>
      </trkpt>
      <trkpt lat="48.54481" lon="-4.37533">
        <ele>37.131783</ele>
        <time>2020-03-14T16:16:56.287Z</time>
      </trkpt>
      <trkpt lat="48.54477" lon="-4.3748">
        <ele>36.967924</ele>
        <time>2020-03-14T16:17:09.616Z</time>
      </trkpt>
      <trkpt lat="48.54476" lon="-4.37467">
        <ele>37.052132</ele>
        <time>2020-03-14T16:17:13.458Z</time>
      </trkpt>
      <trkpt lat="48.54471" lon="-4.37441">
        <ele>37.223268</ele>
        <time>2020-03-14T16:17:20.329Z</time>
      </trkpt>
      <trkpt lat="48.54466" lon="-4.37423">
        <ele>37.348301</ele>
        <time>2020-03-14T16:17:24.973Z</time>
      </trkpt>
      <trkpt lat="48.54466" lon="-4.37423">
        <ele>37.348301</ele>
        <time>2020-03-14T16:17:25.019Z</time>
      </trkpt>
      <trkpt lat="48.54466" lon="-4.37423">
        <ele>37.348301</ele>
        <time>2020-03-14T16:17:25.113Z</time>
      </trkpt>
      <trkpt lat="48.5446" lon="-4.37412">
        <ele>37.442021</ele>
        <time>2020-03-14T16:17:27.623Z</time>
      </trkpt>
      <trkpt lat="48.5446" lon="-4.37412">
        <ele>37.442021</ele>
        <time>2020-03-14T16:17:27.668Z</time>
      </trkpt>
      <trkpt lat="48.54433" lon="-4.37451">
        <ele>37.802309</ele>
        <time>2020-03-14T16:17:37.753Z</time>
      </trkpt>
      <trkpt lat="48.54417" lon="-4.37466">
        <ele>37.980818</ele>
        <time>2020-03-14T16:17:42.802Z</time>
      </trkpt>
      <trkpt lat="48.54391" lon="-4.37481">
        <ele>38.246141</ele>
        <time>2020-03-14T16:17:50.762Z</time>
      </trkpt>
      <trkpt lat="48.54391" lon="-4.37481">
        <ele>38.246141</ele>
        <time>2020-03-14T16:17:50.960Z</time>
      </trkpt>
      <trkpt lat="48.54391" lon="-4.37481">
        <ele>38.246141</ele>
        <time>2020-03-14T16:17:50.983Z</time>
      </trkpt>
      <trkpt lat="48.5434" lon="-4.37447">
        <ele>38.788145</ele>
        <time>2020-03-14T16:18:15.821Z</time>
      </trkpt>
      <trkpt lat="48.54306" lon="-4.37417">
        <ele>39.165173</ele>
        <time>2020-03-14T16:18:33.770Z</time>
      </trkpt>
      <trkpt lat="48.5423" lon="-4.37376">
        <ele>39.931194</ele>
        <time>2020-03-14T16:19:07.215Z</time>
      </trkpt>
      <trkpt lat="48.54149" lon="-4.37292">
        <ele>40.047354</ele>
        <time>2020-03-14T16:19:42.707Z</time>
      </trkpt>
      <trkpt lat="48.54117" lon="-4.37268">
        <ele>39.874864</ele>
        <time>2020-03-14T16:19:54.904Z</time>
      </trkpt>
      <trkpt lat="48.54089" lon="-4.37261">
        <ele>39.735453</ele>
        <time>2020-03-14T16:20:04.662Z</time>
      </trkpt>
      <trkpt lat="48.54041" lon="-4.37284">
        <ele>39.486945</ele>
        <time>2020-03-14T16:20:22.100Z</time>
      </trkpt>
      <trkpt lat="48.53982" lon="-4.3724">
        <ele>39.691823</ele>
        <time>2020-03-14T16:20:44.840Z</time>
      </trkpt>
      <trkpt lat="48.53953" lon="-4.37228">
        <ele>39.823964</ele>
        <time>2020-03-14T16:20:56.438Z</time>
      </trkpt>
      <trkpt lat="48.53917" lon="-4.37191">
        <ele>40.017655</ele>
        <time>2020-03-14T16:21:13.581Z</time>
      </trkpt>
      <trkpt lat="48.53888" lon="-4.37146">
        <ele>40.203001</ele>
        <time>2020-03-14T16:21:30.731Z</time>
      </trkpt>
      <trkpt lat="48.53882" lon="-4.37126">
        <ele>40.394829</ele>
        <time>2020-03-14T16:21:37.809Z</time>
      </trkpt>
      <trkpt lat="48.53875" lon="-4.37093">
        <ele>40.955561</ele>
        <time>2020-03-14T16:21:48.028Z</time>
      </trkpt>
      <trkpt lat="48.53856" lon="-4.37099">
        <ele>41.442197</ele>
        <time>2020-03-14T16:21:58.103Z</time>
      </trkpt>
      <trkpt lat="48.53818" lon="-4.3712">
        <ele>42.414062</ele>
        <time>2020-03-14T16:22:16.570Z</time>
      </trkpt>
      <trkpt lat="48.53815" lon="-4.37123">
        <ele>42.49794</ele>
        <time>2020-03-14T16:22:18.352Z</time>
      </trkpt>
      <trkpt lat="48.53773" lon="-4.37163">
        <ele>43.719493</ele>
        <time>2020-03-14T16:22:41.448Z</time>
      </trkpt>
      <trkpt lat="48.53752" lon="-4.37187">
        <ele>44.351643</ele>
        <time>2020-03-14T16:22:54.786Z</time>
      </trkpt>
      <trkpt lat="48.53737" lon="-4.37206">
        <ele>44.767765</ele>
        <time>2020-03-14T16:23:04.582Z</time>
      </trkpt>
      <trkpt lat="48.53705" lon="-4.37265">
        <ele>45.583551</ele>
        <time>2020-03-14T16:23:29.458Z</time>
      </trkpt>
      <trkpt lat="48.53699" lon="-4.37284">
        <ele>45.817872</ele>
        <time>2020-03-14T16:23:34.786Z</time>
      </trkpt>
      <trkpt lat="48.53695" lon="-4.37288">
        <ele>45.887588</ele>
        <time>2020-03-14T16:23:36.899Z</time>
      </trkpt>
      <trkpt lat="48.53693" lon="-4.37289">
        <ele>45.923766</ele>
        <time>2020-03-14T16:23:37.984Z</time>
      </trkpt>
      <trkpt lat="48.5369" lon="-4.37291">
        <ele>45.974873</ele>
        <time>2020-03-14T16:23:39.526Z</time>
      </trkpt>
      <trkpt lat="48.53693" lon="-4.37279">
        <ele>46.110687</ele>
        <time>2020-03-14T16:23:42.557Z</time>
      </trkpt>
      <trkpt lat="48.53737" lon="-4.37161">
        <ele>47.543875</ele>
        <time>2020-03-14T16:24:05.860Z</time>
      </trkpt>
      <trkpt lat="48.5374" lon="-4.37148">
        <ele>47.505604</ele>
        <time>2020-03-14T16:24:08.506Z</time>
      </trkpt>
      <trkpt lat="48.5374" lon="-4.37136">
        <ele>47.471318</ele>
        <time>2020-03-14T16:24:12.003Z</time>
      </trkpt>
      <trkpt lat="48.5374" lon="-4.37128">
        <ele>47.448271</ele>
        <time>2020-03-14T16:24:14.096Z</time>
      </trkpt>
      <trkpt lat="48.53742" lon="-4.37123">
        <ele>47.432161</ele>
        <time>2020-03-14T16:24:15.202Z</time>
      </trkpt>
      <trkpt lat="48.53744" lon="-4.37118">
        <ele>47.416859</ele>
        <time>2020-03-14T16:24:15.833Z</time>
      </trkpt>
      <trkpt lat="48.53765" lon="-4.3708">
        <ele>47.279833</ele>
        <time>2020-03-14T16:24:23.684Z</time>
      </trkpt>
      <trkpt lat="48.53775" lon="-4.37043">
        <ele>47.169109</ele>
        <time>2020-03-14T16:24:29.214Z</time>
      </trkpt>
      <trkpt lat="48.5377" lon="-4.36948">
        <ele>46.902594</ele>
        <time>2020-03-14T16:24:42.289Z</time>
      </trkpt>
      <trkpt lat="48.53771" lon="-4.36926">
        <ele>46.839515</ele>
        <time>2020-03-14T16:24:46.037Z</time>
      </trkpt>
      <trkpt lat="48.53771" lon="-4.36924">
        <ele>46.834757</ele>
        <time>2020-03-14T16:24:46.199Z</time>
      </trkpt>
      <trkpt lat="48.53785" lon="-4.36856">
        <ele>46.328809</ele>
        <time>2020-03-14T16:24:55.530Z</time>
      </trkpt>
      <trkpt lat="48.53791" lon="-4.36841">
        <ele>46.177056</ele>
        <time>2020-03-14T16:24:57.716Z</time>
      </trkpt>
      <trkpt lat="48.53781" lon="-4.36831">
        <ele>46.017136</ele>
        <time>2020-03-14T16:25:02.210Z</time>
      </trkpt>
      <trkpt lat="48.53769" lon="-4.36819">
        <ele>45.839363</ele>
        <time>2020-03-14T16:25:06.686Z</time>
      </trkpt>
      <trkpt lat="48.53752" lon="-4.36795">
        <ele>45.544549</ele>
        <time>2020-03-14T16:25:14.123Z</time>
      </trkpt>
      <trkpt lat="48.53739" lon="-4.36777">
        <ele>45.314607</ele>
        <time>2020-03-14T16:25:19.982Z</time>
      </trkpt>
      <trkpt lat="48.53722" lon="-4.36761">
        <ele>45.06817</ele>
        <time>2020-03-14T16:25:26.298Z</time>
      </trkpt>
      <trkpt lat="48.53695" lon="-4.36741">
        <ele>44.680178</ele>
        <time>2020-03-14T16:25:36.399Z</time>
      </trkpt>
      <trkpt lat="48.53666" lon="-4.36723">
        <ele>44.356955</ele>
        <time>2020-03-14T16:25:46.620Z</time>
      </trkpt>
      <trkpt lat="48.53635" lon="-4.36686">
        <ele>44.016117</ele>
        <time>2020-03-14T16:26:00.490Z</time>
      </trkpt>
      <trkpt lat="48.53623" lon="-4.36662">
        <ele>43.844646</ele>
        <time>2020-03-14T16:26:07.304Z</time>
      </trkpt>
      <trkpt lat="48.53584" lon="-4.36622">
        <ele>43.436368</ele>
        <time>2020-03-14T16:26:23.412Z</time>
      </trkpt>
      <trkpt lat="48.53552" lon="-4.36581">
        <ele>43.074672</ele>
        <time>2020-03-14T16:26:37.735Z</time>
      </trkpt>
      <trkpt lat="48.53538" lon="-4.36563">
        <ele>42.935972</ele>
        <time>2020-03-14T16:26:44.272Z</time>
      </trkpt>
      <trkpt lat="48.53447" lon="-4.36498">
        <ele>42.48913</ele>
        <time>2020-03-14T16:27:19.708Z</time>
      </trkpt>
      <trkpt lat="48.53421" lon="-4.36493">
        <ele>42.373403</ele>
        <time>2020-03-14T16:27:28.724Z</time>
      </trkpt>
      <trkpt lat="48.53403" lon="-4.36499">
        <ele>42.291036</ele>
        <time>2020-03-14T16:27:35.130Z</time>
      </trkpt>
      <trkpt lat="48.53395" lon="-4.36498">
        <ele>42.256786</ele>
        <time>2020-03-14T16:27:37.772Z</time>
      </trkpt>
      <trkpt lat="48.53373" lon="-4.36491">
        <ele>42.156268</ele>
        <time>2020-03-14T16:27:45.806Z</time>
      </trkpt>
      <trkpt lat="48.53317" lon="-4.36421">
        <ele>42.406056</ele>
        <time>2020-03-14T16:28:14.536Z</time>
      </trkpt>
      <trkpt lat="48.53276" lon="-4.36378">
        <ele>42.575376</ele>
        <time>2020-03-14T16:28:33.457Z</time>
      </trkpt>
      <trkpt lat="48.53249" lon="-4.36362">
        <ele>42.675569</ele>
        <time>2020-03-14T16:28:44.115Z</time>
      </trkpt>
      <trkpt lat="48.53237" lon="-4.36359">
        <ele>42.720059</ele>
        <time>2020-03-14T16:28:49.323Z</time>
      </trkpt>
      <trkpt lat="48.53224" lon="-4.36361">
        <ele>42.76442</ele>
        <time>2020-03-14T16:28:54.453Z</time>
      </trkpt>
      <trkpt lat="48.5322" lon="-4.36365">
        <ele>42.794707</ele>
        <time>2020-03-14T16:28:56.250Z</time>
      </trkpt>
      <trkpt lat="48.53219" lon="-4.36367">
        <ele>42.804027</ele>
        <time>2020-03-14T16:28:56.633Z</time>
      </trkpt>
      <trkpt lat="48.53216" lon="-4.36377">
        <ele>42.880629</ele>
        <time>2020-03-14T16:28:59.296Z</time>
      </trkpt>
      <trkpt lat="48.53217" lon="-4.36378">
        <ele>42.889214</ele>
        <time>2020-03-14T16:28:59.659Z</time>
      </trkpt>
      <trkpt lat="48.53218" lon="-4.36391">
        <ele>42.986321</ele>
        <time>2020-03-14T16:29:03.652Z</time>
      </trkpt>
      <trkpt lat="48.53217" lon="-4.36378">
        <ele>43.083429</ele>
        <time>2020-03-14T16:29:07.630Z</time>
      </trkpt>
      <trkpt lat="48.53216" lon="-4.36377">
        <ele>43.092013</ele>
        <time>2020-03-14T16:29:07.939Z</time>
      </trkpt>
      <trkpt lat="48.53219" lon="-4.36367">
        <ele>43.168615</ele>
        <time>2020-03-14T16:29:11.000Z</time>
      </trkpt>
      <trkpt lat="48.53224" lon="-4.36367">
        <ele>43.217899</ele>
        <time>2020-03-14T16:29:12.839Z</time>
      </trkpt>
      <trkpt lat="48.53252" lon="-4.36378">
        <ele>43.517313</ele>
        <time>2020-03-14T16:29:25.136Z</time>
      </trkpt>
      <trkpt lat="48.53302" lon="-4.36442">
        <ele>44.204258</ele>
        <time>2020-03-14T16:29:54.033Z</time>
      </trkpt>
      <trkpt lat="48.53304" lon="-4.36456">
        <ele>44.307099</ele>
        <time>2020-03-14T16:29:57.921Z</time>
      </trkpt>
      <trkpt lat="48.53307" lon="-4.36471">
        <ele>44.411517</ele>
        <time>2020-03-14T16:30:01.862Z</time>
      </trkpt>
      <trkpt lat="48.53312" lon="-4.36489">
        <ele>44.54862</ele>
        <time>2020-03-14T16:30:06.076Z</time>
      </trkpt>
      <trkpt lat="48.53313" lon="-4.36505">
        <ele>44.658304</ele>
        <time>2020-03-14T16:30:09.017Z</time>
      </trkpt>
      <trkpt lat="48.53312" lon="-4.36513">
        <ele>44.658304</ele>
        <time>2020-03-14T16:30:10.551Z</time>
      </trkpt>
      <trkpt lat="48.53272" lon="-4.36547">
        <ele>44.658304</ele>
        <time>2020-03-14T16:30:24.733Z</time>
      </trkpt>
      <trkpt lat="48.53266" lon="-4.36556">
        <ele>44.658304</ele>
        <time>2020-03-14T16:30:27.584Z</time>
      </trkpt>
      <trkpt lat="48.53263" lon="-4.36542">
        <ele>44.658304</ele>
        <time>2020-03-14T16:30:30.339Z</time>
      </trkpt>
      <trkpt lat="48.53251" lon="-4.3651">
        <ele>44.658304</ele>
        <time>2020-03-14T16:30:38.368Z</time>
      </trkpt>
      <trkpt lat="48.53249" lon="-4.36506">
        <ele>44.658304</ele>
        <time>2020-03-14T16:30:39.300Z</time>
      </trkpt>
      <trkpt lat="48.53249" lon="-4.36497">
        <ele>44.658304</ele>
        <time>2020-03-14T16:30:40.910Z</time>
      </trkpt>
      <trkpt lat="48.53251" lon="-4.36489">
        <ele>44.658304</ele>
        <time>2020-03-14T16:30:42.741Z</time>
      </trkpt>
    </trkseg>
  </trk>
</gpx>